<?xml version="1.0" encoding="UTF-8" standalone="no" ?>
<gpx xmlns="http://www.topografix.com/GPX/1/1" xmlns:xsi="http://www.w3.org/2001/XMLSchema-instance" xsi:schemaLocation="http://www.topografix.com/GPX/1/1 http://www.topografix.com/GPX/1/1/gpx.xsd" version="1.1" creator="VisuGPX - https://www.visugpx.com">
  <metadata>
    <name>31jan2015</name>
    <desc><![CDATA[club vtt des rochers]]></desc>
  </metadata>
  <trk>
    <name><![CDATA[31-JAN-15 17-28-19]]></name>
    <trkseg>
      <trkpt lat="44.47207" lon="0.93419">
        <ele>67.43</ele>
        <time>2015-01-31T13:08:14Z</time>
      </trkpt>
      <trkpt lat="44.47208" lon="0.93421">
        <ele>66.95</ele>
        <time>2015-01-31T13:08:41Z</time>
      </trkpt>
      <trkpt lat="44.47209" lon="0.93425">
        <ele>65.99</ele>
        <time>2015-01-31T13:08:54Z</time>
      </trkpt>
      <trkpt lat="44.47209" lon="0.93425">
        <ele>65.51</ele>
        <time>2015-01-31T13:09:10Z</time>
      </trkpt>
      <trkpt lat="44.47209" lon="0.93426">
        <ele>65.51</ele>
        <time>2015-01-31T13:09:30Z</time>
      </trkpt>
      <trkpt lat="44.47209" lon="0.93426">
        <ele>65.99</ele>
        <time>2015-01-31T13:09:48Z</time>
      </trkpt>
      <trkpt lat="44.47209" lon="0.93426">
        <ele>65.99</ele>
        <time>2015-01-31T13:10:09Z</time>
      </trkpt>
      <trkpt lat="44.4721" lon="0.93427">
        <ele>65.03</ele>
        <time>2015-01-31T13:10:25Z</time>
      </trkpt>
      <trkpt lat="44.4721" lon="0.93426">
        <ele>64.55</ele>
        <time>2015-01-31T13:10:40Z</time>
      </trkpt>
      <trkpt lat="44.47209" lon="0.93426">
        <ele>65.03</ele>
        <time>2015-01-31T13:10:59Z</time>
      </trkpt>
      <trkpt lat="44.47209" lon="0.93426">
        <ele>65.51</ele>
        <time>2015-01-31T13:11:21Z</time>
      </trkpt>
      <trkpt lat="44.47209" lon="0.93427">
        <ele>65.51</ele>
        <time>2015-01-31T13:11:39Z</time>
      </trkpt>
      <trkpt lat="44.47208" lon="0.93427">
        <ele>65.51</ele>
        <time>2015-01-31T13:12:01Z</time>
      </trkpt>
      <trkpt lat="44.47207" lon="0.93427">
        <ele>65.03</ele>
        <time>2015-01-31T13:12:23Z</time>
      </trkpt>
      <trkpt lat="44.47204" lon="0.9343">
        <ele>65.03</ele>
        <time>2015-01-31T13:12:27Z</time>
      </trkpt>
      <trkpt lat="44.47197" lon="0.93437">
        <ele>65.03</ele>
        <time>2015-01-31T13:12:41Z</time>
      </trkpt>
      <trkpt lat="44.47197" lon="0.93438">
        <ele>64.07</ele>
        <time>2015-01-31T13:13:00Z</time>
      </trkpt>
      <trkpt lat="44.47197" lon="0.93437">
        <ele>64.55</ele>
        <time>2015-01-31T13:13:24Z</time>
      </trkpt>
      <trkpt lat="44.47196" lon="0.93437">
        <ele>63.58</ele>
        <time>2015-01-31T13:13:48Z</time>
      </trkpt>
      <trkpt lat="44.47196" lon="0.93437">
        <ele>64.07</ele>
        <time>2015-01-31T13:14:11Z</time>
      </trkpt>
      <trkpt lat="44.47196" lon="0.93437">
        <ele>63.58</ele>
        <time>2015-01-31T13:14:34Z</time>
      </trkpt>
      <trkpt lat="44.47196" lon="0.93438">
        <ele>63.58</ele>
        <time>2015-01-31T13:14:59Z</time>
      </trkpt>
      <trkpt lat="44.47196" lon="0.93438">
        <ele>63.58</ele>
        <time>2015-01-31T13:15:23Z</time>
      </trkpt>
      <trkpt lat="44.47196" lon="0.93438">
        <ele>64.07</ele>
        <time>2015-01-31T13:15:44Z</time>
      </trkpt>
      <trkpt lat="44.47196" lon="0.93438">
        <ele>64.55</ele>
        <time>2015-01-31T13:16:07Z</time>
      </trkpt>
      <trkpt lat="44.47196" lon="0.93438">
        <ele>65.03</ele>
        <time>2015-01-31T13:16:28Z</time>
      </trkpt>
      <trkpt lat="44.47196" lon="0.93438">
        <ele>64.55</ele>
        <time>2015-01-31T13:16:55Z</time>
      </trkpt>
      <trkpt lat="44.47196" lon="0.93439">
        <ele>64.07</ele>
        <time>2015-01-31T13:17:11Z</time>
      </trkpt>
      <trkpt lat="44.47196" lon="0.93443">
        <ele>64.07</ele>
        <time>2015-01-31T13:17:14Z</time>
      </trkpt>
      <trkpt lat="44.4719" lon="0.93459">
        <ele>65.03</ele>
        <time>2015-01-31T13:17:23Z</time>
      </trkpt>
      <trkpt lat="44.47188" lon="0.9346">
        <ele>65.03</ele>
        <time>2015-01-31T13:17:24Z</time>
      </trkpt>
      <trkpt lat="44.47186" lon="0.9346">
        <ele>65.03</ele>
        <time>2015-01-31T13:17:25Z</time>
      </trkpt>
      <trkpt lat="44.47184" lon="0.9346">
        <ele>65.03</ele>
        <time>2015-01-31T13:17:26Z</time>
      </trkpt>
      <trkpt lat="44.47181" lon="0.93461">
        <ele>65.51</ele>
        <time>2015-01-31T13:17:27Z</time>
      </trkpt>
      <trkpt lat="44.47179" lon="0.93463">
        <ele>65.51</ele>
        <time>2015-01-31T13:17:28Z</time>
      </trkpt>
      <trkpt lat="44.47177" lon="0.93464">
        <ele>65.51</ele>
        <time>2015-01-31T13:17:29Z</time>
      </trkpt>
      <trkpt lat="44.47174" lon="0.93465">
        <ele>65.51</ele>
        <time>2015-01-31T13:17:30Z</time>
      </trkpt>
      <trkpt lat="44.47172" lon="0.93466">
        <ele>65.51</ele>
        <time>2015-01-31T13:17:31Z</time>
      </trkpt>
      <trkpt lat="44.47169" lon="0.93468">
        <ele>65.99</ele>
        <time>2015-01-31T13:17:32Z</time>
      </trkpt>
      <trkpt lat="44.47166" lon="0.93469">
        <ele>65.99</ele>
        <time>2015-01-31T13:17:33Z</time>
      </trkpt>
      <trkpt lat="44.47113" lon="0.93491">
        <ele>65.03</ele>
        <time>2015-01-31T13:17:51Z</time>
      </trkpt>
      <trkpt lat="44.4711" lon="0.93491">
        <ele>65.51</ele>
        <time>2015-01-31T13:18:03Z</time>
      </trkpt>
      <trkpt lat="44.47109" lon="0.93491">
        <ele>65.51</ele>
        <time>2015-01-31T13:18:07Z</time>
      </trkpt>
      <trkpt lat="44.47107" lon="0.9349">
        <ele>65.03</ele>
        <time>2015-01-31T13:18:08Z</time>
      </trkpt>
      <trkpt lat="44.47105" lon="0.93488">
        <ele>65.03</ele>
        <time>2015-01-31T13:18:09Z</time>
      </trkpt>
      <trkpt lat="44.47092" lon="0.93475">
        <ele>65.03</ele>
        <time>2015-01-31T13:18:15Z</time>
      </trkpt>
      <trkpt lat="44.47088" lon="0.93476">
        <ele>65.03</ele>
        <time>2015-01-31T13:18:16Z</time>
      </trkpt>
      <trkpt lat="44.47085" lon="0.93478">
        <ele>65.03</ele>
        <time>2015-01-31T13:18:17Z</time>
      </trkpt>
      <trkpt lat="44.47082" lon="0.93481">
        <ele>65.51</ele>
        <time>2015-01-31T13:18:18Z</time>
      </trkpt>
      <trkpt lat="44.47079" lon="0.93484">
        <ele>65.51</ele>
        <time>2015-01-31T13:18:19Z</time>
      </trkpt>
      <trkpt lat="44.47029" lon="0.93532">
        <ele>65.99</ele>
        <time>2015-01-31T13:18:34Z</time>
      </trkpt>
      <trkpt lat="44.46971" lon="0.93585">
        <ele>66.95</ele>
        <time>2015-01-31T13:18:50Z</time>
      </trkpt>
      <trkpt lat="44.46967" lon="0.93587">
        <ele>66.47</ele>
        <time>2015-01-31T13:18:51Z</time>
      </trkpt>
      <trkpt lat="44.46963" lon="0.93589">
        <ele>66.47</ele>
        <time>2015-01-31T13:18:52Z</time>
      </trkpt>
      <trkpt lat="44.46958" lon="0.9359">
        <ele>66.95</ele>
        <time>2015-01-31T13:18:53Z</time>
      </trkpt>
      <trkpt lat="44.46954" lon="0.9359">
        <ele>66.95</ele>
        <time>2015-01-31T13:18:54Z</time>
      </trkpt>
      <trkpt lat="44.4695" lon="0.9359">
        <ele>66.95</ele>
        <time>2015-01-31T13:18:55Z</time>
      </trkpt>
      <trkpt lat="44.46945" lon="0.93589">
        <ele>66.95</ele>
        <time>2015-01-31T13:18:56Z</time>
      </trkpt>
      <trkpt lat="44.4694" lon="0.93587">
        <ele>67.43</ele>
        <time>2015-01-31T13:18:57Z</time>
      </trkpt>
      <trkpt lat="44.46932" lon="0.93584">
        <ele>67.43</ele>
        <time>2015-01-31T13:18:59Z</time>
      </trkpt>
      <trkpt lat="44.4686" lon="0.93555">
        <ele>66.95</ele>
        <time>2015-01-31T13:19:15Z</time>
      </trkpt>
      <trkpt lat="44.4681" lon="0.93535">
        <ele>65.99</ele>
        <time>2015-01-31T13:19:27Z</time>
      </trkpt>
      <trkpt lat="44.46808" lon="0.93537">
        <ele>65.99</ele>
        <time>2015-01-31T13:19:28Z</time>
      </trkpt>
      <trkpt lat="44.46805" lon="0.93544">
        <ele>65.99</ele>
        <time>2015-01-31T13:19:30Z</time>
      </trkpt>
      <trkpt lat="44.46798" lon="0.93585">
        <ele>69.35</ele>
        <time>2015-01-31T13:19:40Z</time>
      </trkpt>
      <trkpt lat="44.46798" lon="0.93592">
        <ele>70.31</ele>
        <time>2015-01-31T13:19:42Z</time>
      </trkpt>
      <trkpt lat="44.46799" lon="0.93594">
        <ele>70.31</ele>
        <time>2015-01-31T13:19:43Z</time>
      </trkpt>
      <trkpt lat="44.46802" lon="0.93596">
        <ele>70.31</ele>
        <time>2015-01-31T13:19:44Z</time>
      </trkpt>
      <trkpt lat="44.46805" lon="0.93598">
        <ele>70.31</ele>
        <time>2015-01-31T13:19:45Z</time>
      </trkpt>
      <trkpt lat="44.46849" lon="0.93618">
        <ele>70.79</ele>
        <time>2015-01-31T13:19:59Z</time>
      </trkpt>
      <trkpt lat="44.46861" lon="0.93623">
        <ele>71.76</ele>
        <time>2015-01-31T13:20:05Z</time>
      </trkpt>
      <trkpt lat="44.46862" lon="0.93625">
        <ele>71.76</ele>
        <time>2015-01-31T13:20:06Z</time>
      </trkpt>
      <trkpt lat="44.46861" lon="0.93625">
        <ele>71.76</ele>
        <time>2015-01-31T13:20:16Z</time>
      </trkpt>
      <trkpt lat="44.46855" lon="0.93653">
        <ele>73.2</ele>
        <time>2015-01-31T13:20:26Z</time>
      </trkpt>
      <trkpt lat="44.4683" lon="0.93726">
        <ele>74.64</ele>
        <time>2015-01-31T13:20:42Z</time>
      </trkpt>
      <trkpt lat="44.46817" lon="0.93767">
        <ele>74.64</ele>
        <time>2015-01-31T13:20:50Z</time>
      </trkpt>
      <trkpt lat="44.46815" lon="0.93773">
        <ele>74.64</ele>
        <time>2015-01-31T13:20:51Z</time>
      </trkpt>
      <trkpt lat="44.46781" lon="0.93873">
        <ele>74.16</ele>
        <time>2015-01-31T13:21:08Z</time>
      </trkpt>
      <trkpt lat="44.46742" lon="0.93986">
        <ele>73.68</ele>
        <time>2015-01-31T13:21:26Z</time>
      </trkpt>
      <trkpt lat="44.46729" lon="0.94021">
        <ele>73.68</ele>
        <time>2015-01-31T13:21:32Z</time>
      </trkpt>
      <trkpt lat="44.46726" lon="0.94024">
        <ele>74.16</ele>
        <time>2015-01-31T13:21:33Z</time>
      </trkpt>
      <trkpt lat="44.46723" lon="0.94027">
        <ele>74.16</ele>
        <time>2015-01-31T13:21:34Z</time>
      </trkpt>
      <trkpt lat="44.46718" lon="0.94027">
        <ele>74.16</ele>
        <time>2015-01-31T13:21:35Z</time>
      </trkpt>
      <trkpt lat="44.46714" lon="0.94027">
        <ele>74.16</ele>
        <time>2015-01-31T13:21:36Z</time>
      </trkpt>
      <trkpt lat="44.4671" lon="0.94025">
        <ele>74.16</ele>
        <time>2015-01-31T13:21:37Z</time>
      </trkpt>
      <trkpt lat="44.46706" lon="0.94023">
        <ele>74.16</ele>
        <time>2015-01-31T13:21:38Z</time>
      </trkpt>
      <trkpt lat="44.46702" lon="0.94022">
        <ele>74.16</ele>
        <time>2015-01-31T13:21:39Z</time>
      </trkpt>
      <trkpt lat="44.46698" lon="0.9402">
        <ele>74.16</ele>
        <time>2015-01-31T13:21:40Z</time>
      </trkpt>
      <trkpt lat="44.46694" lon="0.94018">
        <ele>74.16</ele>
        <time>2015-01-31T13:21:41Z</time>
      </trkpt>
      <trkpt lat="44.46689" lon="0.94017">
        <ele>74.16</ele>
        <time>2015-01-31T13:21:42Z</time>
      </trkpt>
      <trkpt lat="44.46633" lon="0.93999">
        <ele>74.64</ele>
        <time>2015-01-31T13:21:55Z</time>
      </trkpt>
      <trkpt lat="44.46628" lon="0.93999">
        <ele>74.64</ele>
        <time>2015-01-31T13:21:56Z</time>
      </trkpt>
      <trkpt lat="44.46619" lon="0.94001">
        <ele>74.64</ele>
        <time>2015-01-31T13:21:58Z</time>
      </trkpt>
      <trkpt lat="44.46545" lon="0.94035">
        <ele>75.6</ele>
        <time>2015-01-31T13:22:15Z</time>
      </trkpt>
      <trkpt lat="44.46479" lon="0.94085">
        <ele>75.6</ele>
        <time>2015-01-31T13:22:31Z</time>
      </trkpt>
      <trkpt lat="44.46475" lon="0.94089">
        <ele>75.6</ele>
        <time>2015-01-31T13:22:32Z</time>
      </trkpt>
      <trkpt lat="44.46419" lon="0.94149">
        <ele>75.6</ele>
        <time>2015-01-31T13:22:47Z</time>
      </trkpt>
      <trkpt lat="44.46415" lon="0.94153">
        <ele>75.6</ele>
        <time>2015-01-31T13:22:48Z</time>
      </trkpt>
      <trkpt lat="44.46347" lon="0.94228">
        <ele>75.6</ele>
        <time>2015-01-31T13:23:06Z</time>
      </trkpt>
      <trkpt lat="44.4629" lon="0.9429">
        <ele>76.08</ele>
        <time>2015-01-31T13:23:21Z</time>
      </trkpt>
      <trkpt lat="44.46267" lon="0.94314">
        <ele>76.08</ele>
        <time>2015-01-31T13:23:27Z</time>
      </trkpt>
      <trkpt lat="44.46245" lon="0.94338">
        <ele>76.56</ele>
        <time>2015-01-31T13:23:33Z</time>
      </trkpt>
      <trkpt lat="44.46241" lon="0.94342">
        <ele>76.56</ele>
        <time>2015-01-31T13:23:34Z</time>
      </trkpt>
      <trkpt lat="44.46231" lon="0.94354">
        <ele>77.04</ele>
        <time>2015-01-31T13:23:37Z</time>
      </trkpt>
      <trkpt lat="44.46228" lon="0.94358">
        <ele>77.04</ele>
        <time>2015-01-31T13:23:38Z</time>
      </trkpt>
      <trkpt lat="44.46227" lon="0.94363">
        <ele>77.52</ele>
        <time>2015-01-31T13:23:39Z</time>
      </trkpt>
      <trkpt lat="44.46208" lon="0.94418">
        <ele>78.48</ele>
        <time>2015-01-31T13:23:50Z</time>
      </trkpt>
      <trkpt lat="44.46198" lon="0.94442">
        <ele>78.97</ele>
        <time>2015-01-31T13:23:55Z</time>
      </trkpt>
      <trkpt lat="44.46204" lon="0.94466">
        <ele>79.45</ele>
        <time>2015-01-31T13:24:00Z</time>
      </trkpt>
      <trkpt lat="44.4625" lon="0.94526">
        <ele>79.45</ele>
        <time>2015-01-31T13:24:16Z</time>
      </trkpt>
      <trkpt lat="44.46292" lon="0.94584">
        <ele>79.93</ele>
        <time>2015-01-31T13:24:31Z</time>
      </trkpt>
      <trkpt lat="44.46335" lon="0.9464">
        <ele>80.89</ele>
        <time>2015-01-31T13:24:46Z</time>
      </trkpt>
      <trkpt lat="44.46375" lon="0.94692">
        <ele>83.29</ele>
        <time>2015-01-31T13:25:02Z</time>
      </trkpt>
      <trkpt lat="44.46379" lon="0.94702">
        <ele>83.29</ele>
        <time>2015-01-31T13:25:06Z</time>
      </trkpt>
      <trkpt lat="44.46379" lon="0.94708">
        <ele>85.21</ele>
        <time>2015-01-31T13:25:09Z</time>
      </trkpt>
      <trkpt lat="44.46376" lon="0.94716">
        <ele>86.18</ele>
        <time>2015-01-31T13:25:13Z</time>
      </trkpt>
      <trkpt lat="44.46374" lon="0.94718">
        <ele>86.18</ele>
        <time>2015-01-31T13:25:14Z</time>
      </trkpt>
      <trkpt lat="44.46373" lon="0.94721">
        <ele>86.18</ele>
        <time>2015-01-31T13:25:15Z</time>
      </trkpt>
      <trkpt lat="44.46345" lon="0.9478">
        <ele>86.66</ele>
        <time>2015-01-31T13:25:31Z</time>
      </trkpt>
      <trkpt lat="44.46315" lon="0.94851">
        <ele>85.69</ele>
        <time>2015-01-31T13:25:47Z</time>
      </trkpt>
      <trkpt lat="44.46313" lon="0.94857">
        <ele>85.21</ele>
        <time>2015-01-31T13:25:48Z</time>
      </trkpt>
      <trkpt lat="44.4631" lon="0.94864">
        <ele>85.21</ele>
        <time>2015-01-31T13:25:49Z</time>
      </trkpt>
      <trkpt lat="44.46307" lon="0.94871">
        <ele>84.73</ele>
        <time>2015-01-31T13:25:50Z</time>
      </trkpt>
      <trkpt lat="44.46269" lon="0.94981">
        <ele>82.33</ele>
        <time>2015-01-31T13:26:04Z</time>
      </trkpt>
      <trkpt lat="44.46253" lon="0.95023">
        <ele>82.33</ele>
        <time>2015-01-31T13:26:10Z</time>
      </trkpt>
      <trkpt lat="44.4625" lon="0.95029">
        <ele>82.33</ele>
        <time>2015-01-31T13:26:11Z</time>
      </trkpt>
      <trkpt lat="44.46247" lon="0.95034">
        <ele>81.85</ele>
        <time>2015-01-31T13:26:12Z</time>
      </trkpt>
      <trkpt lat="44.46236" lon="0.95048">
        <ele>81.85</ele>
        <time>2015-01-31T13:26:15Z</time>
      </trkpt>
      <trkpt lat="44.46223" lon="0.95059">
        <ele>81.85</ele>
        <time>2015-01-31T13:26:18Z</time>
      </trkpt>
      <trkpt lat="44.46149" lon="0.95103">
        <ele>82.33</ele>
        <time>2015-01-31T13:26:35Z</time>
      </trkpt>
      <trkpt lat="44.46102" lon="0.95132">
        <ele>83.29</ele>
        <time>2015-01-31T13:26:46Z</time>
      </trkpt>
      <trkpt lat="44.46098" lon="0.95136">
        <ele>83.29</ele>
        <time>2015-01-31T13:26:47Z</time>
      </trkpt>
      <trkpt lat="44.4609" lon="0.95144">
        <ele>83.77</ele>
        <time>2015-01-31T13:26:49Z</time>
      </trkpt>
      <trkpt lat="44.46067" lon="0.95169">
        <ele>84.25</ele>
        <time>2015-01-31T13:26:55Z</time>
      </trkpt>
      <trkpt lat="44.46063" lon="0.95173">
        <ele>83.77</ele>
        <time>2015-01-31T13:26:56Z</time>
      </trkpt>
      <trkpt lat="44.4604" lon="0.952">
        <ele>84.25</ele>
        <time>2015-01-31T13:27:02Z</time>
      </trkpt>
      <trkpt lat="44.4601" lon="0.95236">
        <ele>83.77</ele>
        <time>2015-01-31T13:27:10Z</time>
      </trkpt>
      <trkpt lat="44.46006" lon="0.9524">
        <ele>83.77</ele>
        <time>2015-01-31T13:27:11Z</time>
      </trkpt>
      <trkpt lat="44.46002" lon="0.95244">
        <ele>83.77</ele>
        <time>2015-01-31T13:27:12Z</time>
      </trkpt>
      <trkpt lat="44.45998" lon="0.95247">
        <ele>84.25</ele>
        <time>2015-01-31T13:27:13Z</time>
      </trkpt>
      <trkpt lat="44.45952" lon="0.95291">
        <ele>84.25</ele>
        <time>2015-01-31T13:27:27Z</time>
      </trkpt>
      <trkpt lat="44.45924" lon="0.95301">
        <ele>84.25</ele>
        <time>2015-01-31T13:27:35Z</time>
      </trkpt>
      <trkpt lat="44.45883" lon="0.95295">
        <ele>86.18</ele>
        <time>2015-01-31T13:27:47Z</time>
      </trkpt>
      <trkpt lat="44.45856" lon="0.95316">
        <ele>86.18</ele>
        <time>2015-01-31T13:27:55Z</time>
      </trkpt>
      <trkpt lat="44.45823" lon="0.95336">
        <ele>87.62</ele>
        <time>2015-01-31T13:28:05Z</time>
      </trkpt>
      <trkpt lat="44.45772" lon="0.95371">
        <ele>89.54</ele>
        <time>2015-01-31T13:28:20Z</time>
      </trkpt>
      <trkpt lat="44.45725" lon="0.95404">
        <ele>90.5</ele>
        <time>2015-01-31T13:28:35Z</time>
      </trkpt>
      <trkpt lat="44.45666" lon="0.95449">
        <ele>91.46</ele>
        <time>2015-01-31T13:28:52Z</time>
      </trkpt>
      <trkpt lat="44.45604" lon="0.95506">
        <ele>92.9</ele>
        <time>2015-01-31T13:29:10Z</time>
      </trkpt>
      <trkpt lat="44.45541" lon="0.95574">
        <ele>93.39</ele>
        <time>2015-01-31T13:29:28Z</time>
      </trkpt>
      <trkpt lat="44.45483" lon="0.95652">
        <ele>93.87</ele>
        <time>2015-01-31T13:29:45Z</time>
      </trkpt>
      <trkpt lat="44.45437" lon="0.95732">
        <ele>93.87</ele>
        <time>2015-01-31T13:30:02Z</time>
      </trkpt>
      <trkpt lat="44.454" lon="0.95797">
        <ele>93.87</ele>
        <time>2015-01-31T13:30:17Z</time>
      </trkpt>
      <trkpt lat="44.45378" lon="0.95831">
        <ele>93.87</ele>
        <time>2015-01-31T13:30:29Z</time>
      </trkpt>
      <trkpt lat="44.45377" lon="0.95832">
        <ele>92.9</ele>
        <time>2015-01-31T13:30:45Z</time>
      </trkpt>
      <trkpt lat="44.45377" lon="0.95834">
        <ele>92.9</ele>
        <time>2015-01-31T13:30:46Z</time>
      </trkpt>
      <trkpt lat="44.45377" lon="0.95836">
        <ele>92.9</ele>
        <time>2015-01-31T13:30:47Z</time>
      </trkpt>
      <trkpt lat="44.45378" lon="0.95839">
        <ele>92.9</ele>
        <time>2015-01-31T13:30:48Z</time>
      </trkpt>
      <trkpt lat="44.4538" lon="0.95842">
        <ele>92.9</ele>
        <time>2015-01-31T13:30:49Z</time>
      </trkpt>
      <trkpt lat="44.45385" lon="0.95856">
        <ele>91.94</ele>
        <time>2015-01-31T13:30:52Z</time>
      </trkpt>
      <trkpt lat="44.45387" lon="0.95861">
        <ele>91.46</ele>
        <time>2015-01-31T13:30:53Z</time>
      </trkpt>
      <trkpt lat="44.45403" lon="0.95902">
        <ele>90.02</ele>
        <time>2015-01-31T13:31:00Z</time>
      </trkpt>
      <trkpt lat="44.45438" lon="0.96006">
        <ele>86.66</ele>
        <time>2015-01-31T13:31:14Z</time>
      </trkpt>
      <trkpt lat="44.45476" lon="0.96096">
        <ele>86.18</ele>
        <time>2015-01-31T13:31:27Z</time>
      </trkpt>
      <trkpt lat="44.45492" lon="0.96136">
        <ele>86.18</ele>
        <time>2015-01-31T13:31:34Z</time>
      </trkpt>
      <trkpt lat="44.45505" lon="0.96169">
        <ele>86.18</ele>
        <time>2015-01-31T13:31:46Z</time>
      </trkpt>
      <trkpt lat="44.45509" lon="0.96174">
        <ele>86.18</ele>
        <time>2015-01-31T13:31:52Z</time>
      </trkpt>
      <trkpt lat="44.45512" lon="0.96175">
        <ele>85.69</ele>
        <time>2015-01-31T13:31:53Z</time>
      </trkpt>
      <trkpt lat="44.45516" lon="0.96175">
        <ele>85.69</ele>
        <time>2015-01-31T13:31:54Z</time>
      </trkpt>
      <trkpt lat="44.45519" lon="0.96175">
        <ele>85.69</ele>
        <time>2015-01-31T13:31:55Z</time>
      </trkpt>
      <trkpt lat="44.45523" lon="0.96174">
        <ele>85.21</ele>
        <time>2015-01-31T13:31:56Z</time>
      </trkpt>
      <trkpt lat="44.4558" lon="0.96164">
        <ele>85.21</ele>
        <time>2015-01-31T13:32:11Z</time>
      </trkpt>
      <trkpt lat="44.45623" lon="0.96164">
        <ele>87.14</ele>
        <time>2015-01-31T13:32:23Z</time>
      </trkpt>
      <trkpt lat="44.45673" lon="0.96165">
        <ele>89.06</ele>
        <time>2015-01-31T13:32:36Z</time>
      </trkpt>
      <trkpt lat="44.45726" lon="0.96169">
        <ele>90.02</ele>
        <time>2015-01-31T13:32:49Z</time>
      </trkpt>
      <trkpt lat="44.45739" lon="0.96171">
        <ele>90.5</ele>
        <time>2015-01-31T13:32:52Z</time>
      </trkpt>
      <trkpt lat="44.45764" lon="0.96177">
        <ele>92.9</ele>
        <time>2015-01-31T13:32:58Z</time>
      </trkpt>
      <trkpt lat="44.45809" lon="0.96202">
        <ele>95.79</ele>
        <time>2015-01-31T13:33:10Z</time>
      </trkpt>
      <trkpt lat="44.45852" lon="0.96194">
        <ele>105.4</ele>
        <time>2015-01-31T13:33:23Z</time>
      </trkpt>
      <trkpt lat="44.45855" lon="0.96195">
        <ele>105.88</ele>
        <time>2015-01-31T13:33:24Z</time>
      </trkpt>
      <trkpt lat="44.45856" lon="0.96197">
        <ele>106.36</ele>
        <time>2015-01-31T13:33:25Z</time>
      </trkpt>
      <trkpt lat="44.45858" lon="0.96198">
        <ele>106.36</ele>
        <time>2015-01-31T13:33:26Z</time>
      </trkpt>
      <trkpt lat="44.4586" lon="0.96199">
        <ele>106.84</ele>
        <time>2015-01-31T13:33:27Z</time>
      </trkpt>
      <trkpt lat="44.45861" lon="0.962">
        <ele>107.32</ele>
        <time>2015-01-31T13:33:28Z</time>
      </trkpt>
      <trkpt lat="44.45872" lon="0.96211">
        <ele>108.29</ele>
        <time>2015-01-31T13:33:40Z</time>
      </trkpt>
      <trkpt lat="44.45873" lon="0.96212">
        <ele>108.29</ele>
        <time>2015-01-31T13:33:41Z</time>
      </trkpt>
      <trkpt lat="44.45873" lon="0.96214">
        <ele>108.29</ele>
        <time>2015-01-31T13:33:42Z</time>
      </trkpt>
      <trkpt lat="44.45874" lon="0.96216">
        <ele>108.29</ele>
        <time>2015-01-31T13:33:43Z</time>
      </trkpt>
      <trkpt lat="44.45875" lon="0.96219">
        <ele>108.29</ele>
        <time>2015-01-31T13:33:44Z</time>
      </trkpt>
      <trkpt lat="44.45876" lon="0.96222">
        <ele>108.29</ele>
        <time>2015-01-31T13:33:45Z</time>
      </trkpt>
      <trkpt lat="44.45877" lon="0.96225">
        <ele>107.81</ele>
        <time>2015-01-31T13:33:46Z</time>
      </trkpt>
      <trkpt lat="44.45894" lon="0.96293">
        <ele>105.4</ele>
        <time>2015-01-31T13:33:59Z</time>
      </trkpt>
      <trkpt lat="44.45908" lon="0.96338">
        <ele>104.44</ele>
        <time>2015-01-31T13:34:06Z</time>
      </trkpt>
      <trkpt lat="44.45917" lon="0.96355">
        <ele>103.96</ele>
        <time>2015-01-31T13:34:09Z</time>
      </trkpt>
      <trkpt lat="44.45921" lon="0.9636">
        <ele>103.96</ele>
        <time>2015-01-31T13:34:10Z</time>
      </trkpt>
      <trkpt lat="44.45942" lon="0.96383">
        <ele>103.48</ele>
        <time>2015-01-31T13:34:16Z</time>
      </trkpt>
      <trkpt lat="44.45956" lon="0.96395">
        <ele>103.96</ele>
        <time>2015-01-31T13:34:20Z</time>
      </trkpt>
      <trkpt lat="44.4596" lon="0.96397">
        <ele>103.96</ele>
        <time>2015-01-31T13:34:21Z</time>
      </trkpt>
      <trkpt lat="44.45969" lon="0.964">
        <ele>103.96</ele>
        <time>2015-01-31T13:34:23Z</time>
      </trkpt>
      <trkpt lat="44.45973" lon="0.96401">
        <ele>104.44</ele>
        <time>2015-01-31T13:34:24Z</time>
      </trkpt>
      <trkpt lat="44.46019" lon="0.9638">
        <ele>104.92</ele>
        <time>2015-01-31T13:34:36Z</time>
      </trkpt>
      <trkpt lat="44.46063" lon="0.96366">
        <ele>106.36</ele>
        <time>2015-01-31T13:34:48Z</time>
      </trkpt>
      <trkpt lat="44.46115" lon="0.96368">
        <ele>109.25</ele>
        <time>2015-01-31T13:35:01Z</time>
      </trkpt>
      <trkpt lat="44.46119" lon="0.96368">
        <ele>109.73</ele>
        <time>2015-01-31T13:35:02Z</time>
      </trkpt>
      <trkpt lat="44.46131" lon="0.96368">
        <ele>110.69</ele>
        <time>2015-01-31T13:35:05Z</time>
      </trkpt>
      <trkpt lat="44.46136" lon="0.96368">
        <ele>111.17</ele>
        <time>2015-01-31T13:35:06Z</time>
      </trkpt>
      <trkpt lat="44.46191" lon="0.96372">
        <ele>111.17</ele>
        <time>2015-01-31T13:35:19Z</time>
      </trkpt>
      <trkpt lat="44.46197" lon="0.96373">
        <ele>111.65</ele>
        <time>2015-01-31T13:35:21Z</time>
      </trkpt>
      <trkpt lat="44.46198" lon="0.96374">
        <ele>111.65</ele>
        <time>2015-01-31T13:35:22Z</time>
      </trkpt>
      <trkpt lat="44.46198" lon="0.9638">
        <ele>113.09</ele>
        <time>2015-01-31T13:35:32Z</time>
      </trkpt>
      <trkpt lat="44.46199" lon="0.96383">
        <ele>114.53</ele>
        <time>2015-01-31T13:35:47Z</time>
      </trkpt>
      <trkpt lat="44.46191" lon="0.9639">
        <ele>116.94</ele>
        <time>2015-01-31T13:35:51Z</time>
      </trkpt>
      <trkpt lat="44.46173" lon="0.96424">
        <ele>121.74</ele>
        <time>2015-01-31T13:36:03Z</time>
      </trkpt>
      <trkpt lat="44.46162" lon="0.96459">
        <ele>122.22</ele>
        <time>2015-01-31T13:36:12Z</time>
      </trkpt>
      <trkpt lat="44.46149" lon="0.96512">
        <ele>132.8</ele>
        <time>2015-01-31T13:36:25Z</time>
      </trkpt>
      <trkpt lat="44.46143" lon="0.96525">
        <ele>141.93</ele>
        <time>2015-01-31T13:36:31Z</time>
      </trkpt>
      <trkpt lat="44.4614" lon="0.96529">
        <ele>144.34</ele>
        <time>2015-01-31T13:36:33Z</time>
      </trkpt>
      <trkpt lat="44.46129" lon="0.96561">
        <ele>152.99</ele>
        <time>2015-01-31T13:36:44Z</time>
      </trkpt>
      <trkpt lat="44.46115" lon="0.96603">
        <ele>155.87</ele>
        <time>2015-01-31T13:36:55Z</time>
      </trkpt>
      <trkpt lat="44.46101" lon="0.96654">
        <ele>154.91</ele>
        <time>2015-01-31T13:37:08Z</time>
      </trkpt>
      <trkpt lat="44.46084" lon="0.96704">
        <ele>154.91</ele>
        <time>2015-01-31T13:37:19Z</time>
      </trkpt>
      <trkpt lat="44.46074" lon="0.96747">
        <ele>151.06</ele>
        <time>2015-01-31T13:37:29Z</time>
      </trkpt>
      <trkpt lat="44.46069" lon="0.96767">
        <ele>151.06</ele>
        <time>2015-01-31T13:37:35Z</time>
      </trkpt>
      <trkpt lat="44.46061" lon="0.96789">
        <ele>151.06</ele>
        <time>2015-01-31T13:37:42Z</time>
      </trkpt>
      <trkpt lat="44.46046" lon="0.96825">
        <ele>147.22</ele>
        <time>2015-01-31T13:37:53Z</time>
      </trkpt>
      <trkpt lat="44.46027" lon="0.96865">
        <ele>144.34</ele>
        <time>2015-01-31T13:38:03Z</time>
      </trkpt>
      <trkpt lat="44.46007" lon="0.96901">
        <ele>145.3</ele>
        <time>2015-01-31T13:38:13Z</time>
      </trkpt>
      <trkpt lat="44.4599" lon="0.9693">
        <ele>147.7</ele>
        <time>2015-01-31T13:38:23Z</time>
      </trkpt>
      <trkpt lat="44.45987" lon="0.96939">
        <ele>148.18</ele>
        <time>2015-01-31T13:38:27Z</time>
      </trkpt>
      <trkpt lat="44.45985" lon="0.96948">
        <ele>148.66</ele>
        <time>2015-01-31T13:38:40Z</time>
      </trkpt>
      <trkpt lat="44.45983" lon="0.96953">
        <ele>149.14</ele>
        <time>2015-01-31T13:39:02Z</time>
      </trkpt>
      <trkpt lat="44.45982" lon="0.96953">
        <ele>149.14</ele>
        <time>2015-01-31T13:39:18Z</time>
      </trkpt>
      <trkpt lat="44.45981" lon="0.96957">
        <ele>148.66</ele>
        <time>2015-01-31T13:39:27Z</time>
      </trkpt>
      <trkpt lat="44.45971" lon="0.96972">
        <ele>148.66</ele>
        <time>2015-01-31T13:39:37Z</time>
      </trkpt>
      <trkpt lat="44.45951" lon="0.96996">
        <ele>152.03</ele>
        <time>2015-01-31T13:39:49Z</time>
      </trkpt>
      <trkpt lat="44.45924" lon="0.97027">
        <ele>158.75</ele>
        <time>2015-01-31T13:40:01Z</time>
      </trkpt>
      <trkpt lat="44.45897" lon="0.97069">
        <ele>159.72</ele>
        <time>2015-01-31T13:40:13Z</time>
      </trkpt>
      <trkpt lat="44.45872" lon="0.9713">
        <ele>160.2</ele>
        <time>2015-01-31T13:40:27Z</time>
      </trkpt>
      <trkpt lat="44.45856" lon="0.97174">
        <ele>160.2</ele>
        <time>2015-01-31T13:40:37Z</time>
      </trkpt>
      <trkpt lat="44.45833" lon="0.97228">
        <ele>158.27</ele>
        <time>2015-01-31T13:40:49Z</time>
      </trkpt>
      <trkpt lat="44.45807" lon="0.97273">
        <ele>155.39</ele>
        <time>2015-01-31T13:41:01Z</time>
      </trkpt>
      <trkpt lat="44.45803" lon="0.97275">
        <ele>154.43</ele>
        <time>2015-01-31T13:41:02Z</time>
      </trkpt>
      <trkpt lat="44.458" lon="0.97278">
        <ele>153.95</ele>
        <time>2015-01-31T13:41:03Z</time>
      </trkpt>
      <trkpt lat="44.45798" lon="0.97282">
        <ele>153.47</ele>
        <time>2015-01-31T13:41:04Z</time>
      </trkpt>
      <trkpt lat="44.45796" lon="0.97285">
        <ele>153.47</ele>
        <time>2015-01-31T13:41:05Z</time>
      </trkpt>
      <trkpt lat="44.45795" lon="0.97288">
        <ele>152.99</ele>
        <time>2015-01-31T13:41:06Z</time>
      </trkpt>
      <trkpt lat="44.45793" lon="0.97292">
        <ele>153.47</ele>
        <time>2015-01-31T13:41:07Z</time>
      </trkpt>
      <trkpt lat="44.45792" lon="0.97297">
        <ele>152.99</ele>
        <time>2015-01-31T13:41:08Z</time>
      </trkpt>
      <trkpt lat="44.45761" lon="0.97367">
        <ele>149.62</ele>
        <time>2015-01-31T13:41:24Z</time>
      </trkpt>
      <trkpt lat="44.4573" lon="0.9744">
        <ele>148.18</ele>
        <time>2015-01-31T13:41:39Z</time>
      </trkpt>
      <trkpt lat="44.45699" lon="0.97516">
        <ele>148.66</ele>
        <time>2015-01-31T13:41:55Z</time>
      </trkpt>
      <trkpt lat="44.45695" lon="0.97526">
        <ele>148.66</ele>
        <time>2015-01-31T13:41:57Z</time>
      </trkpt>
      <trkpt lat="44.45693" lon="0.97531">
        <ele>148.66</ele>
        <time>2015-01-31T13:41:58Z</time>
      </trkpt>
      <trkpt lat="44.45691" lon="0.97536">
        <ele>149.14</ele>
        <time>2015-01-31T13:41:59Z</time>
      </trkpt>
      <trkpt lat="44.45689" lon="0.9754">
        <ele>149.14</ele>
        <time>2015-01-31T13:42:00Z</time>
      </trkpt>
      <trkpt lat="44.45687" lon="0.97545">
        <ele>149.14</ele>
        <time>2015-01-31T13:42:01Z</time>
      </trkpt>
      <trkpt lat="44.45674" lon="0.9762">
        <ele>152.99</ele>
        <time>2015-01-31T13:42:16Z</time>
      </trkpt>
      <trkpt lat="44.45675" lon="0.97681">
        <ele>157.31</ele>
        <time>2015-01-31T13:42:30Z</time>
      </trkpt>
      <trkpt lat="44.45682" lon="0.97741">
        <ele>162.6</ele>
        <time>2015-01-31T13:42:45Z</time>
      </trkpt>
      <trkpt lat="44.45691" lon="0.97801">
        <ele>162.6</ele>
        <time>2015-01-31T13:43:00Z</time>
      </trkpt>
      <trkpt lat="44.45693" lon="0.9781">
        <ele>162.12</ele>
        <time>2015-01-31T13:43:03Z</time>
      </trkpt>
      <trkpt lat="44.45692" lon="0.97813">
        <ele>162.12</ele>
        <time>2015-01-31T13:43:04Z</time>
      </trkpt>
      <trkpt lat="44.45691" lon="0.97815">
        <ele>162.12</ele>
        <time>2015-01-31T13:43:05Z</time>
      </trkpt>
      <trkpt lat="44.4569" lon="0.97818">
        <ele>162.12</ele>
        <time>2015-01-31T13:43:06Z</time>
      </trkpt>
      <trkpt lat="44.45689" lon="0.97822">
        <ele>162.12</ele>
        <time>2015-01-31T13:43:07Z</time>
      </trkpt>
      <trkpt lat="44.45687" lon="0.97826">
        <ele>161.64</ele>
        <time>2015-01-31T13:43:08Z</time>
      </trkpt>
      <trkpt lat="44.45684" lon="0.9783">
        <ele>161.64</ele>
        <time>2015-01-31T13:43:09Z</time>
      </trkpt>
      <trkpt lat="44.4568" lon="0.97834">
        <ele>161.16</ele>
        <time>2015-01-31T13:43:10Z</time>
      </trkpt>
      <trkpt lat="44.45676" lon="0.97837">
        <ele>161.16</ele>
        <time>2015-01-31T13:43:11Z</time>
      </trkpt>
      <trkpt lat="44.45671" lon="0.97839">
        <ele>160.68</ele>
        <time>2015-01-31T13:43:12Z</time>
      </trkpt>
      <trkpt lat="44.45665" lon="0.9784">
        <ele>160.68</ele>
        <time>2015-01-31T13:43:13Z</time>
      </trkpt>
      <trkpt lat="44.45658" lon="0.97842">
        <ele>160.2</ele>
        <time>2015-01-31T13:43:14Z</time>
      </trkpt>
      <trkpt lat="44.45645" lon="0.97843">
        <ele>158.75</ele>
        <time>2015-01-31T13:43:16Z</time>
      </trkpt>
      <trkpt lat="44.45608" lon="0.97848">
        <ele>155.87</ele>
        <time>2015-01-31T13:43:21Z</time>
      </trkpt>
      <trkpt lat="44.45601" lon="0.97853">
        <ele>154.91</ele>
        <time>2015-01-31T13:43:22Z</time>
      </trkpt>
      <trkpt lat="44.45596" lon="0.97859">
        <ele>154.43</ele>
        <time>2015-01-31T13:43:23Z</time>
      </trkpt>
      <trkpt lat="44.45594" lon="0.97867">
        <ele>153.95</ele>
        <time>2015-01-31T13:43:24Z</time>
      </trkpt>
      <trkpt lat="44.45595" lon="0.97876">
        <ele>153.47</ele>
        <time>2015-01-31T13:43:25Z</time>
      </trkpt>
      <trkpt lat="44.45599" lon="0.97884">
        <ele>152.99</ele>
        <time>2015-01-31T13:43:26Z</time>
      </trkpt>
      <trkpt lat="44.45604" lon="0.9789">
        <ele>152.51</ele>
        <time>2015-01-31T13:43:27Z</time>
      </trkpt>
      <trkpt lat="44.4561" lon="0.97897">
        <ele>151.54</ele>
        <time>2015-01-31T13:43:28Z</time>
      </trkpt>
      <trkpt lat="44.4565" lon="0.97952">
        <ele>146.74</ele>
        <time>2015-01-31T13:43:34Z</time>
      </trkpt>
      <trkpt lat="44.45674" lon="0.97996">
        <ele>144.34</ele>
        <time>2015-01-31T13:43:38Z</time>
      </trkpt>
      <trkpt lat="44.4568" lon="0.98005">
        <ele>144.34</ele>
        <time>2015-01-31T13:43:39Z</time>
      </trkpt>
      <trkpt lat="44.45685" lon="0.98013">
        <ele>144.82</ele>
        <time>2015-01-31T13:43:40Z</time>
      </trkpt>
      <trkpt lat="44.4569" lon="0.98018">
        <ele>144.82</ele>
        <time>2015-01-31T13:43:41Z</time>
      </trkpt>
      <trkpt lat="44.45695" lon="0.98022">
        <ele>145.3</ele>
        <time>2015-01-31T13:43:42Z</time>
      </trkpt>
      <trkpt lat="44.45698" lon="0.98024">
        <ele>145.78</ele>
        <time>2015-01-31T13:43:43Z</time>
      </trkpt>
      <trkpt lat="44.45727" lon="0.98065">
        <ele>149.62</ele>
        <time>2015-01-31T13:43:56Z</time>
      </trkpt>
      <trkpt lat="44.45711" lon="0.98109">
        <ele>154.91</ele>
        <time>2015-01-31T13:44:08Z</time>
      </trkpt>
      <trkpt lat="44.45668" lon="0.98163">
        <ele>157.31</ele>
        <time>2015-01-31T13:44:24Z</time>
      </trkpt>
      <trkpt lat="44.4566" lon="0.98187">
        <ele>158.27</ele>
        <time>2015-01-31T13:44:29Z</time>
      </trkpt>
      <trkpt lat="44.45669" lon="0.98257">
        <ele>159.24</ele>
        <time>2015-01-31T13:44:43Z</time>
      </trkpt>
      <trkpt lat="44.45681" lon="0.98324">
        <ele>159.24</ele>
        <time>2015-01-31T13:44:57Z</time>
      </trkpt>
      <trkpt lat="44.45687" lon="0.98353">
        <ele>159.72</ele>
        <time>2015-01-31T13:45:09Z</time>
      </trkpt>
      <trkpt lat="44.45687" lon="0.98354">
        <ele>160.2</ele>
        <time>2015-01-31T13:45:25Z</time>
      </trkpt>
      <trkpt lat="44.45687" lon="0.98354">
        <ele>160.68</ele>
        <time>2015-01-31T13:45:39Z</time>
      </trkpt>
      <trkpt lat="44.45688" lon="0.98356">
        <ele>160.2</ele>
        <time>2015-01-31T13:45:40Z</time>
      </trkpt>
      <trkpt lat="44.45688" lon="0.98358">
        <ele>160.2</ele>
        <time>2015-01-31T13:45:41Z</time>
      </trkpt>
      <trkpt lat="44.45688" lon="0.9836">
        <ele>160.2</ele>
        <time>2015-01-31T13:45:42Z</time>
      </trkpt>
      <trkpt lat="44.45689" lon="0.98362">
        <ele>160.2</ele>
        <time>2015-01-31T13:45:43Z</time>
      </trkpt>
      <trkpt lat="44.45689" lon="0.98365">
        <ele>160.68</ele>
        <time>2015-01-31T13:45:44Z</time>
      </trkpt>
      <trkpt lat="44.4569" lon="0.98367">
        <ele>160.68</ele>
        <time>2015-01-31T13:45:45Z</time>
      </trkpt>
      <trkpt lat="44.45691" lon="0.9837">
        <ele>160.2</ele>
        <time>2015-01-31T13:45:46Z</time>
      </trkpt>
      <trkpt lat="44.45692" lon="0.98372">
        <ele>160.2</ele>
        <time>2015-01-31T13:45:47Z</time>
      </trkpt>
      <trkpt lat="44.45702" lon="0.98405">
        <ele>160.68</ele>
        <time>2015-01-31T13:45:59Z</time>
      </trkpt>
      <trkpt lat="44.45715" lon="0.98447">
        <ele>160.68</ele>
        <time>2015-01-31T13:46:13Z</time>
      </trkpt>
      <trkpt lat="44.45728" lon="0.98485">
        <ele>161.16</ele>
        <time>2015-01-31T13:46:25Z</time>
      </trkpt>
      <trkpt lat="44.45737" lon="0.98516">
        <ele>160.68</ele>
        <time>2015-01-31T13:46:32Z</time>
      </trkpt>
      <trkpt lat="44.45738" lon="0.98522">
        <ele>160.2</ele>
        <time>2015-01-31T13:46:33Z</time>
      </trkpt>
      <trkpt lat="44.45739" lon="0.98529">
        <ele>160.2</ele>
        <time>2015-01-31T13:46:34Z</time>
      </trkpt>
      <trkpt lat="44.45739" lon="0.98536">
        <ele>160.2</ele>
        <time>2015-01-31T13:46:35Z</time>
      </trkpt>
      <trkpt lat="44.45738" lon="0.98544">
        <ele>159.72</ele>
        <time>2015-01-31T13:46:36Z</time>
      </trkpt>
      <trkpt lat="44.45737" lon="0.98552">
        <ele>159.72</ele>
        <time>2015-01-31T13:46:37Z</time>
      </trkpt>
      <trkpt lat="44.45725" lon="0.98633">
        <ele>155.39</ele>
        <time>2015-01-31T13:46:45Z</time>
      </trkpt>
      <trkpt lat="44.45725" lon="0.98656">
        <ele>154.43</ele>
        <time>2015-01-31T13:46:47Z</time>
      </trkpt>
      <trkpt lat="44.45725" lon="0.98668">
        <ele>153.95</ele>
        <time>2015-01-31T13:46:48Z</time>
      </trkpt>
      <trkpt lat="44.45732" lon="0.98745">
        <ele>149.14</ele>
        <time>2015-01-31T13:46:54Z</time>
      </trkpt>
      <trkpt lat="44.45734" lon="0.98756">
        <ele>148.66</ele>
        <time>2015-01-31T13:46:55Z</time>
      </trkpt>
      <trkpt lat="44.45737" lon="0.98765">
        <ele>148.18</ele>
        <time>2015-01-31T13:46:56Z</time>
      </trkpt>
      <trkpt lat="44.45741" lon="0.98772">
        <ele>148.18</ele>
        <time>2015-01-31T13:46:57Z</time>
      </trkpt>
      <trkpt lat="44.45746" lon="0.98777">
        <ele>148.18</ele>
        <time>2015-01-31T13:46:58Z</time>
      </trkpt>
      <trkpt lat="44.45752" lon="0.98779">
        <ele>148.18</ele>
        <time>2015-01-31T13:46:59Z</time>
      </trkpt>
      <trkpt lat="44.45756" lon="0.98779">
        <ele>148.66</ele>
        <time>2015-01-31T13:47:00Z</time>
      </trkpt>
      <trkpt lat="44.45761" lon="0.98779">
        <ele>148.66</ele>
        <time>2015-01-31T13:47:01Z</time>
      </trkpt>
      <trkpt lat="44.45764" lon="0.98777">
        <ele>149.14</ele>
        <time>2015-01-31T13:47:02Z</time>
      </trkpt>
      <trkpt lat="44.45792" lon="0.9874">
        <ele>151.06</ele>
        <time>2015-01-31T13:47:13Z</time>
      </trkpt>
      <trkpt lat="44.45828" lon="0.98686">
        <ele>156.35</ele>
        <time>2015-01-31T13:47:31Z</time>
      </trkpt>
      <trkpt lat="44.45852" lon="0.98675">
        <ele>158.75</ele>
        <time>2015-01-31T13:47:41Z</time>
      </trkpt>
      <trkpt lat="44.45854" lon="0.98675">
        <ele>158.75</ele>
        <time>2015-01-31T13:47:42Z</time>
      </trkpt>
      <trkpt lat="44.45857" lon="0.98676">
        <ele>158.75</ele>
        <time>2015-01-31T13:47:43Z</time>
      </trkpt>
      <trkpt lat="44.45859" lon="0.98677">
        <ele>159.24</ele>
        <time>2015-01-31T13:47:44Z</time>
      </trkpt>
      <trkpt lat="44.45862" lon="0.98678">
        <ele>159.24</ele>
        <time>2015-01-31T13:47:45Z</time>
      </trkpt>
      <trkpt lat="44.45886" lon="0.98687">
        <ele>161.16</ele>
        <time>2015-01-31T13:47:56Z</time>
      </trkpt>
      <trkpt lat="44.4591" lon="0.98693">
        <ele>164.52</ele>
        <time>2015-01-31T13:48:07Z</time>
      </trkpt>
      <trkpt lat="44.45929" lon="0.987">
        <ele>167.89</ele>
        <time>2015-01-31T13:48:17Z</time>
      </trkpt>
      <trkpt lat="44.45931" lon="0.98701">
        <ele>167.89</ele>
        <time>2015-01-31T13:48:18Z</time>
      </trkpt>
      <trkpt lat="44.45934" lon="0.98701">
        <ele>168.37</ele>
        <time>2015-01-31T13:48:19Z</time>
      </trkpt>
      <trkpt lat="44.45936" lon="0.98702">
        <ele>168.37</ele>
        <time>2015-01-31T13:48:20Z</time>
      </trkpt>
      <trkpt lat="44.45938" lon="0.98702">
        <ele>168.85</ele>
        <time>2015-01-31T13:48:21Z</time>
      </trkpt>
      <trkpt lat="44.4594" lon="0.98702">
        <ele>169.33</ele>
        <time>2015-01-31T13:48:22Z</time>
      </trkpt>
      <trkpt lat="44.45943" lon="0.98703">
        <ele>169.33</ele>
        <time>2015-01-31T13:48:23Z</time>
      </trkpt>
      <trkpt lat="44.45945" lon="0.98704">
        <ele>169.81</ele>
        <time>2015-01-31T13:48:24Z</time>
      </trkpt>
      <trkpt lat="44.45947" lon="0.98705">
        <ele>170.29</ele>
        <time>2015-01-31T13:48:25Z</time>
      </trkpt>
      <trkpt lat="44.45949" lon="0.98706">
        <ele>170.77</ele>
        <time>2015-01-31T13:48:26Z</time>
      </trkpt>
      <trkpt lat="44.45952" lon="0.98708">
        <ele>170.77</ele>
        <time>2015-01-31T13:48:27Z</time>
      </trkpt>
      <trkpt lat="44.45954" lon="0.98709">
        <ele>170.77</ele>
        <time>2015-01-31T13:48:28Z</time>
      </trkpt>
      <trkpt lat="44.45966" lon="0.98721">
        <ele>171.73</ele>
        <time>2015-01-31T13:48:34Z</time>
      </trkpt>
      <trkpt lat="44.45969" lon="0.98731">
        <ele>172.21</ele>
        <time>2015-01-31T13:48:38Z</time>
      </trkpt>
      <trkpt lat="44.45969" lon="0.98733">
        <ele>172.21</ele>
        <time>2015-01-31T13:48:50Z</time>
      </trkpt>
      <trkpt lat="44.45969" lon="0.98733">
        <ele>172.21</ele>
        <time>2015-01-31T13:49:09Z</time>
      </trkpt>
      <trkpt lat="44.45968" lon="0.9873">
        <ele>171.25</ele>
        <time>2015-01-31T13:49:25Z</time>
      </trkpt>
      <trkpt lat="44.45968" lon="0.9873">
        <ele>170.77</ele>
        <time>2015-01-31T13:49:42Z</time>
      </trkpt>
      <trkpt lat="44.45967" lon="0.98729">
        <ele>171.25</ele>
        <time>2015-01-31T13:50:07Z</time>
      </trkpt>
      <trkpt lat="44.45967" lon="0.98729">
        <ele>171.25</ele>
        <time>2015-01-31T13:50:29Z</time>
      </trkpt>
      <trkpt lat="44.45968" lon="0.98733">
        <ele>171.73</ele>
        <time>2015-01-31T13:50:45Z</time>
      </trkpt>
      <trkpt lat="44.45958" lon="0.98762">
        <ele>174.14</ele>
        <time>2015-01-31T13:50:55Z</time>
      </trkpt>
      <trkpt lat="44.45938" lon="0.98795">
        <ele>176.06</ele>
        <time>2015-01-31T13:51:07Z</time>
      </trkpt>
      <trkpt lat="44.45916" lon="0.98822">
        <ele>177.02</ele>
        <time>2015-01-31T13:51:18Z</time>
      </trkpt>
      <trkpt lat="44.45885" lon="0.98857">
        <ele>178.46</ele>
        <time>2015-01-31T13:51:34Z</time>
      </trkpt>
      <trkpt lat="44.45868" lon="0.98892">
        <ele>179.9</ele>
        <time>2015-01-31T13:51:47Z</time>
      </trkpt>
      <trkpt lat="44.45857" lon="0.98941">
        <ele>180.38</ele>
        <time>2015-01-31T13:52:02Z</time>
      </trkpt>
      <trkpt lat="44.45852" lon="0.99008">
        <ele>181.83</ele>
        <time>2015-01-31T13:52:19Z</time>
      </trkpt>
      <trkpt lat="44.45848" lon="0.99079">
        <ele>182.31</ele>
        <time>2015-01-31T13:52:34Z</time>
      </trkpt>
      <trkpt lat="44.45848" lon="0.99085">
        <ele>181.83</ele>
        <time>2015-01-31T13:52:35Z</time>
      </trkpt>
      <trkpt lat="44.45847" lon="0.99091">
        <ele>181.83</ele>
        <time>2015-01-31T13:52:36Z</time>
      </trkpt>
      <trkpt lat="44.45847" lon="0.99097">
        <ele>181.83</ele>
        <time>2015-01-31T13:52:37Z</time>
      </trkpt>
      <trkpt lat="44.45846" lon="0.99103">
        <ele>181.83</ele>
        <time>2015-01-31T13:52:38Z</time>
      </trkpt>
      <trkpt lat="44.45845" lon="0.99109">
        <ele>181.83</ele>
        <time>2015-01-31T13:52:39Z</time>
      </trkpt>
      <trkpt lat="44.45845" lon="0.99116">
        <ele>182.31</ele>
        <time>2015-01-31T13:52:40Z</time>
      </trkpt>
      <trkpt lat="44.45844" lon="0.99123">
        <ele>182.31</ele>
        <time>2015-01-31T13:52:41Z</time>
      </trkpt>
      <trkpt lat="44.45842" lon="0.99157">
        <ele>181.83</ele>
        <time>2015-01-31T13:52:45Z</time>
      </trkpt>
      <trkpt lat="44.45843" lon="0.99166">
        <ele>181.35</ele>
        <time>2015-01-31T13:52:46Z</time>
      </trkpt>
      <trkpt lat="44.45845" lon="0.99175">
        <ele>181.35</ele>
        <time>2015-01-31T13:52:47Z</time>
      </trkpt>
      <trkpt lat="44.45847" lon="0.99183">
        <ele>181.35</ele>
        <time>2015-01-31T13:52:48Z</time>
      </trkpt>
      <trkpt lat="44.45851" lon="0.99191">
        <ele>180.87</ele>
        <time>2015-01-31T13:52:49Z</time>
      </trkpt>
      <trkpt lat="44.45855" lon="0.99198">
        <ele>180.87</ele>
        <time>2015-01-31T13:52:50Z</time>
      </trkpt>
      <trkpt lat="44.45861" lon="0.99203">
        <ele>180.87</ele>
        <time>2015-01-31T13:52:51Z</time>
      </trkpt>
      <trkpt lat="44.45866" lon="0.99208">
        <ele>180.87</ele>
        <time>2015-01-31T13:52:52Z</time>
      </trkpt>
      <trkpt lat="44.45871" lon="0.99213">
        <ele>180.38</ele>
        <time>2015-01-31T13:52:53Z</time>
      </trkpt>
      <trkpt lat="44.45877" lon="0.99217">
        <ele>180.38</ele>
        <time>2015-01-31T13:52:54Z</time>
      </trkpt>
      <trkpt lat="44.45948" lon="0.99273">
        <ele>179.9</ele>
        <time>2015-01-31T13:53:08Z</time>
      </trkpt>
      <trkpt lat="44.46002" lon="0.99319">
        <ele>177.98</ele>
        <time>2015-01-31T13:53:19Z</time>
      </trkpt>
      <trkpt lat="44.46012" lon="0.99327">
        <ele>177.98</ele>
        <time>2015-01-31T13:53:21Z</time>
      </trkpt>
      <trkpt lat="44.46063" lon="0.99373">
        <ele>177.5</ele>
        <time>2015-01-31T13:53:33Z</time>
      </trkpt>
      <trkpt lat="44.46066" lon="0.99376">
        <ele>177.98</ele>
        <time>2015-01-31T13:53:34Z</time>
      </trkpt>
      <trkpt lat="44.46087" lon="0.99398">
        <ele>177.5</ele>
        <time>2015-01-31T13:53:45Z</time>
      </trkpt>
      <trkpt lat="44.46088" lon="0.99397">
        <ele>177.5</ele>
        <time>2015-01-31T13:54:03Z</time>
      </trkpt>
      <trkpt lat="44.46088" lon="0.99398">
        <ele>177.5</ele>
        <time>2015-01-31T13:54:27Z</time>
      </trkpt>
      <trkpt lat="44.46088" lon="0.99399">
        <ele>177.02</ele>
        <time>2015-01-31T13:54:50Z</time>
      </trkpt>
      <trkpt lat="44.46088" lon="0.994">
        <ele>176.06</ele>
        <time>2015-01-31T13:55:27Z</time>
      </trkpt>
      <trkpt lat="44.46088" lon="0.99399">
        <ele>177.02</ele>
        <time>2015-01-31T13:55:50Z</time>
      </trkpt>
      <trkpt lat="44.46088" lon="0.99399">
        <ele>177.5</ele>
        <time>2015-01-31T13:56:21Z</time>
      </trkpt>
      <trkpt lat="44.46088" lon="0.994">
        <ele>177.98</ele>
        <time>2015-01-31T13:56:52Z</time>
      </trkpt>
      <trkpt lat="44.46088" lon="0.99398">
        <ele>177.5</ele>
        <time>2015-01-31T13:57:14Z</time>
      </trkpt>
      <trkpt lat="44.46089" lon="0.99399">
        <ele>177.02</ele>
        <time>2015-01-31T13:57:32Z</time>
      </trkpt>
      <trkpt lat="44.4609" lon="0.994">
        <ele>177.02</ele>
        <time>2015-01-31T13:57:39Z</time>
      </trkpt>
      <trkpt lat="44.46092" lon="0.99401">
        <ele>177.02</ele>
        <time>2015-01-31T13:57:40Z</time>
      </trkpt>
      <trkpt lat="44.46093" lon="0.99403">
        <ele>177.02</ele>
        <time>2015-01-31T13:57:41Z</time>
      </trkpt>
      <trkpt lat="44.46093" lon="0.99405">
        <ele>177.02</ele>
        <time>2015-01-31T13:57:42Z</time>
      </trkpt>
      <trkpt lat="44.46091" lon="0.99407">
        <ele>177.5</ele>
        <time>2015-01-31T13:57:43Z</time>
      </trkpt>
      <trkpt lat="44.4609" lon="0.99408">
        <ele>177.5</ele>
        <time>2015-01-31T13:57:44Z</time>
      </trkpt>
      <trkpt lat="44.46088" lon="0.9941">
        <ele>177.5</ele>
        <time>2015-01-31T13:57:45Z</time>
      </trkpt>
      <trkpt lat="44.46086" lon="0.99411">
        <ele>177.5</ele>
        <time>2015-01-31T13:57:46Z</time>
      </trkpt>
      <trkpt lat="44.46084" lon="0.99412">
        <ele>177.5</ele>
        <time>2015-01-31T13:57:47Z</time>
      </trkpt>
      <trkpt lat="44.46083" lon="0.99412">
        <ele>177.5</ele>
        <time>2015-01-31T13:57:48Z</time>
      </trkpt>
      <trkpt lat="44.46081" lon="0.99412">
        <ele>177.5</ele>
        <time>2015-01-31T13:57:49Z</time>
      </trkpt>
      <trkpt lat="44.46079" lon="0.99413">
        <ele>177.5</ele>
        <time>2015-01-31T13:57:50Z</time>
      </trkpt>
      <trkpt lat="44.46077" lon="0.99413">
        <ele>177.5</ele>
        <time>2015-01-31T13:57:51Z</time>
      </trkpt>
      <trkpt lat="44.46075" lon="0.99413">
        <ele>177.5</ele>
        <time>2015-01-31T13:57:52Z</time>
      </trkpt>
      <trkpt lat="44.46072" lon="0.99413">
        <ele>177.5</ele>
        <time>2015-01-31T13:57:53Z</time>
      </trkpt>
      <trkpt lat="44.46069" lon="0.99414">
        <ele>177.98</ele>
        <time>2015-01-31T13:57:54Z</time>
      </trkpt>
      <trkpt lat="44.46021" lon="0.99419">
        <ele>177.02</ele>
        <time>2015-01-31T13:58:09Z</time>
      </trkpt>
      <trkpt lat="44.46009" lon="0.9942">
        <ele>176.54</ele>
        <time>2015-01-31T13:58:12Z</time>
      </trkpt>
      <trkpt lat="44.46004" lon="0.9942">
        <ele>176.54</ele>
        <time>2015-01-31T13:58:13Z</time>
      </trkpt>
      <trkpt lat="44.45939" lon="0.99425">
        <ele>176.06</ele>
        <time>2015-01-31T13:58:29Z</time>
      </trkpt>
      <trkpt lat="44.45894" lon="0.9943">
        <ele>180.87</ele>
        <time>2015-01-31T13:58:43Z</time>
      </trkpt>
      <trkpt lat="44.45841" lon="0.99435">
        <ele>182.79</ele>
        <time>2015-01-31T13:59:00Z</time>
      </trkpt>
      <trkpt lat="44.45783" lon="0.99434">
        <ele>187.59</ele>
        <time>2015-01-31T13:59:20Z</time>
      </trkpt>
      <trkpt lat="44.45751" lon="0.99426">
        <ele>191.44</ele>
        <time>2015-01-31T13:59:32Z</time>
      </trkpt>
      <trkpt lat="44.45716" lon="0.99412">
        <ele>192.4</ele>
        <time>2015-01-31T13:59:45Z</time>
      </trkpt>
      <trkpt lat="44.45678" lon="0.99398">
        <ele>192.4</ele>
        <time>2015-01-31T13:59:58Z</time>
      </trkpt>
      <trkpt lat="44.45639" lon="0.99382">
        <ele>191.92</ele>
        <time>2015-01-31T14:00:11Z</time>
      </trkpt>
      <trkpt lat="44.45581" lon="0.99342">
        <ele>190.48</ele>
        <time>2015-01-31T14:00:27Z</time>
      </trkpt>
      <trkpt lat="44.45514" lon="0.99296">
        <ele>192.88</ele>
        <time>2015-01-31T14:00:47Z</time>
      </trkpt>
      <trkpt lat="44.45459" lon="0.99259">
        <ele>194.8</ele>
        <time>2015-01-31T14:01:05Z</time>
      </trkpt>
      <trkpt lat="44.4541" lon="0.99224">
        <ele>196.73</ele>
        <time>2015-01-31T14:01:22Z</time>
      </trkpt>
      <trkpt lat="44.45348" lon="0.99185">
        <ele>197.69</ele>
        <time>2015-01-31T14:01:40Z</time>
      </trkpt>
      <trkpt lat="44.45323" lon="0.99165">
        <ele>197.69</ele>
        <time>2015-01-31T14:01:49Z</time>
      </trkpt>
      <trkpt lat="44.45319" lon="0.9916">
        <ele>197.69</ele>
        <time>2015-01-31T14:01:51Z</time>
      </trkpt>
      <trkpt lat="44.45306" lon="0.99163">
        <ele>199.13</ele>
        <time>2015-01-31T14:01:56Z</time>
      </trkpt>
      <trkpt lat="44.45293" lon="0.99173">
        <ele>199.61</ele>
        <time>2015-01-31T14:02:07Z</time>
      </trkpt>
      <trkpt lat="44.45293" lon="0.99173">
        <ele>199.61</ele>
        <time>2015-01-31T14:02:27Z</time>
      </trkpt>
      <trkpt lat="44.45293" lon="0.99173">
        <ele>199.61</ele>
        <time>2015-01-31T14:02:49Z</time>
      </trkpt>
      <trkpt lat="44.45293" lon="0.99173">
        <ele>199.61</ele>
        <time>2015-01-31T14:03:15Z</time>
      </trkpt>
      <trkpt lat="44.45293" lon="0.99173">
        <ele>198.65</ele>
        <time>2015-01-31T14:03:41Z</time>
      </trkpt>
      <trkpt lat="44.45292" lon="0.99173">
        <ele>199.13</ele>
        <time>2015-01-31T14:04:05Z</time>
      </trkpt>
      <trkpt lat="44.45293" lon="0.99174">
        <ele>199.13</ele>
        <time>2015-01-31T14:04:11Z</time>
      </trkpt>
      <trkpt lat="44.45309" lon="0.99161">
        <ele>197.21</ele>
        <time>2015-01-31T14:04:23Z</time>
      </trkpt>
      <trkpt lat="44.45309" lon="0.99162">
        <ele>197.21</ele>
        <time>2015-01-31T14:04:33Z</time>
      </trkpt>
      <trkpt lat="44.45309" lon="0.99162">
        <ele>197.21</ele>
        <time>2015-01-31T14:04:34Z</time>
      </trkpt>
      <trkpt lat="44.45295" lon="0.99173">
        <ele>198.65</ele>
        <time>2015-01-31T14:04:42Z</time>
      </trkpt>
      <trkpt lat="44.45244" lon="0.9921">
        <ele>196.73</ele>
        <time>2015-01-31T14:04:55Z</time>
      </trkpt>
      <trkpt lat="44.45172" lon="0.99273">
        <ele>188.56</ele>
        <time>2015-01-31T14:05:06Z</time>
      </trkpt>
      <trkpt lat="44.4515" lon="0.99282">
        <ele>185.19</ele>
        <time>2015-01-31T14:05:10Z</time>
      </trkpt>
      <trkpt lat="44.45105" lon="0.99289">
        <ele>176.54</ele>
        <time>2015-01-31T14:05:17Z</time>
      </trkpt>
      <trkpt lat="44.45059" lon="0.99275">
        <ele>167.89</ele>
        <time>2015-01-31T14:05:24Z</time>
      </trkpt>
      <trkpt lat="44.45048" lon="0.99267">
        <ele>165.48</ele>
        <time>2015-01-31T14:05:26Z</time>
      </trkpt>
      <trkpt lat="44.45038" lon="0.9926">
        <ele>162.6</ele>
        <time>2015-01-31T14:05:28Z</time>
      </trkpt>
      <trkpt lat="44.44999" lon="0.99238">
        <ele>156.35</ele>
        <time>2015-01-31T14:05:35Z</time>
      </trkpt>
      <trkpt lat="44.44974" lon="0.99203">
        <ele>148.66</ele>
        <time>2015-01-31T14:05:41Z</time>
      </trkpt>
      <trkpt lat="44.44962" lon="0.99193">
        <ele>145.3</ele>
        <time>2015-01-31T14:05:44Z</time>
      </trkpt>
      <trkpt lat="44.44924" lon="0.99211">
        <ele>138.09</ele>
        <time>2015-01-31T14:05:52Z</time>
      </trkpt>
      <trkpt lat="44.44921" lon="0.99219">
        <ele>137.61</ele>
        <time>2015-01-31T14:05:53Z</time>
      </trkpt>
      <trkpt lat="44.44906" lon="0.99248">
        <ele>135.68</ele>
        <time>2015-01-31T14:05:57Z</time>
      </trkpt>
      <trkpt lat="44.44896" lon="0.99266">
        <ele>134.72</ele>
        <time>2015-01-31T14:06:00Z</time>
      </trkpt>
      <trkpt lat="44.44826" lon="0.99345">
        <ele>128.95</ele>
        <time>2015-01-31T14:06:12Z</time>
      </trkpt>
      <trkpt lat="44.44784" lon="0.99398">
        <ele>124.15</ele>
        <time>2015-01-31T14:06:19Z</time>
      </trkpt>
      <trkpt lat="44.44768" lon="0.99425">
        <ele>118.86</ele>
        <time>2015-01-31T14:06:24Z</time>
      </trkpt>
      <trkpt lat="44.44749" lon="0.99431">
        <ele>115.5</ele>
        <time>2015-01-31T14:06:28Z</time>
      </trkpt>
      <trkpt lat="44.44734" lon="0.99434">
        <ele>114.53</ele>
        <time>2015-01-31T14:06:31Z</time>
      </trkpt>
      <trkpt lat="44.44696" lon="0.99479">
        <ele>113.57</ele>
        <time>2015-01-31T14:06:41Z</time>
      </trkpt>
      <trkpt lat="44.44668" lon="0.99539">
        <ele>116.46</ele>
        <time>2015-01-31T14:06:57Z</time>
      </trkpt>
      <trkpt lat="44.4466" lon="0.99554">
        <ele>117.9</ele>
        <time>2015-01-31T14:07:02Z</time>
      </trkpt>
      <trkpt lat="44.44666" lon="0.9956">
        <ele>118.38</ele>
        <time>2015-01-31T14:07:08Z</time>
      </trkpt>
      <trkpt lat="44.44667" lon="0.99562">
        <ele>118.38</ele>
        <time>2015-01-31T14:07:09Z</time>
      </trkpt>
      <trkpt lat="44.44668" lon="0.99564">
        <ele>118.38</ele>
        <time>2015-01-31T14:07:10Z</time>
      </trkpt>
      <trkpt lat="44.4468" lon="0.99575">
        <ele>119.34</ele>
        <time>2015-01-31T14:07:17Z</time>
      </trkpt>
      <trkpt lat="44.44681" lon="0.99578">
        <ele>119.34</ele>
        <time>2015-01-31T14:07:18Z</time>
      </trkpt>
      <trkpt lat="44.44683" lon="0.99579">
        <ele>119.82</ele>
        <time>2015-01-31T14:07:19Z</time>
      </trkpt>
      <trkpt lat="44.44685" lon="0.99581">
        <ele>119.82</ele>
        <time>2015-01-31T14:07:20Z</time>
      </trkpt>
      <trkpt lat="44.44688" lon="0.99583">
        <ele>119.82</ele>
        <time>2015-01-31T14:07:21Z</time>
      </trkpt>
      <trkpt lat="44.4471" lon="0.99612">
        <ele>121.74</ele>
        <time>2015-01-31T14:07:33Z</time>
      </trkpt>
      <trkpt lat="44.44732" lon="0.99649">
        <ele>122.71</ele>
        <time>2015-01-31T14:07:46Z</time>
      </trkpt>
      <trkpt lat="44.44756" lon="0.99686">
        <ele>123.67</ele>
        <time>2015-01-31T14:07:58Z</time>
      </trkpt>
      <trkpt lat="44.44789" lon="0.99717">
        <ele>125.11</ele>
        <time>2015-01-31T14:08:11Z</time>
      </trkpt>
      <trkpt lat="44.44828" lon="0.99752">
        <ele>125.59</ele>
        <time>2015-01-31T14:08:26Z</time>
      </trkpt>
      <trkpt lat="44.44884" lon="0.99798">
        <ele>123.19</ele>
        <time>2015-01-31T14:08:40Z</time>
      </trkpt>
      <trkpt lat="44.44912" lon="0.99826">
        <ele>123.19</ele>
        <time>2015-01-31T14:08:48Z</time>
      </trkpt>
      <trkpt lat="44.44954" lon="0.99879">
        <ele>128.47</ele>
        <time>2015-01-31T14:09:01Z</time>
      </trkpt>
      <trkpt lat="44.44985" lon="0.9992">
        <ele>133.28</ele>
        <time>2015-01-31T14:09:12Z</time>
      </trkpt>
      <trkpt lat="44.45022" lon="0.99966">
        <ele>131.36</ele>
        <time>2015-01-31T14:09:24Z</time>
      </trkpt>
      <trkpt lat="44.4503" lon="0.99982">
        <ele>131.84</ele>
        <time>2015-01-31T14:09:27Z</time>
      </trkpt>
      <trkpt lat="44.45034" lon="0.99988">
        <ele>131.36</ele>
        <time>2015-01-31T14:09:28Z</time>
      </trkpt>
      <trkpt lat="44.45076" lon="1.00077">
        <ele>127.03</ele>
        <time>2015-01-31T14:09:43Z</time>
      </trkpt>
      <trkpt lat="44.4509" lon="1.00116">
        <ele>126.55</ele>
        <time>2015-01-31T14:09:50Z</time>
      </trkpt>
      <trkpt lat="44.45098" lon="1.00144">
        <ele>125.59</ele>
        <time>2015-01-31T14:09:55Z</time>
      </trkpt>
      <trkpt lat="44.45123" lon="1.00222">
        <ele>125.59</ele>
        <time>2015-01-31T14:10:09Z</time>
      </trkpt>
      <trkpt lat="44.4514" lon="1.00279">
        <ele>125.59</ele>
        <time>2015-01-31T14:10:20Z</time>
      </trkpt>
      <trkpt lat="44.45142" lon="1.00285">
        <ele>125.59</ele>
        <time>2015-01-31T14:10:21Z</time>
      </trkpt>
      <trkpt lat="44.45165" lon="1.00371">
        <ele>127.03</ele>
        <time>2015-01-31T14:10:38Z</time>
      </trkpt>
      <trkpt lat="44.45195" lon="1.00451">
        <ele>126.07</ele>
        <time>2015-01-31T14:10:53Z</time>
      </trkpt>
      <trkpt lat="44.45198" lon="1.00455">
        <ele>126.07</ele>
        <time>2015-01-31T14:10:54Z</time>
      </trkpt>
      <trkpt lat="44.45202" lon="1.00459">
        <ele>126.07</ele>
        <time>2015-01-31T14:10:55Z</time>
      </trkpt>
      <trkpt lat="44.45231" lon="1.00476">
        <ele>125.59</ele>
        <time>2015-01-31T14:11:01Z</time>
      </trkpt>
      <trkpt lat="44.45236" lon="1.00481">
        <ele>125.59</ele>
        <time>2015-01-31T14:11:02Z</time>
      </trkpt>
      <trkpt lat="44.45244" lon="1.00494">
        <ele>125.59</ele>
        <time>2015-01-31T14:11:04Z</time>
      </trkpt>
      <trkpt lat="44.45247" lon="1.005">
        <ele>125.59</ele>
        <time>2015-01-31T14:11:05Z</time>
      </trkpt>
      <trkpt lat="44.4525" lon="1.00506">
        <ele>125.59</ele>
        <time>2015-01-31T14:11:06Z</time>
      </trkpt>
      <trkpt lat="44.45263" lon="1.00543">
        <ele>126.55</ele>
        <time>2015-01-31T14:11:13Z</time>
      </trkpt>
      <trkpt lat="44.45264" lon="1.00548">
        <ele>126.55</ele>
        <time>2015-01-31T14:11:14Z</time>
      </trkpt>
      <trkpt lat="44.45265" lon="1.00554">
        <ele>126.55</ele>
        <time>2015-01-31T14:11:15Z</time>
      </trkpt>
      <trkpt lat="44.45276" lon="1.00614">
        <ele>128.47</ele>
        <time>2015-01-31T14:11:26Z</time>
      </trkpt>
      <trkpt lat="44.45269" lon="1.00706">
        <ele>127.99</ele>
        <time>2015-01-31T14:11:41Z</time>
      </trkpt>
      <trkpt lat="44.45273" lon="1.00787">
        <ele>130.4</ele>
        <time>2015-01-31T14:11:55Z</time>
      </trkpt>
      <trkpt lat="44.45293" lon="1.00879">
        <ele>131.84</ele>
        <time>2015-01-31T14:12:12Z</time>
      </trkpt>
      <trkpt lat="44.4531" lon="1.0095">
        <ele>134.24</ele>
        <time>2015-01-31T14:12:25Z</time>
      </trkpt>
      <trkpt lat="44.45328" lon="1.01031">
        <ele>135.68</ele>
        <time>2015-01-31T14:12:40Z</time>
      </trkpt>
      <trkpt lat="44.45331" lon="1.01066">
        <ele>136.64</ele>
        <time>2015-01-31T14:12:46Z</time>
      </trkpt>
      <trkpt lat="44.45345" lon="1.01134">
        <ele>137.61</ele>
        <time>2015-01-31T14:12:58Z</time>
      </trkpt>
      <trkpt lat="44.45347" lon="1.01139">
        <ele>137.13</ele>
        <time>2015-01-31T14:12:59Z</time>
      </trkpt>
      <trkpt lat="44.45358" lon="1.01166">
        <ele>136.64</ele>
        <time>2015-01-31T14:13:04Z</time>
      </trkpt>
      <trkpt lat="44.4536" lon="1.01171">
        <ele>136.64</ele>
        <time>2015-01-31T14:13:05Z</time>
      </trkpt>
      <trkpt lat="44.4538" lon="1.01217">
        <ele>138.09</ele>
        <time>2015-01-31T14:13:14Z</time>
      </trkpt>
      <trkpt lat="44.45398" lon="1.01268">
        <ele>138.57</ele>
        <time>2015-01-31T14:13:23Z</time>
      </trkpt>
      <trkpt lat="44.45399" lon="1.01274">
        <ele>138.57</ele>
        <time>2015-01-31T14:13:24Z</time>
      </trkpt>
      <trkpt lat="44.45425" lon="1.01357">
        <ele>138.09</ele>
        <time>2015-01-31T14:13:38Z</time>
      </trkpt>
      <trkpt lat="44.4544" lon="1.0145">
        <ele>140.01</ele>
        <time>2015-01-31T14:13:54Z</time>
      </trkpt>
      <trkpt lat="44.45438" lon="1.01497">
        <ele>140.49</ele>
        <time>2015-01-31T14:14:02Z</time>
      </trkpt>
      <trkpt lat="44.45437" lon="1.01503">
        <ele>140.97</ele>
        <time>2015-01-31T14:14:03Z</time>
      </trkpt>
      <trkpt lat="44.45437" lon="1.01509">
        <ele>140.97</ele>
        <time>2015-01-31T14:14:04Z</time>
      </trkpt>
      <trkpt lat="44.45451" lon="1.01615">
        <ele>140.49</ele>
        <time>2015-01-31T14:14:21Z</time>
      </trkpt>
      <trkpt lat="44.45464" lon="1.01661">
        <ele>141.45</ele>
        <time>2015-01-31T14:14:29Z</time>
      </trkpt>
      <trkpt lat="44.45481" lon="1.01755">
        <ele>140.97</ele>
        <time>2015-01-31T14:14:45Z</time>
      </trkpt>
      <trkpt lat="44.45486" lon="1.01772">
        <ele>140.97</ele>
        <time>2015-01-31T14:14:48Z</time>
      </trkpt>
      <trkpt lat="44.45507" lon="1.01817">
        <ele>142.41</ele>
        <time>2015-01-31T14:14:57Z</time>
      </trkpt>
      <trkpt lat="44.4551" lon="1.01821">
        <ele>142.89</ele>
        <time>2015-01-31T14:14:58Z</time>
      </trkpt>
      <trkpt lat="44.45548" lon="1.01884">
        <ele>145.78</ele>
        <time>2015-01-31T14:15:13Z</time>
      </trkpt>
      <trkpt lat="44.45579" lon="1.01952">
        <ele>147.7</ele>
        <time>2015-01-31T14:15:27Z</time>
      </trkpt>
      <trkpt lat="44.45586" lon="1.01967">
        <ele>148.18</ele>
        <time>2015-01-31T14:15:30Z</time>
      </trkpt>
      <trkpt lat="44.45588" lon="1.01971">
        <ele>148.18</ele>
        <time>2015-01-31T14:15:31Z</time>
      </trkpt>
      <trkpt lat="44.45597" lon="1.01992">
        <ele>148.18</ele>
        <time>2015-01-31T14:15:35Z</time>
      </trkpt>
      <trkpt lat="44.45599" lon="1.01997">
        <ele>147.7</ele>
        <time>2015-01-31T14:15:36Z</time>
      </trkpt>
      <trkpt lat="44.45601" lon="1.02003">
        <ele>147.7</ele>
        <time>2015-01-31T14:15:37Z</time>
      </trkpt>
      <trkpt lat="44.45608" lon="1.02035">
        <ele>147.22</ele>
        <time>2015-01-31T14:15:42Z</time>
      </trkpt>
      <trkpt lat="44.45625" lon="1.02104">
        <ele>149.62</ele>
        <time>2015-01-31T14:15:56Z</time>
      </trkpt>
      <trkpt lat="44.45618" lon="1.02141">
        <ele>151.06</ele>
        <time>2015-01-31T14:16:06Z</time>
      </trkpt>
      <trkpt lat="44.45614" lon="1.02143">
        <ele>150.58</ele>
        <time>2015-01-31T14:16:07Z</time>
      </trkpt>
      <trkpt lat="44.4561" lon="1.02144">
        <ele>150.1</ele>
        <time>2015-01-31T14:16:08Z</time>
      </trkpt>
      <trkpt lat="44.45566" lon="1.02145">
        <ele>146.26</ele>
        <time>2015-01-31T14:16:17Z</time>
      </trkpt>
      <trkpt lat="44.45515" lon="1.02162">
        <ele>147.22</ele>
        <time>2015-01-31T14:16:31Z</time>
      </trkpt>
      <trkpt lat="44.45472" lon="1.02192">
        <ele>148.66</ele>
        <time>2015-01-31T14:16:45Z</time>
      </trkpt>
      <trkpt lat="44.4543" lon="1.02223">
        <ele>149.14</ele>
        <time>2015-01-31T14:16:58Z</time>
      </trkpt>
      <trkpt lat="44.45382" lon="1.0227">
        <ele>151.06</ele>
        <time>2015-01-31T14:17:14Z</time>
      </trkpt>
      <trkpt lat="44.45337" lon="1.02307">
        <ele>151.54</ele>
        <time>2015-01-31T14:17:28Z</time>
      </trkpt>
      <trkpt lat="44.45284" lon="1.02332">
        <ele>152.51</ele>
        <time>2015-01-31T14:17:42Z</time>
      </trkpt>
      <trkpt lat="44.45214" lon="1.02358">
        <ele>154.43</ele>
        <time>2015-01-31T14:18:01Z</time>
      </trkpt>
      <trkpt lat="44.45187" lon="1.02367">
        <ele>155.39</ele>
        <time>2015-01-31T14:18:08Z</time>
      </trkpt>
      <trkpt lat="44.45137" lon="1.02414">
        <ele>157.79</ele>
        <time>2015-01-31T14:18:24Z</time>
      </trkpt>
      <trkpt lat="44.45114" lon="1.02449">
        <ele>159.24</ele>
        <time>2015-01-31T14:18:33Z</time>
      </trkpt>
      <trkpt lat="44.451" lon="1.02442">
        <ele>159.72</ele>
        <time>2015-01-31T14:18:38Z</time>
      </trkpt>
      <trkpt lat="44.45068" lon="1.02402">
        <ele>159.72</ele>
        <time>2015-01-31T14:18:50Z</time>
      </trkpt>
      <trkpt lat="44.45059" lon="1.02394">
        <ele>159.24</ele>
        <time>2015-01-31T14:18:53Z</time>
      </trkpt>
      <trkpt lat="44.45048" lon="1.02411">
        <ele>160.68</ele>
        <time>2015-01-31T14:19:02Z</time>
      </trkpt>
      <trkpt lat="44.45061" lon="1.02447">
        <ele>162.12</ele>
        <time>2015-01-31T14:19:14Z</time>
      </trkpt>
      <trkpt lat="44.45067" lon="1.02476">
        <ele>165.48</ele>
        <time>2015-01-31T14:19:26Z</time>
      </trkpt>
      <trkpt lat="44.45067" lon="1.02477">
        <ele>165.96</ele>
        <time>2015-01-31T14:19:44Z</time>
      </trkpt>
      <trkpt lat="44.45067" lon="1.02477">
        <ele>165.96</ele>
        <time>2015-01-31T14:20:09Z</time>
      </trkpt>
      <trkpt lat="44.45068" lon="1.02478">
        <ele>165.96</ele>
        <time>2015-01-31T14:20:27Z</time>
      </trkpt>
      <trkpt lat="44.45069" lon="1.02505">
        <ele>166.45</ele>
        <time>2015-01-31T14:20:38Z</time>
      </trkpt>
      <trkpt lat="44.45066" lon="1.02556">
        <ele>169.81</ele>
        <time>2015-01-31T14:20:53Z</time>
      </trkpt>
      <trkpt lat="44.45061" lon="1.02607">
        <ele>172.21</ele>
        <time>2015-01-31T14:21:06Z</time>
      </trkpt>
      <trkpt lat="44.45045" lon="1.02657">
        <ele>175.58</ele>
        <time>2015-01-31T14:21:20Z</time>
      </trkpt>
      <trkpt lat="44.4503" lon="1.0269">
        <ele>177.02</ele>
        <time>2015-01-31T14:21:31Z</time>
      </trkpt>
      <trkpt lat="44.44994" lon="1.02702">
        <ele>179.42</ele>
        <time>2015-01-31T14:21:44Z</time>
      </trkpt>
      <trkpt lat="44.44963" lon="1.02669">
        <ele>182.79</ele>
        <time>2015-01-31T14:21:58Z</time>
      </trkpt>
      <trkpt lat="44.4494" lon="1.02667">
        <ele>186.63</ele>
        <time>2015-01-31T14:22:09Z</time>
      </trkpt>
      <trkpt lat="44.44924" lon="1.02688">
        <ele>188.56</ele>
        <time>2015-01-31T14:22:23Z</time>
      </trkpt>
      <trkpt lat="44.44917" lon="1.02694">
        <ele>188.56</ele>
        <time>2015-01-31T14:22:28Z</time>
      </trkpt>
      <trkpt lat="44.44909" lon="1.02702">
        <ele>188.56</ele>
        <time>2015-01-31T14:22:34Z</time>
      </trkpt>
      <trkpt lat="44.44893" lon="1.02717">
        <ele>189.04</ele>
        <time>2015-01-31T14:22:45Z</time>
      </trkpt>
      <trkpt lat="44.44891" lon="1.02718">
        <ele>189.04</ele>
        <time>2015-01-31T14:22:46Z</time>
      </trkpt>
      <trkpt lat="44.4489" lon="1.0272">
        <ele>189.52</ele>
        <time>2015-01-31T14:22:47Z</time>
      </trkpt>
      <trkpt lat="44.44889" lon="1.02722">
        <ele>189.04</ele>
        <time>2015-01-31T14:22:48Z</time>
      </trkpt>
      <trkpt lat="44.44887" lon="1.02723">
        <ele>189.04</ele>
        <time>2015-01-31T14:22:49Z</time>
      </trkpt>
      <trkpt lat="44.44865" lon="1.02742">
        <ele>189.52</ele>
        <time>2015-01-31T14:23:05Z</time>
      </trkpt>
      <trkpt lat="44.4485" lon="1.02775">
        <ele>190.48</ele>
        <time>2015-01-31T14:23:19Z</time>
      </trkpt>
      <trkpt lat="44.44833" lon="1.02827">
        <ele>190.48</ele>
        <time>2015-01-31T14:23:37Z</time>
      </trkpt>
      <trkpt lat="44.44805" lon="1.02858">
        <ele>192.4</ele>
        <time>2015-01-31T14:23:52Z</time>
      </trkpt>
      <trkpt lat="44.44782" lon="1.02878">
        <ele>193.84</ele>
        <time>2015-01-31T14:24:04Z</time>
      </trkpt>
      <trkpt lat="44.4478" lon="1.0288">
        <ele>194.32</ele>
        <time>2015-01-31T14:24:05Z</time>
      </trkpt>
      <trkpt lat="44.44779" lon="1.02881">
        <ele>194.32</ele>
        <time>2015-01-31T14:24:06Z</time>
      </trkpt>
      <trkpt lat="44.44768" lon="1.02897">
        <ele>194.32</ele>
        <time>2015-01-31T14:24:14Z</time>
      </trkpt>
      <trkpt lat="44.44766" lon="1.02898">
        <ele>194.32</ele>
        <time>2015-01-31T14:24:15Z</time>
      </trkpt>
      <trkpt lat="44.44765" lon="1.029">
        <ele>194.8</ele>
        <time>2015-01-31T14:24:16Z</time>
      </trkpt>
      <trkpt lat="44.44763" lon="1.02903">
        <ele>194.8</ele>
        <time>2015-01-31T14:24:17Z</time>
      </trkpt>
      <trkpt lat="44.44762" lon="1.02905">
        <ele>194.8</ele>
        <time>2015-01-31T14:24:18Z</time>
      </trkpt>
      <trkpt lat="44.44743" lon="1.02932">
        <ele>198.17</ele>
        <time>2015-01-31T14:24:32Z</time>
      </trkpt>
      <trkpt lat="44.44734" lon="1.02944">
        <ele>199.13</ele>
        <time>2015-01-31T14:24:39Z</time>
      </trkpt>
      <trkpt lat="44.44734" lon="1.02947">
        <ele>198.65</ele>
        <time>2015-01-31T14:24:50Z</time>
      </trkpt>
      <trkpt lat="44.44734" lon="1.02946">
        <ele>198.65</ele>
        <time>2015-01-31T14:25:14Z</time>
      </trkpt>
      <trkpt lat="44.44734" lon="1.02946">
        <ele>197.69</ele>
        <time>2015-01-31T14:25:42Z</time>
      </trkpt>
      <trkpt lat="44.44735" lon="1.02945">
        <ele>196.73</ele>
        <time>2015-01-31T14:26:10Z</time>
      </trkpt>
      <trkpt lat="44.44735" lon="1.02945">
        <ele>195.77</ele>
        <time>2015-01-31T14:26:40Z</time>
      </trkpt>
      <trkpt lat="44.44735" lon="1.02945">
        <ele>194.8</ele>
        <time>2015-01-31T14:27:05Z</time>
      </trkpt>
      <trkpt lat="44.44735" lon="1.02945">
        <ele>194.8</ele>
        <time>2015-01-31T14:27:36Z</time>
      </trkpt>
      <trkpt lat="44.44735" lon="1.02946">
        <ele>195.28</ele>
        <time>2015-01-31T14:28:09Z</time>
      </trkpt>
      <trkpt lat="44.44726" lon="1.02967">
        <ele>196.25</ele>
        <time>2015-01-31T14:28:19Z</time>
      </trkpt>
      <trkpt lat="44.44707" lon="1.03027">
        <ele>200.09</ele>
        <time>2015-01-31T14:28:34Z</time>
      </trkpt>
      <trkpt lat="44.44699" lon="1.03052">
        <ele>200.09</ele>
        <time>2015-01-31T14:28:39Z</time>
      </trkpt>
      <trkpt lat="44.44698" lon="1.03058">
        <ele>200.09</ele>
        <time>2015-01-31T14:28:40Z</time>
      </trkpt>
      <trkpt lat="44.44696" lon="1.03064">
        <ele>200.09</ele>
        <time>2015-01-31T14:28:41Z</time>
      </trkpt>
      <trkpt lat="44.4469" lon="1.03113">
        <ele>200.09</ele>
        <time>2015-01-31T14:28:49Z</time>
      </trkpt>
      <trkpt lat="44.44693" lon="1.03188">
        <ele>202.49</ele>
        <time>2015-01-31T14:29:03Z</time>
      </trkpt>
      <trkpt lat="44.44676" lon="1.03236">
        <ele>206.34</ele>
        <time>2015-01-31T14:29:15Z</time>
      </trkpt>
      <trkpt lat="44.44658" lon="1.0329">
        <ele>208.74</ele>
        <time>2015-01-31T14:29:30Z</time>
      </trkpt>
      <trkpt lat="44.44648" lon="1.03343">
        <ele>211.63</ele>
        <time>2015-01-31T14:29:44Z</time>
      </trkpt>
      <trkpt lat="44.44638" lon="1.03403">
        <ele>212.11</ele>
        <time>2015-01-31T14:29:59Z</time>
      </trkpt>
      <trkpt lat="44.44641" lon="1.03462">
        <ele>210.67</ele>
        <time>2015-01-31T14:30:12Z</time>
      </trkpt>
      <trkpt lat="44.44642" lon="1.03486">
        <ele>209.7</ele>
        <time>2015-01-31T14:30:16Z</time>
      </trkpt>
      <trkpt lat="44.44648" lon="1.03578">
        <ele>207.3</ele>
        <time>2015-01-31T14:30:30Z</time>
      </trkpt>
      <trkpt lat="44.44649" lon="1.03584">
        <ele>206.82</ele>
        <time>2015-01-31T14:30:31Z</time>
      </trkpt>
      <trkpt lat="44.44664" lon="1.03688">
        <ele>201.53</ele>
        <time>2015-01-31T14:30:46Z</time>
      </trkpt>
      <trkpt lat="44.44689" lon="1.03774">
        <ele>198.65</ele>
        <time>2015-01-31T14:30:56Z</time>
      </trkpt>
      <trkpt lat="44.44694" lon="1.03791">
        <ele>199.13</ele>
        <time>2015-01-31T14:30:59Z</time>
      </trkpt>
      <trkpt lat="44.44695" lon="1.03796">
        <ele>199.61</ele>
        <time>2015-01-31T14:31:00Z</time>
      </trkpt>
      <trkpt lat="44.44696" lon="1.038">
        <ele>200.09</ele>
        <time>2015-01-31T14:31:01Z</time>
      </trkpt>
      <trkpt lat="44.44697" lon="1.03802">
        <ele>201.05</ele>
        <time>2015-01-31T14:31:02Z</time>
      </trkpt>
      <trkpt lat="44.44699" lon="1.03804">
        <ele>201.05</ele>
        <time>2015-01-31T14:31:03Z</time>
      </trkpt>
      <trkpt lat="44.447" lon="1.03806">
        <ele>201.53</ele>
        <time>2015-01-31T14:31:04Z</time>
      </trkpt>
      <trkpt lat="44.44701" lon="1.03807">
        <ele>202.01</ele>
        <time>2015-01-31T14:31:05Z</time>
      </trkpt>
      <trkpt lat="44.44702" lon="1.03809">
        <ele>202.01</ele>
        <time>2015-01-31T14:31:06Z</time>
      </trkpt>
      <trkpt lat="44.44701" lon="1.0381">
        <ele>202.98</ele>
        <time>2015-01-31T14:31:17Z</time>
      </trkpt>
      <trkpt lat="44.447" lon="1.0381">
        <ele>203.94</ele>
        <time>2015-01-31T14:31:43Z</time>
      </trkpt>
      <trkpt lat="44.447" lon="1.03811">
        <ele>203.94</ele>
        <time>2015-01-31T14:31:46Z</time>
      </trkpt>
      <trkpt lat="44.44705" lon="1.0385">
        <ele>204.42</ele>
        <time>2015-01-31T14:31:57Z</time>
      </trkpt>
      <trkpt lat="44.44699" lon="1.03917">
        <ele>205.38</ele>
        <time>2015-01-31T14:32:11Z</time>
      </trkpt>
      <trkpt lat="44.44666" lon="1.03978">
        <ele>208.26</ele>
        <time>2015-01-31T14:32:25Z</time>
      </trkpt>
      <trkpt lat="44.44649" lon="1.04046">
        <ele>211.63</ele>
        <time>2015-01-31T14:32:39Z</time>
      </trkpt>
      <trkpt lat="44.44638" lon="1.04108">
        <ele>213.55</ele>
        <time>2015-01-31T14:32:52Z</time>
      </trkpt>
      <trkpt lat="44.44637" lon="1.04142">
        <ele>214.03</ele>
        <time>2015-01-31T14:33:02Z</time>
      </trkpt>
      <trkpt lat="44.44635" lon="1.04153">
        <ele>213.55</ele>
        <time>2015-01-31T14:33:12Z</time>
      </trkpt>
      <trkpt lat="44.44632" lon="1.04204">
        <ele>214.51</ele>
        <time>2015-01-31T14:33:24Z</time>
      </trkpt>
      <trkpt lat="44.4461" lon="1.04257">
        <ele>217.4</ele>
        <time>2015-01-31T14:33:39Z</time>
      </trkpt>
      <trkpt lat="44.44587" lon="1.04292">
        <ele>219.8</ele>
        <time>2015-01-31T14:33:52Z</time>
      </trkpt>
      <trkpt lat="44.4456" lon="1.04322">
        <ele>222.2</ele>
        <time>2015-01-31T14:34:05Z</time>
      </trkpt>
      <trkpt lat="44.4454" lon="1.04323">
        <ele>221.24</ele>
        <time>2015-01-31T14:34:16Z</time>
      </trkpt>
      <trkpt lat="44.44505" lon="1.04326">
        <ele>219.32</ele>
        <time>2015-01-31T14:34:29Z</time>
      </trkpt>
      <trkpt lat="44.44463" lon="1.0433">
        <ele>218.36</ele>
        <time>2015-01-31T14:34:43Z</time>
      </trkpt>
      <trkpt lat="44.44441" lon="1.0437">
        <ele>217.4</ele>
        <time>2015-01-31T14:34:57Z</time>
      </trkpt>
      <trkpt lat="44.44416" lon="1.04413">
        <ele>216.91</ele>
        <time>2015-01-31T14:35:11Z</time>
      </trkpt>
      <trkpt lat="44.444" lon="1.04439">
        <ele>216.91</ele>
        <time>2015-01-31T14:35:24Z</time>
      </trkpt>
      <trkpt lat="44.444" lon="1.04439">
        <ele>216.43</ele>
        <time>2015-01-31T14:35:44Z</time>
      </trkpt>
      <trkpt lat="44.444" lon="1.0444">
        <ele>215.95</ele>
        <time>2015-01-31T14:36:08Z</time>
      </trkpt>
      <trkpt lat="44.44401" lon="1.04441">
        <ele>214.99</ele>
        <time>2015-01-31T14:36:41Z</time>
      </trkpt>
      <trkpt lat="44.44401" lon="1.04441">
        <ele>214.99</ele>
        <time>2015-01-31T14:36:46Z</time>
      </trkpt>
      <trkpt lat="44.44403" lon="1.04444">
        <ele>215.47</ele>
        <time>2015-01-31T14:36:49Z</time>
      </trkpt>
      <trkpt lat="44.44405" lon="1.04446">
        <ele>215.47</ele>
        <time>2015-01-31T14:36:50Z</time>
      </trkpt>
      <trkpt lat="44.44408" lon="1.04448">
        <ele>215.47</ele>
        <time>2015-01-31T14:36:51Z</time>
      </trkpt>
      <trkpt lat="44.44441" lon="1.04456">
        <ele>215.95</ele>
        <time>2015-01-31T14:37:01Z</time>
      </trkpt>
      <trkpt lat="44.44445" lon="1.04455">
        <ele>215.47</ele>
        <time>2015-01-31T14:37:02Z</time>
      </trkpt>
      <trkpt lat="44.44484" lon="1.04443">
        <ele>214.03</ele>
        <time>2015-01-31T14:37:11Z</time>
      </trkpt>
      <trkpt lat="44.44489" lon="1.04441">
        <ele>213.55</ele>
        <time>2015-01-31T14:37:12Z</time>
      </trkpt>
      <trkpt lat="44.44565" lon="1.0442">
        <ele>210.19</ele>
        <time>2015-01-31T14:37:26Z</time>
      </trkpt>
      <trkpt lat="44.44635" lon="1.04414">
        <ele>210.19</ele>
        <time>2015-01-31T14:37:40Z</time>
      </trkpt>
      <trkpt lat="44.4469" lon="1.04414">
        <ele>210.67</ele>
        <time>2015-01-31T14:37:54Z</time>
      </trkpt>
      <trkpt lat="44.44694" lon="1.04419">
        <ele>210.19</ele>
        <time>2015-01-31T14:38:04Z</time>
      </trkpt>
      <trkpt lat="44.44694" lon="1.04418">
        <ele>211.63</ele>
        <time>2015-01-31T14:38:25Z</time>
      </trkpt>
      <trkpt lat="44.44695" lon="1.04419">
        <ele>211.15</ele>
        <time>2015-01-31T14:38:54Z</time>
      </trkpt>
      <trkpt lat="44.44695" lon="1.04418">
        <ele>211.63</ele>
        <time>2015-01-31T14:39:19Z</time>
      </trkpt>
      <trkpt lat="44.44695" lon="1.04419">
        <ele>212.11</ele>
        <time>2015-01-31T14:39:50Z</time>
      </trkpt>
      <trkpt lat="44.44695" lon="1.04419">
        <ele>212.11</ele>
        <time>2015-01-31T14:40:23Z</time>
      </trkpt>
      <trkpt lat="44.44695" lon="1.04419">
        <ele>213.07</ele>
        <time>2015-01-31T14:40:52Z</time>
      </trkpt>
      <trkpt lat="44.44695" lon="1.04419">
        <ele>213.07</ele>
        <time>2015-01-31T14:41:12Z</time>
      </trkpt>
      <trkpt lat="44.44696" lon="1.04419">
        <ele>212.59</ele>
        <time>2015-01-31T14:41:22Z</time>
      </trkpt>
      <trkpt lat="44.44697" lon="1.04421">
        <ele>213.07</ele>
        <time>2015-01-31T14:41:23Z</time>
      </trkpt>
      <trkpt lat="44.44697" lon="1.04424">
        <ele>213.07</ele>
        <time>2015-01-31T14:41:24Z</time>
      </trkpt>
      <trkpt lat="44.44698" lon="1.04427">
        <ele>213.07</ele>
        <time>2015-01-31T14:41:25Z</time>
      </trkpt>
      <trkpt lat="44.44698" lon="1.0443">
        <ele>213.07</ele>
        <time>2015-01-31T14:41:26Z</time>
      </trkpt>
      <trkpt lat="44.44704" lon="1.04498">
        <ele>211.15</ele>
        <time>2015-01-31T14:41:40Z</time>
      </trkpt>
      <trkpt lat="44.44712" lon="1.04565">
        <ele>209.22</ele>
        <time>2015-01-31T14:41:51Z</time>
      </trkpt>
      <trkpt lat="44.44717" lon="1.04585">
        <ele>208.74</ele>
        <time>2015-01-31T14:41:54Z</time>
      </trkpt>
      <trkpt lat="44.44727" lon="1.0461">
        <ele>208.74</ele>
        <time>2015-01-31T14:41:58Z</time>
      </trkpt>
      <trkpt lat="44.44772" lon="1.04685">
        <ele>205.86</ele>
        <time>2015-01-31T14:42:11Z</time>
      </trkpt>
      <trkpt lat="44.44814" lon="1.04747">
        <ele>203.94</ele>
        <time>2015-01-31T14:42:23Z</time>
      </trkpt>
      <trkpt lat="44.44836" lon="1.04768">
        <ele>203.46</ele>
        <time>2015-01-31T14:42:28Z</time>
      </trkpt>
      <trkpt lat="44.4484" lon="1.04771">
        <ele>203.46</ele>
        <time>2015-01-31T14:42:29Z</time>
      </trkpt>
      <trkpt lat="44.44868" lon="1.04784">
        <ele>202.98</ele>
        <time>2015-01-31T14:42:35Z</time>
      </trkpt>
      <trkpt lat="44.449" lon="1.04793">
        <ele>202.01</ele>
        <time>2015-01-31T14:42:42Z</time>
      </trkpt>
      <trkpt lat="44.44905" lon="1.04795">
        <ele>202.01</ele>
        <time>2015-01-31T14:42:43Z</time>
      </trkpt>
      <trkpt lat="44.44969" lon="1.04812">
        <ele>201.05</ele>
        <time>2015-01-31T14:42:57Z</time>
      </trkpt>
      <trkpt lat="44.45047" lon="1.04836">
        <ele>200.57</ele>
        <time>2015-01-31T14:43:14Z</time>
      </trkpt>
      <trkpt lat="44.45081" lon="1.04859">
        <ele>200.57</ele>
        <time>2015-01-31T14:43:25Z</time>
      </trkpt>
      <trkpt lat="44.45083" lon="1.04862">
        <ele>200.57</ele>
        <time>2015-01-31T14:43:26Z</time>
      </trkpt>
      <trkpt lat="44.45085" lon="1.04864">
        <ele>200.57</ele>
        <time>2015-01-31T14:43:27Z</time>
      </trkpt>
      <trkpt lat="44.45087" lon="1.04866">
        <ele>200.57</ele>
        <time>2015-01-31T14:43:28Z</time>
      </trkpt>
      <trkpt lat="44.45089" lon="1.04867">
        <ele>200.57</ele>
        <time>2015-01-31T14:43:29Z</time>
      </trkpt>
      <trkpt lat="44.45091" lon="1.04867">
        <ele>200.57</ele>
        <time>2015-01-31T14:43:30Z</time>
      </trkpt>
      <trkpt lat="44.45092" lon="1.04868">
        <ele>200.57</ele>
        <time>2015-01-31T14:43:31Z</time>
      </trkpt>
      <trkpt lat="44.45113" lon="1.04865">
        <ele>200.57</ele>
        <time>2015-01-31T14:43:44Z</time>
      </trkpt>
      <trkpt lat="44.45119" lon="1.04862">
        <ele>201.05</ele>
        <time>2015-01-31T14:43:48Z</time>
      </trkpt>
      <trkpt lat="44.45122" lon="1.04858">
        <ele>201.05</ele>
        <time>2015-01-31T14:43:59Z</time>
      </trkpt>
      <trkpt lat="44.45123" lon="1.0486">
        <ele>201.05</ele>
        <time>2015-01-31T14:44:12Z</time>
      </trkpt>
      <trkpt lat="44.45126" lon="1.04861">
        <ele>201.53</ele>
        <time>2015-01-31T14:44:14Z</time>
      </trkpt>
      <trkpt lat="44.45128" lon="1.04862">
        <ele>201.05</ele>
        <time>2015-01-31T14:44:15Z</time>
      </trkpt>
      <trkpt lat="44.45129" lon="1.04862">
        <ele>201.53</ele>
        <time>2015-01-31T14:44:16Z</time>
      </trkpt>
      <trkpt lat="44.4513" lon="1.04863">
        <ele>201.53</ele>
        <time>2015-01-31T14:44:17Z</time>
      </trkpt>
      <trkpt lat="44.45132" lon="1.04863">
        <ele>201.53</ele>
        <time>2015-01-31T14:44:18Z</time>
      </trkpt>
      <trkpt lat="44.45148" lon="1.0487">
        <ele>202.49</ele>
        <time>2015-01-31T14:44:31Z</time>
      </trkpt>
      <trkpt lat="44.45148" lon="1.04869">
        <ele>202.98</ele>
        <time>2015-01-31T14:44:47Z</time>
      </trkpt>
      <trkpt lat="44.45148" lon="1.04868">
        <ele>202.98</ele>
        <time>2015-01-31T14:44:50Z</time>
      </trkpt>
      <trkpt lat="44.45149" lon="1.04866">
        <ele>202.98</ele>
        <time>2015-01-31T14:44:51Z</time>
      </trkpt>
      <trkpt lat="44.4515" lon="1.04855">
        <ele>202.49</ele>
        <time>2015-01-31T14:44:55Z</time>
      </trkpt>
      <trkpt lat="44.4515" lon="1.04841">
        <ele>202.49</ele>
        <time>2015-01-31T14:44:59Z</time>
      </trkpt>
      <trkpt lat="44.45149" lon="1.04822">
        <ele>202.01</ele>
        <time>2015-01-31T14:45:03Z</time>
      </trkpt>
      <trkpt lat="44.45154" lon="1.04798">
        <ele>200.57</ele>
        <time>2015-01-31T14:45:07Z</time>
      </trkpt>
      <trkpt lat="44.45157" lon="1.04791">
        <ele>201.05</ele>
        <time>2015-01-31T14:45:18Z</time>
      </trkpt>
      <trkpt lat="44.45159" lon="1.04791">
        <ele>201.53</ele>
        <time>2015-01-31T14:45:42Z</time>
      </trkpt>
      <trkpt lat="44.4516" lon="1.04791">
        <ele>201.53</ele>
        <time>2015-01-31T14:45:58Z</time>
      </trkpt>
      <trkpt lat="44.45162" lon="1.04791">
        <ele>202.49</ele>
        <time>2015-01-31T14:46:32Z</time>
      </trkpt>
      <trkpt lat="44.45162" lon="1.0479">
        <ele>202.01</ele>
        <time>2015-01-31T14:47:16Z</time>
      </trkpt>
      <trkpt lat="44.45161" lon="1.04791">
        <ele>201.53</ele>
        <time>2015-01-31T14:48:07Z</time>
      </trkpt>
      <trkpt lat="44.4516" lon="1.0479">
        <ele>201.05</ele>
        <time>2015-01-31T14:48:54Z</time>
      </trkpt>
      <trkpt lat="44.45159" lon="1.0479">
        <ele>200.57</ele>
        <time>2015-01-31T14:49:32Z</time>
      </trkpt>
      <trkpt lat="44.45161" lon="1.04792">
        <ele>200.09</ele>
        <time>2015-01-31T14:50:08Z</time>
      </trkpt>
      <trkpt lat="44.45161" lon="1.04792">
        <ele>199.61</ele>
        <time>2015-01-31T14:50:39Z</time>
      </trkpt>
      <trkpt lat="44.45162" lon="1.04791">
        <ele>199.61</ele>
        <time>2015-01-31T14:51:06Z</time>
      </trkpt>
      <trkpt lat="44.45162" lon="1.04792">
        <ele>199.13</ele>
        <time>2015-01-31T14:51:32Z</time>
      </trkpt>
      <trkpt lat="44.45162" lon="1.04791">
        <ele>199.61</ele>
        <time>2015-01-31T14:51:57Z</time>
      </trkpt>
      <trkpt lat="44.45164" lon="1.04791">
        <ele>201.05</ele>
        <time>2015-01-31T14:52:19Z</time>
      </trkpt>
      <trkpt lat="44.4516" lon="1.04793">
        <ele>201.05</ele>
        <time>2015-01-31T14:52:49Z</time>
      </trkpt>
      <trkpt lat="44.4516" lon="1.04791">
        <ele>201.53</ele>
        <time>2015-01-31T14:53:19Z</time>
      </trkpt>
      <trkpt lat="44.45164" lon="1.04785">
        <ele>203.46</ele>
        <time>2015-01-31T14:53:31Z</time>
      </trkpt>
      <trkpt lat="44.45175" lon="1.04779">
        <ele>203.94</ele>
        <time>2015-01-31T14:53:38Z</time>
      </trkpt>
      <trkpt lat="44.45193" lon="1.04769">
        <ele>206.34</ele>
        <time>2015-01-31T14:53:48Z</time>
      </trkpt>
      <trkpt lat="44.45197" lon="1.04766">
        <ele>206.82</ele>
        <time>2015-01-31T14:53:51Z</time>
      </trkpt>
      <trkpt lat="44.45205" lon="1.04764">
        <ele>207.3</ele>
        <time>2015-01-31T14:53:56Z</time>
      </trkpt>
      <trkpt lat="44.4521" lon="1.04759">
        <ele>207.78</ele>
        <time>2015-01-31T14:54:08Z</time>
      </trkpt>
      <trkpt lat="44.45211" lon="1.04752">
        <ele>208.26</ele>
        <time>2015-01-31T14:54:22Z</time>
      </trkpt>
      <trkpt lat="44.45209" lon="1.0475">
        <ele>210.19</ele>
        <time>2015-01-31T14:54:44Z</time>
      </trkpt>
      <trkpt lat="44.45212" lon="1.04747">
        <ele>210.67</ele>
        <time>2015-01-31T14:54:57Z</time>
      </trkpt>
      <trkpt lat="44.45215" lon="1.04744">
        <ele>210.19</ele>
        <time>2015-01-31T14:55:14Z</time>
      </trkpt>
      <trkpt lat="44.45216" lon="1.04744">
        <ele>210.19</ele>
        <time>2015-01-31T14:55:29Z</time>
      </trkpt>
      <trkpt lat="44.45216" lon="1.04746">
        <ele>210.67</ele>
        <time>2015-01-31T14:55:48Z</time>
      </trkpt>
      <trkpt lat="44.45217" lon="1.04745">
        <ele>210.67</ele>
        <time>2015-01-31T14:56:04Z</time>
      </trkpt>
      <trkpt lat="44.45218" lon="1.04744">
        <ele>209.22</ele>
        <time>2015-01-31T14:56:22Z</time>
      </trkpt>
      <trkpt lat="44.45219" lon="1.04747">
        <ele>209.7</ele>
        <time>2015-01-31T14:56:25Z</time>
      </trkpt>
      <trkpt lat="44.45221" lon="1.04753">
        <ele>209.7</ele>
        <time>2015-01-31T14:56:38Z</time>
      </trkpt>
      <trkpt lat="44.45221" lon="1.04754">
        <ele>209.22</ele>
        <time>2015-01-31T14:56:58Z</time>
      </trkpt>
      <trkpt lat="44.45226" lon="1.04755">
        <ele>209.22</ele>
        <time>2015-01-31T14:57:03Z</time>
      </trkpt>
      <trkpt lat="44.4524" lon="1.04748">
        <ele>208.26</ele>
        <time>2015-01-31T14:57:11Z</time>
      </trkpt>
      <trkpt lat="44.45247" lon="1.04749">
        <ele>207.78</ele>
        <time>2015-01-31T14:57:14Z</time>
      </trkpt>
      <trkpt lat="44.45258" lon="1.04767">
        <ele>206.82</ele>
        <time>2015-01-31T14:57:21Z</time>
      </trkpt>
      <trkpt lat="44.45262" lon="1.04771">
        <ele>206.82</ele>
        <time>2015-01-31T14:57:23Z</time>
      </trkpt>
      <trkpt lat="44.45297" lon="1.04761">
        <ele>204.9</ele>
        <time>2015-01-31T14:57:37Z</time>
      </trkpt>
      <trkpt lat="44.45323" lon="1.04743">
        <ele>205.86</ele>
        <time>2015-01-31T14:57:48Z</time>
      </trkpt>
      <trkpt lat="44.45332" lon="1.04733">
        <ele>205.38</ele>
        <time>2015-01-31T14:57:53Z</time>
      </trkpt>
      <trkpt lat="44.45333" lon="1.04731">
        <ele>205.38</ele>
        <time>2015-01-31T14:57:54Z</time>
      </trkpt>
      <trkpt lat="44.45354" lon="1.04697">
        <ele>203.94</ele>
        <time>2015-01-31T14:58:04Z</time>
      </trkpt>
      <trkpt lat="44.45388" lon="1.04638">
        <ele>203.46</ele>
        <time>2015-01-31T14:58:18Z</time>
      </trkpt>
      <trkpt lat="44.45415" lon="1.04574">
        <ele>203.94</ele>
        <time>2015-01-31T14:58:33Z</time>
      </trkpt>
      <trkpt lat="44.45438" lon="1.04543">
        <ele>203.94</ele>
        <time>2015-01-31T14:58:44Z</time>
      </trkpt>
      <trkpt lat="44.45451" lon="1.0454">
        <ele>205.38</ele>
        <time>2015-01-31T14:58:51Z</time>
      </trkpt>
      <trkpt lat="44.45451" lon="1.04541">
        <ele>205.38</ele>
        <time>2015-01-31T14:58:52Z</time>
      </trkpt>
      <trkpt lat="44.45451" lon="1.04543">
        <ele>205.86</ele>
        <time>2015-01-31T14:58:53Z</time>
      </trkpt>
      <trkpt lat="44.4545" lon="1.04546">
        <ele>205.86</ele>
        <time>2015-01-31T14:58:54Z</time>
      </trkpt>
      <trkpt lat="44.45449" lon="1.04549">
        <ele>205.86</ele>
        <time>2015-01-31T14:58:55Z</time>
      </trkpt>
      <trkpt lat="44.45438" lon="1.04593">
        <ele>206.34</ele>
        <time>2015-01-31T14:59:08Z</time>
      </trkpt>
      <trkpt lat="44.45438" lon="1.046">
        <ele>206.34</ele>
        <time>2015-01-31T14:59:10Z</time>
      </trkpt>
      <trkpt lat="44.45439" lon="1.04603">
        <ele>206.82</ele>
        <time>2015-01-31T14:59:11Z</time>
      </trkpt>
      <trkpt lat="44.45441" lon="1.04605">
        <ele>206.82</ele>
        <time>2015-01-31T14:59:12Z</time>
      </trkpt>
      <trkpt lat="44.45443" lon="1.04607">
        <ele>206.82</ele>
        <time>2015-01-31T14:59:13Z</time>
      </trkpt>
      <trkpt lat="44.45446" lon="1.04608">
        <ele>206.82</ele>
        <time>2015-01-31T14:59:14Z</time>
      </trkpt>
      <trkpt lat="44.45477" lon="1.04619">
        <ele>207.78</ele>
        <time>2015-01-31T14:59:27Z</time>
      </trkpt>
      <trkpt lat="44.45506" lon="1.04648">
        <ele>206.82</ele>
        <time>2015-01-31T14:59:40Z</time>
      </trkpt>
      <trkpt lat="44.45539" lon="1.04645">
        <ele>207.3</ele>
        <time>2015-01-31T14:59:50Z</time>
      </trkpt>
      <trkpt lat="44.45559" lon="1.0463">
        <ele>206.34</ele>
        <time>2015-01-31T14:59:56Z</time>
      </trkpt>
      <trkpt lat="44.45563" lon="1.04626">
        <ele>206.34</ele>
        <time>2015-01-31T14:59:57Z</time>
      </trkpt>
      <trkpt lat="44.45565" lon="1.04621">
        <ele>205.86</ele>
        <time>2015-01-31T14:59:58Z</time>
      </trkpt>
      <trkpt lat="44.45568" lon="1.04615">
        <ele>205.86</ele>
        <time>2015-01-31T14:59:59Z</time>
      </trkpt>
      <trkpt lat="44.4557" lon="1.0461">
        <ele>205.38</ele>
        <time>2015-01-31T15:00:00Z</time>
      </trkpt>
      <trkpt lat="44.45573" lon="1.04604">
        <ele>205.38</ele>
        <time>2015-01-31T15:00:01Z</time>
      </trkpt>
      <trkpt lat="44.45575" lon="1.04598">
        <ele>204.9</ele>
        <time>2015-01-31T15:00:02Z</time>
      </trkpt>
      <trkpt lat="44.45576" lon="1.04591">
        <ele>204.9</ele>
        <time>2015-01-31T15:00:03Z</time>
      </trkpt>
      <trkpt lat="44.45577" lon="1.04584">
        <ele>204.42</ele>
        <time>2015-01-31T15:00:04Z</time>
      </trkpt>
      <trkpt lat="44.45578" lon="1.04577">
        <ele>203.94</ele>
        <time>2015-01-31T15:00:05Z</time>
      </trkpt>
      <trkpt lat="44.45578" lon="1.04571">
        <ele>203.94</ele>
        <time>2015-01-31T15:00:06Z</time>
      </trkpt>
      <trkpt lat="44.45574" lon="1.04479">
        <ele>197.21</ele>
        <time>2015-01-31T15:00:20Z</time>
      </trkpt>
      <trkpt lat="44.45575" lon="1.04475">
        <ele>195.77</ele>
        <time>2015-01-31T15:00:28Z</time>
      </trkpt>
      <trkpt lat="44.45586" lon="1.04468">
        <ele>194.8</ele>
        <time>2015-01-31T15:00:35Z</time>
      </trkpt>
      <trkpt lat="44.45591" lon="1.04468">
        <ele>193.84</ele>
        <time>2015-01-31T15:00:36Z</time>
      </trkpt>
      <trkpt lat="44.4567" lon="1.04472">
        <ele>184.23</ele>
        <time>2015-01-31T15:00:45Z</time>
      </trkpt>
      <trkpt lat="44.45805" lon="1.04484">
        <ele>167.41</ele>
        <time>2015-01-31T15:00:57Z</time>
      </trkpt>
      <trkpt lat="44.45825" lon="1.04482">
        <ele>166.93</ele>
        <time>2015-01-31T15:00:59Z</time>
      </trkpt>
      <trkpt lat="44.45833" lon="1.04478">
        <ele>166.45</ele>
        <time>2015-01-31T15:01:00Z</time>
      </trkpt>
      <trkpt lat="44.4584" lon="1.04473">
        <ele>166.93</ele>
        <time>2015-01-31T15:01:01Z</time>
      </trkpt>
      <trkpt lat="44.45846" lon="1.04467">
        <ele>166.93</ele>
        <time>2015-01-31T15:01:02Z</time>
      </trkpt>
      <trkpt lat="44.45852" lon="1.04462">
        <ele>166.93</ele>
        <time>2015-01-31T15:01:03Z</time>
      </trkpt>
      <trkpt lat="44.45893" lon="1.04419">
        <ele>171.25</ele>
        <time>2015-01-31T15:01:15Z</time>
      </trkpt>
      <trkpt lat="44.45901" lon="1.04409">
        <ele>173.66</ele>
        <time>2015-01-31T15:01:24Z</time>
      </trkpt>
      <trkpt lat="44.45902" lon="1.04406">
        <ele>173.66</ele>
        <time>2015-01-31T15:01:25Z</time>
      </trkpt>
      <trkpt lat="44.45903" lon="1.04403">
        <ele>173.66</ele>
        <time>2015-01-31T15:01:26Z</time>
      </trkpt>
      <trkpt lat="44.45924" lon="1.04365">
        <ele>171.73</ele>
        <time>2015-01-31T15:01:34Z</time>
      </trkpt>
      <trkpt lat="44.45935" lon="1.04347">
        <ele>171.73</ele>
        <time>2015-01-31T15:01:38Z</time>
      </trkpt>
      <trkpt lat="44.4598" lon="1.0431">
        <ele>170.77</ele>
        <time>2015-01-31T15:01:51Z</time>
      </trkpt>
      <trkpt lat="44.45996" lon="1.04298">
        <ele>170.77</ele>
        <time>2015-01-31T15:01:55Z</time>
      </trkpt>
      <trkpt lat="44.46004" lon="1.04292">
        <ele>170.29</ele>
        <time>2015-01-31T15:01:57Z</time>
      </trkpt>
      <trkpt lat="44.46023" lon="1.04276">
        <ele>168.37</ele>
        <time>2015-01-31T15:02:03Z</time>
      </trkpt>
      <trkpt lat="44.46053" lon="1.0426">
        <ele>166.93</ele>
        <time>2015-01-31T15:02:14Z</time>
      </trkpt>
      <trkpt lat="44.46067" lon="1.04254">
        <ele>167.41</ele>
        <time>2015-01-31T15:02:19Z</time>
      </trkpt>
      <trkpt lat="44.4608" lon="1.04252">
        <ele>167.89</ele>
        <time>2015-01-31T15:02:25Z</time>
      </trkpt>
      <trkpt lat="44.461" lon="1.0426">
        <ele>170.29</ele>
        <time>2015-01-31T15:02:36Z</time>
      </trkpt>
      <trkpt lat="44.46106" lon="1.04261">
        <ele>170.77</ele>
        <time>2015-01-31T15:02:39Z</time>
      </trkpt>
      <trkpt lat="44.46111" lon="1.0426">
        <ele>170.29</ele>
        <time>2015-01-31T15:02:43Z</time>
      </trkpt>
      <trkpt lat="44.46121" lon="1.04258">
        <ele>170.29</ele>
        <time>2015-01-31T15:02:49Z</time>
      </trkpt>
      <trkpt lat="44.46143" lon="1.04245">
        <ele>170.77</ele>
        <time>2015-01-31T15:03:01Z</time>
      </trkpt>
      <trkpt lat="44.46146" lon="1.04244">
        <ele>171.25</ele>
        <time>2015-01-31T15:03:02Z</time>
      </trkpt>
      <trkpt lat="44.46178" lon="1.04232">
        <ele>173.66</ele>
        <time>2015-01-31T15:03:16Z</time>
      </trkpt>
      <trkpt lat="44.46194" lon="1.04229">
        <ele>177.98</ele>
        <time>2015-01-31T15:03:23Z</time>
      </trkpt>
      <trkpt lat="44.46217" lon="1.04228">
        <ele>186.63</ele>
        <time>2015-01-31T15:03:34Z</time>
      </trkpt>
      <trkpt lat="44.46237" lon="1.04234">
        <ele>193.84</ele>
        <time>2015-01-31T15:03:43Z</time>
      </trkpt>
      <trkpt lat="44.4625" lon="1.04239">
        <ele>195.77</ele>
        <time>2015-01-31T15:03:50Z</time>
      </trkpt>
      <trkpt lat="44.4627" lon="1.04228">
        <ele>197.21</ele>
        <time>2015-01-31T15:04:04Z</time>
      </trkpt>
      <trkpt lat="44.46277" lon="1.04222">
        <ele>199.13</ele>
        <time>2015-01-31T15:04:14Z</time>
      </trkpt>
      <trkpt lat="44.4629" lon="1.04218">
        <ele>201.53</ele>
        <time>2015-01-31T15:04:25Z</time>
      </trkpt>
      <trkpt lat="44.46308" lon="1.04221">
        <ele>206.34</ele>
        <time>2015-01-31T15:04:40Z</time>
      </trkpt>
      <trkpt lat="44.46324" lon="1.04226">
        <ele>206.82</ele>
        <time>2015-01-31T15:04:55Z</time>
      </trkpt>
      <trkpt lat="44.46328" lon="1.04227">
        <ele>206.82</ele>
        <time>2015-01-31T15:05:01Z</time>
      </trkpt>
      <trkpt lat="44.46335" lon="1.04229">
        <ele>207.3</ele>
        <time>2015-01-31T15:05:05Z</time>
      </trkpt>
      <trkpt lat="44.46347" lon="1.04232">
        <ele>207.3</ele>
        <time>2015-01-31T15:05:17Z</time>
      </trkpt>
      <trkpt lat="44.46347" lon="1.04233">
        <ele>207.3</ele>
        <time>2015-01-31T15:05:33Z</time>
      </trkpt>
      <trkpt lat="44.46349" lon="1.04234">
        <ele>207.78</ele>
        <time>2015-01-31T15:05:54Z</time>
      </trkpt>
      <trkpt lat="44.4635" lon="1.04234">
        <ele>209.7</ele>
        <time>2015-01-31T15:06:17Z</time>
      </trkpt>
      <trkpt lat="44.4635" lon="1.04233">
        <ele>210.19</ele>
        <time>2015-01-31T15:06:41Z</time>
      </trkpt>
      <trkpt lat="44.4635" lon="1.04232">
        <ele>210.19</ele>
        <time>2015-01-31T15:06:59Z</time>
      </trkpt>
      <trkpt lat="44.46349" lon="1.04233">
        <ele>210.67</ele>
        <time>2015-01-31T15:07:19Z</time>
      </trkpt>
      <trkpt lat="44.46351" lon="1.04232">
        <ele>211.15</ele>
        <time>2015-01-31T15:07:32Z</time>
      </trkpt>
      <trkpt lat="44.46351" lon="1.04232">
        <ele>210.67</ele>
        <time>2015-01-31T15:07:48Z</time>
      </trkpt>
      <trkpt lat="44.46351" lon="1.04231">
        <ele>210.67</ele>
        <time>2015-01-31T15:08:13Z</time>
      </trkpt>
      <trkpt lat="44.46364" lon="1.04231">
        <ele>209.7</ele>
        <time>2015-01-31T15:08:25Z</time>
      </trkpt>
      <trkpt lat="44.46402" lon="1.04231">
        <ele>206.82</ele>
        <time>2015-01-31T15:08:38Z</time>
      </trkpt>
      <trkpt lat="44.46447" lon="1.04232">
        <ele>209.7</ele>
        <time>2015-01-31T15:08:51Z</time>
      </trkpt>
      <trkpt lat="44.46467" lon="1.04231">
        <ele>211.15</ele>
        <time>2015-01-31T15:08:58Z</time>
      </trkpt>
      <trkpt lat="44.46479" lon="1.04188">
        <ele>213.07</ele>
        <time>2015-01-31T15:09:12Z</time>
      </trkpt>
      <trkpt lat="44.46491" lon="1.04129">
        <ele>214.99</ele>
        <time>2015-01-31T15:09:26Z</time>
      </trkpt>
      <trkpt lat="44.46506" lon="1.04077">
        <ele>219.32</ele>
        <time>2015-01-31T15:09:39Z</time>
      </trkpt>
      <trkpt lat="44.4652" lon="1.04042">
        <ele>220.76</ele>
        <time>2015-01-31T15:09:50Z</time>
      </trkpt>
      <trkpt lat="44.46524" lon="1.04028">
        <ele>219.32</ele>
        <time>2015-01-31T15:10:01Z</time>
      </trkpt>
      <trkpt lat="44.46525" lon="1.04026">
        <ele>218.84</ele>
        <time>2015-01-31T15:10:13Z</time>
      </trkpt>
      <trkpt lat="44.4652" lon="1.04023">
        <ele>218.36</ele>
        <time>2015-01-31T15:10:16Z</time>
      </trkpt>
      <trkpt lat="44.46484" lon="1.04011">
        <ele>219.32</ele>
        <time>2015-01-31T15:10:27Z</time>
      </trkpt>
      <trkpt lat="44.46426" lon="1.03993">
        <ele>219.8</ele>
        <time>2015-01-31T15:10:40Z</time>
      </trkpt>
      <trkpt lat="44.4637" lon="1.03983">
        <ele>224.12</ele>
        <time>2015-01-31T15:10:53Z</time>
      </trkpt>
      <trkpt lat="44.46317" lon="1.03977">
        <ele>223.64</ele>
        <time>2015-01-31T15:11:04Z</time>
      </trkpt>
      <trkpt lat="44.46313" lon="1.03976">
        <ele>223.16</ele>
        <time>2015-01-31T15:11:05Z</time>
      </trkpt>
      <trkpt lat="44.46308" lon="1.03975">
        <ele>223.16</ele>
        <time>2015-01-31T15:11:06Z</time>
      </trkpt>
      <trkpt lat="44.46236" lon="1.0395">
        <ele>220.76</ele>
        <time>2015-01-31T15:11:20Z</time>
      </trkpt>
      <trkpt lat="44.46178" lon="1.03927">
        <ele>218.36</ele>
        <time>2015-01-31T15:11:30Z</time>
      </trkpt>
      <trkpt lat="44.46162" lon="1.03925">
        <ele>217.88</ele>
        <time>2015-01-31T15:11:33Z</time>
      </trkpt>
      <trkpt lat="44.46136" lon="1.03917">
        <ele>217.88</ele>
        <time>2015-01-31T15:11:38Z</time>
      </trkpt>
      <trkpt lat="44.46073" lon="1.03896">
        <ele>217.88</ele>
        <time>2015-01-31T15:11:51Z</time>
      </trkpt>
      <trkpt lat="44.46047" lon="1.03888">
        <ele>218.36</ele>
        <time>2015-01-31T15:11:56Z</time>
      </trkpt>
      <trkpt lat="44.46022" lon="1.03872">
        <ele>217.88</ele>
        <time>2015-01-31T15:12:01Z</time>
      </trkpt>
      <trkpt lat="44.46002" lon="1.03846">
        <ele>215.95</ele>
        <time>2015-01-31T15:12:06Z</time>
      </trkpt>
      <trkpt lat="44.45977" lon="1.03773">
        <ele>213.07</ele>
        <time>2015-01-31T15:12:19Z</time>
      </trkpt>
      <trkpt lat="44.45982" lon="1.03718">
        <ele>214.03</ele>
        <time>2015-01-31T15:12:31Z</time>
      </trkpt>
      <trkpt lat="44.45988" lon="1.03651">
        <ele>215.95</ele>
        <time>2015-01-31T15:12:43Z</time>
      </trkpt>
      <trkpt lat="44.45988" lon="1.03587">
        <ele>216.43</ele>
        <time>2015-01-31T15:12:55Z</time>
      </trkpt>
      <trkpt lat="44.45989" lon="1.03551">
        <ele>214.51</ele>
        <time>2015-01-31T15:13:01Z</time>
      </trkpt>
      <trkpt lat="44.4599" lon="1.03532">
        <ele>213.07</ele>
        <time>2015-01-31T15:13:04Z</time>
      </trkpt>
      <trkpt lat="44.46011" lon="1.03454">
        <ele>212.11</ele>
        <time>2015-01-31T15:13:18Z</time>
      </trkpt>
      <trkpt lat="44.46015" lon="1.03425">
        <ele>211.63</ele>
        <time>2015-01-31T15:13:23Z</time>
      </trkpt>
      <trkpt lat="44.46015" lon="1.03419">
        <ele>211.63</ele>
        <time>2015-01-31T15:13:24Z</time>
      </trkpt>
      <trkpt lat="44.46016" lon="1.03413">
        <ele>211.15</ele>
        <time>2015-01-31T15:13:25Z</time>
      </trkpt>
      <trkpt lat="44.46016" lon="1.03407">
        <ele>210.67</ele>
        <time>2015-01-31T15:13:26Z</time>
      </trkpt>
      <trkpt lat="44.46018" lon="1.03402">
        <ele>210.19</ele>
        <time>2015-01-31T15:13:27Z</time>
      </trkpt>
      <trkpt lat="44.46038" lon="1.0334">
        <ele>207.78</ele>
        <time>2015-01-31T15:13:40Z</time>
      </trkpt>
      <trkpt lat="44.46041" lon="1.0334">
        <ele>207.3</ele>
        <time>2015-01-31T15:13:41Z</time>
      </trkpt>
      <trkpt lat="44.46045" lon="1.03342">
        <ele>207.3</ele>
        <time>2015-01-31T15:13:42Z</time>
      </trkpt>
      <trkpt lat="44.4605" lon="1.03345">
        <ele>206.82</ele>
        <time>2015-01-31T15:13:43Z</time>
      </trkpt>
      <trkpt lat="44.46054" lon="1.03349">
        <ele>206.82</ele>
        <time>2015-01-31T15:13:44Z</time>
      </trkpt>
      <trkpt lat="44.46063" lon="1.03356">
        <ele>206.82</ele>
        <time>2015-01-31T15:13:46Z</time>
      </trkpt>
      <trkpt lat="44.46074" lon="1.0336">
        <ele>205.86</ele>
        <time>2015-01-31T15:13:48Z</time>
      </trkpt>
      <trkpt lat="44.46146" lon="1.03371">
        <ele>202.98</ele>
        <time>2015-01-31T15:14:00Z</time>
      </trkpt>
      <trkpt lat="44.46216" lon="1.03376">
        <ele>205.86</ele>
        <time>2015-01-31T15:14:15Z</time>
      </trkpt>
      <trkpt lat="44.46229" lon="1.03374">
        <ele>206.34</ele>
        <time>2015-01-31T15:14:18Z</time>
      </trkpt>
      <trkpt lat="44.46238" lon="1.03371">
        <ele>206.82</ele>
        <time>2015-01-31T15:14:20Z</time>
      </trkpt>
      <trkpt lat="44.46242" lon="1.03369">
        <ele>206.82</ele>
        <time>2015-01-31T15:14:21Z</time>
      </trkpt>
      <trkpt lat="44.4625" lon="1.03363">
        <ele>207.3</ele>
        <time>2015-01-31T15:14:23Z</time>
      </trkpt>
      <trkpt lat="44.46308" lon="1.03324">
        <ele>209.7</ele>
        <time>2015-01-31T15:14:39Z</time>
      </trkpt>
      <trkpt lat="44.46364" lon="1.03313">
        <ele>212.11</ele>
        <time>2015-01-31T15:14:54Z</time>
      </trkpt>
      <trkpt lat="44.46415" lon="1.03294">
        <ele>215.47</ele>
        <time>2015-01-31T15:15:09Z</time>
      </trkpt>
      <trkpt lat="44.46451" lon="1.03257">
        <ele>216.43</ele>
        <time>2015-01-31T15:15:24Z</time>
      </trkpt>
      <trkpt lat="44.46452" lon="1.03254">
        <ele>215.95</ele>
        <time>2015-01-31T15:15:36Z</time>
      </trkpt>
      <trkpt lat="44.46452" lon="1.03254">
        <ele>215.47</ele>
        <time>2015-01-31T15:16:00Z</time>
      </trkpt>
      <trkpt lat="44.46453" lon="1.03255">
        <ele>215.47</ele>
        <time>2015-01-31T15:16:31Z</time>
      </trkpt>
      <trkpt lat="44.46453" lon="1.03255">
        <ele>214.99</ele>
        <time>2015-01-31T15:16:38Z</time>
      </trkpt>
      <trkpt lat="44.46452" lon="1.03252">
        <ele>214.99</ele>
        <time>2015-01-31T15:16:39Z</time>
      </trkpt>
      <trkpt lat="44.46452" lon="1.0325">
        <ele>215.47</ele>
        <time>2015-01-31T15:16:40Z</time>
      </trkpt>
      <trkpt lat="44.46452" lon="1.03247">
        <ele>215.47</ele>
        <time>2015-01-31T15:16:41Z</time>
      </trkpt>
      <trkpt lat="44.46451" lon="1.03244">
        <ele>215.47</ele>
        <time>2015-01-31T15:16:42Z</time>
      </trkpt>
      <trkpt lat="44.46449" lon="1.0324">
        <ele>215.47</ele>
        <time>2015-01-31T15:16:43Z</time>
      </trkpt>
      <trkpt lat="44.46448" lon="1.03235">
        <ele>215.95</ele>
        <time>2015-01-31T15:16:44Z</time>
      </trkpt>
      <trkpt lat="44.46447" lon="1.03232">
        <ele>215.95</ele>
        <time>2015-01-31T15:16:45Z</time>
      </trkpt>
      <trkpt lat="44.46446" lon="1.03228">
        <ele>215.95</ele>
        <time>2015-01-31T15:16:46Z</time>
      </trkpt>
      <trkpt lat="44.46447" lon="1.03226">
        <ele>215.95</ele>
        <time>2015-01-31T15:16:47Z</time>
      </trkpt>
      <trkpt lat="44.46449" lon="1.03224">
        <ele>215.95</ele>
        <time>2015-01-31T15:16:48Z</time>
      </trkpt>
      <trkpt lat="44.46456" lon="1.03212">
        <ele>214.51</ele>
        <time>2015-01-31T15:16:53Z</time>
      </trkpt>
      <trkpt lat="44.46485" lon="1.03192">
        <ele>215.47</ele>
        <time>2015-01-31T15:17:03Z</time>
      </trkpt>
      <trkpt lat="44.46488" lon="1.03187">
        <ele>215.95</ele>
        <time>2015-01-31T15:17:04Z</time>
      </trkpt>
      <trkpt lat="44.46491" lon="1.03182">
        <ele>215.95</ele>
        <time>2015-01-31T15:17:05Z</time>
      </trkpt>
      <trkpt lat="44.46493" lon="1.03175">
        <ele>215.95</ele>
        <time>2015-01-31T15:17:06Z</time>
      </trkpt>
      <trkpt lat="44.46494" lon="1.03168">
        <ele>215.95</ele>
        <time>2015-01-31T15:17:07Z</time>
      </trkpt>
      <trkpt lat="44.46495" lon="1.03161">
        <ele>215.95</ele>
        <time>2015-01-31T15:17:08Z</time>
      </trkpt>
      <trkpt lat="44.46496" lon="1.03153">
        <ele>215.95</ele>
        <time>2015-01-31T15:17:09Z</time>
      </trkpt>
      <trkpt lat="44.46495" lon="1.03145">
        <ele>215.47</ele>
        <time>2015-01-31T15:17:10Z</time>
      </trkpt>
      <trkpt lat="44.46495" lon="1.03138">
        <ele>215.47</ele>
        <time>2015-01-31T15:17:11Z</time>
      </trkpt>
      <trkpt lat="44.46495" lon="1.03131">
        <ele>215.47</ele>
        <time>2015-01-31T15:17:12Z</time>
      </trkpt>
      <trkpt lat="44.46495" lon="1.03124">
        <ele>215.47</ele>
        <time>2015-01-31T15:17:13Z</time>
      </trkpt>
      <trkpt lat="44.46496" lon="1.03117">
        <ele>214.99</ele>
        <time>2015-01-31T15:17:14Z</time>
      </trkpt>
      <trkpt lat="44.46509" lon="1.03026">
        <ele>213.07</ele>
        <time>2015-01-31T15:17:26Z</time>
      </trkpt>
      <trkpt lat="44.4651" lon="1.03019">
        <ele>213.07</ele>
        <time>2015-01-31T15:17:27Z</time>
      </trkpt>
      <trkpt lat="44.46532" lon="1.02946">
        <ele>211.15</ele>
        <time>2015-01-31T15:17:38Z</time>
      </trkpt>
      <trkpt lat="44.46548" lon="1.02915">
        <ele>209.22</ele>
        <time>2015-01-31T15:17:42Z</time>
      </trkpt>
      <trkpt lat="44.46605" lon="1.0281">
        <ele>202.98</ele>
        <time>2015-01-31T15:17:55Z</time>
      </trkpt>
      <trkpt lat="44.46616" lon="1.02795">
        <ele>202.01</ele>
        <time>2015-01-31T15:17:57Z</time>
      </trkpt>
      <trkpt lat="44.46681" lon="1.02682">
        <ele>196.73</ele>
        <time>2015-01-31T15:18:11Z</time>
      </trkpt>
      <trkpt lat="44.46705" lon="1.02634">
        <ele>194.8</ele>
        <time>2015-01-31T15:18:20Z</time>
      </trkpt>
      <trkpt lat="44.46705" lon="1.02633">
        <ele>194.8</ele>
        <time>2015-01-31T15:18:22Z</time>
      </trkpt>
      <trkpt lat="44.46704" lon="1.02635">
        <ele>194.32</ele>
        <time>2015-01-31T15:18:24Z</time>
      </trkpt>
      <trkpt lat="44.46698" lon="1.02641">
        <ele>194.32</ele>
        <time>2015-01-31T15:18:32Z</time>
      </trkpt>
      <trkpt lat="44.46701" lon="1.02626">
        <ele>193.84</ele>
        <time>2015-01-31T15:18:38Z</time>
      </trkpt>
      <trkpt lat="44.46717" lon="1.02595">
        <ele>192.4</ele>
        <time>2015-01-31T15:18:49Z</time>
      </trkpt>
      <trkpt lat="44.46719" lon="1.02594">
        <ele>192.4</ele>
        <time>2015-01-31T15:19:06Z</time>
      </trkpt>
      <trkpt lat="44.46719" lon="1.02594">
        <ele>192.4</ele>
        <time>2015-01-31T15:19:15Z</time>
      </trkpt>
      <trkpt lat="44.46726" lon="1.02569">
        <ele>191.92</ele>
        <time>2015-01-31T15:19:23Z</time>
      </trkpt>
      <trkpt lat="44.46709" lon="1.02555">
        <ele>190.96</ele>
        <time>2015-01-31T15:19:29Z</time>
      </trkpt>
      <trkpt lat="44.4667" lon="1.02541">
        <ele>184.23</ele>
        <time>2015-01-31T15:19:40Z</time>
      </trkpt>
      <trkpt lat="44.46634" lon="1.02521">
        <ele>174.62</ele>
        <time>2015-01-31T15:19:51Z</time>
      </trkpt>
      <trkpt lat="44.46624" lon="1.02506">
        <ele>171.25</ele>
        <time>2015-01-31T15:19:56Z</time>
      </trkpt>
      <trkpt lat="44.46626" lon="1.02498">
        <ele>170.77</ele>
        <time>2015-01-31T15:20:00Z</time>
      </trkpt>
      <trkpt lat="44.4664" lon="1.02467">
        <ele>173.17</ele>
        <time>2015-01-31T15:20:09Z</time>
      </trkpt>
      <trkpt lat="44.46649" lon="1.02435">
        <ele>174.14</ele>
        <time>2015-01-31T15:20:14Z</time>
      </trkpt>
      <trkpt lat="44.46655" lon="1.02395">
        <ele>172.69</ele>
        <time>2015-01-31T15:20:18Z</time>
      </trkpt>
      <trkpt lat="44.46667" lon="1.02365">
        <ele>171.73</ele>
        <time>2015-01-31T15:20:24Z</time>
      </trkpt>
      <trkpt lat="44.46682" lon="1.02338">
        <ele>172.69</ele>
        <time>2015-01-31T15:20:29Z</time>
      </trkpt>
      <trkpt lat="44.46694" lon="1.02301">
        <ele>171.73</ele>
        <time>2015-01-31T15:20:34Z</time>
      </trkpt>
      <trkpt lat="44.4671" lon="1.02275">
        <ele>172.21</ele>
        <time>2015-01-31T15:20:38Z</time>
      </trkpt>
      <trkpt lat="44.46721" lon="1.02254">
        <ele>172.21</ele>
        <time>2015-01-31T15:20:41Z</time>
      </trkpt>
      <trkpt lat="44.46738" lon="1.02197">
        <ele>169.33</ele>
        <time>2015-01-31T15:20:47Z</time>
      </trkpt>
      <trkpt lat="44.46748" lon="1.02113">
        <ele>163.56</ele>
        <time>2015-01-31T15:20:56Z</time>
      </trkpt>
      <trkpt lat="44.46748" lon="1.02059">
        <ele>160.2</ele>
        <time>2015-01-31T15:21:02Z</time>
      </trkpt>
      <trkpt lat="44.46758" lon="1.01975">
        <ele>149.62</ele>
        <time>2015-01-31T15:21:13Z</time>
      </trkpt>
      <trkpt lat="44.46768" lon="1.0192">
        <ele>140.97</ele>
        <time>2015-01-31T15:21:22Z</time>
      </trkpt>
      <trkpt lat="44.4677" lon="1.01914">
        <ele>140.01</ele>
        <time>2015-01-31T15:21:23Z</time>
      </trkpt>
      <trkpt lat="44.46775" lon="1.01902">
        <ele>139.05</ele>
        <time>2015-01-31T15:21:25Z</time>
      </trkpt>
      <trkpt lat="44.46785" lon="1.0188">
        <ele>136.64</ele>
        <time>2015-01-31T15:21:29Z</time>
      </trkpt>
      <trkpt lat="44.46807" lon="1.01825">
        <ele>130.4</ele>
        <time>2015-01-31T15:21:38Z</time>
      </trkpt>
      <trkpt lat="44.46828" lon="1.01775">
        <ele>122.71</ele>
        <time>2015-01-31T15:21:49Z</time>
      </trkpt>
      <trkpt lat="44.46837" lon="1.01769">
        <ele>120.78</ele>
        <time>2015-01-31T15:21:53Z</time>
      </trkpt>
      <trkpt lat="44.46838" lon="1.01765">
        <ele>118.86</ele>
        <time>2015-01-31T15:22:06Z</time>
      </trkpt>
      <trkpt lat="44.46839" lon="1.01763">
        <ele>119.34</ele>
        <time>2015-01-31T15:22:20Z</time>
      </trkpt>
      <trkpt lat="44.46841" lon="1.01763">
        <ele>119.34</ele>
        <time>2015-01-31T15:22:50Z</time>
      </trkpt>
      <trkpt lat="44.4684" lon="1.01762">
        <ele>120.78</ele>
        <time>2015-01-31T15:23:15Z</time>
      </trkpt>
      <trkpt lat="44.46839" lon="1.01762">
        <ele>121.26</ele>
        <time>2015-01-31T15:23:30Z</time>
      </trkpt>
      <trkpt lat="44.46839" lon="1.01761">
        <ele>121.26</ele>
        <time>2015-01-31T15:23:47Z</time>
      </trkpt>
      <trkpt lat="44.46839" lon="1.01762">
        <ele>119.82</ele>
        <time>2015-01-31T15:24:07Z</time>
      </trkpt>
      <trkpt lat="44.4685" lon="1.01749">
        <ele>120.78</ele>
        <time>2015-01-31T15:24:19Z</time>
      </trkpt>
      <trkpt lat="44.46854" lon="1.01741">
        <ele>120.78</ele>
        <time>2015-01-31T15:24:21Z</time>
      </trkpt>
      <trkpt lat="44.46864" lon="1.0172">
        <ele>118.38</ele>
        <time>2015-01-31T15:24:25Z</time>
      </trkpt>
      <trkpt lat="44.4687" lon="1.01711">
        <ele>116.94</ele>
        <time>2015-01-31T15:24:27Z</time>
      </trkpt>
      <trkpt lat="44.46895" lon="1.01688">
        <ele>113.57</ele>
        <time>2015-01-31T15:24:33Z</time>
      </trkpt>
      <trkpt lat="44.46921" lon="1.01658">
        <ele>112.13</ele>
        <time>2015-01-31T15:24:39Z</time>
      </trkpt>
      <trkpt lat="44.46932" lon="1.01649">
        <ele>112.13</ele>
        <time>2015-01-31T15:24:41Z</time>
      </trkpt>
      <trkpt lat="44.46983" lon="1.01631">
        <ele>112.13</ele>
        <time>2015-01-31T15:24:51Z</time>
      </trkpt>
      <trkpt lat="44.47053" lon="1.01615">
        <ele>113.57</ele>
        <time>2015-01-31T15:25:05Z</time>
      </trkpt>
      <trkpt lat="44.47082" lon="1.01607">
        <ele>113.09</ele>
        <time>2015-01-31T15:25:11Z</time>
      </trkpt>
      <trkpt lat="44.47097" lon="1.01604">
        <ele>113.09</ele>
        <time>2015-01-31T15:25:15Z</time>
      </trkpt>
      <trkpt lat="44.47099" lon="1.01602">
        <ele>113.09</ele>
        <time>2015-01-31T15:25:16Z</time>
      </trkpt>
      <trkpt lat="44.471" lon="1.01599">
        <ele>113.09</ele>
        <time>2015-01-31T15:25:17Z</time>
      </trkpt>
      <trkpt lat="44.471" lon="1.01597">
        <ele>113.57</ele>
        <time>2015-01-31T15:25:18Z</time>
      </trkpt>
      <trkpt lat="44.471" lon="1.01594">
        <ele>114.05</ele>
        <time>2015-01-31T15:25:19Z</time>
      </trkpt>
      <trkpt lat="44.471" lon="1.01591">
        <ele>114.53</ele>
        <time>2015-01-31T15:25:20Z</time>
      </trkpt>
      <trkpt lat="44.471" lon="1.01587">
        <ele>115.01</ele>
        <time>2015-01-31T15:25:21Z</time>
      </trkpt>
      <trkpt lat="44.47099" lon="1.01537">
        <ele>114.53</ele>
        <time>2015-01-31T15:25:31Z</time>
      </trkpt>
      <trkpt lat="44.47093" lon="1.01478">
        <ele>116.94</ele>
        <time>2015-01-31T15:25:44Z</time>
      </trkpt>
      <trkpt lat="44.47089" lon="1.0141">
        <ele>116.94</ele>
        <time>2015-01-31T15:25:58Z</time>
      </trkpt>
      <trkpt lat="44.47086" lon="1.01359">
        <ele>116.94</ele>
        <time>2015-01-31T15:26:10Z</time>
      </trkpt>
      <trkpt lat="44.47092" lon="1.01295">
        <ele>120.3</ele>
        <time>2015-01-31T15:26:25Z</time>
      </trkpt>
      <trkpt lat="44.47091" lon="1.01255">
        <ele>122.22</ele>
        <time>2015-01-31T15:26:38Z</time>
      </trkpt>
      <trkpt lat="44.47091" lon="1.01251">
        <ele>122.71</ele>
        <time>2015-01-31T15:26:40Z</time>
      </trkpt>
      <trkpt lat="44.47093" lon="1.01223">
        <ele>123.19</ele>
        <time>2015-01-31T15:26:53Z</time>
      </trkpt>
      <trkpt lat="44.47093" lon="1.01207">
        <ele>122.22</ele>
        <time>2015-01-31T15:27:03Z</time>
      </trkpt>
      <trkpt lat="44.47093" lon="1.01207">
        <ele>122.22</ele>
        <time>2015-01-31T15:27:17Z</time>
      </trkpt>
      <trkpt lat="44.47092" lon="1.01186">
        <ele>120.78</ele>
        <time>2015-01-31T15:27:31Z</time>
      </trkpt>
      <trkpt lat="44.4709" lon="1.01174">
        <ele>120.3</ele>
        <time>2015-01-31T15:27:33Z</time>
      </trkpt>
      <trkpt lat="44.47089" lon="1.01167">
        <ele>120.3</ele>
        <time>2015-01-31T15:27:34Z</time>
      </trkpt>
      <trkpt lat="44.47089" lon="1.0116">
        <ele>120.3</ele>
        <time>2015-01-31T15:27:35Z</time>
      </trkpt>
      <trkpt lat="44.47088" lon="1.01154">
        <ele>120.3</ele>
        <time>2015-01-31T15:27:36Z</time>
      </trkpt>
      <trkpt lat="44.47088" lon="1.01148">
        <ele>120.3</ele>
        <time>2015-01-31T15:27:37Z</time>
      </trkpt>
      <trkpt lat="44.47089" lon="1.01142">
        <ele>120.78</ele>
        <time>2015-01-31T15:27:38Z</time>
      </trkpt>
      <trkpt lat="44.47107" lon="1.01088">
        <ele>124.15</ele>
        <time>2015-01-31T15:27:50Z</time>
      </trkpt>
      <trkpt lat="44.4712" lon="1.01049">
        <ele>122.71</ele>
        <time>2015-01-31T15:28:01Z</time>
      </trkpt>
      <trkpt lat="44.47131" lon="1.01018">
        <ele>124.63</ele>
        <time>2015-01-31T15:28:09Z</time>
      </trkpt>
      <trkpt lat="44.47132" lon="1.01013">
        <ele>124.63</ele>
        <time>2015-01-31T15:28:10Z</time>
      </trkpt>
      <trkpt lat="44.47133" lon="1.01009">
        <ele>125.11</ele>
        <time>2015-01-31T15:28:11Z</time>
      </trkpt>
      <trkpt lat="44.47134" lon="1.01006">
        <ele>125.11</ele>
        <time>2015-01-31T15:28:12Z</time>
      </trkpt>
      <trkpt lat="44.47136" lon="1.01002">
        <ele>125.11</ele>
        <time>2015-01-31T15:28:13Z</time>
      </trkpt>
      <trkpt lat="44.47137" lon="1.00998">
        <ele>125.11</ele>
        <time>2015-01-31T15:28:14Z</time>
      </trkpt>
      <trkpt lat="44.47139" lon="1.00994">
        <ele>125.11</ele>
        <time>2015-01-31T15:28:15Z</time>
      </trkpt>
      <trkpt lat="44.47146" lon="1.00957">
        <ele>126.55</ele>
        <time>2015-01-31T15:28:24Z</time>
      </trkpt>
      <trkpt lat="44.47147" lon="1.00953">
        <ele>126.07</ele>
        <time>2015-01-31T15:28:25Z</time>
      </trkpt>
      <trkpt lat="44.47149" lon="1.00951">
        <ele>126.07</ele>
        <time>2015-01-31T15:28:26Z</time>
      </trkpt>
      <trkpt lat="44.4715" lon="1.00948">
        <ele>126.07</ele>
        <time>2015-01-31T15:28:27Z</time>
      </trkpt>
      <trkpt lat="44.47151" lon="1.00945">
        <ele>126.07</ele>
        <time>2015-01-31T15:28:28Z</time>
      </trkpt>
      <trkpt lat="44.47153" lon="1.00942">
        <ele>126.07</ele>
        <time>2015-01-31T15:28:29Z</time>
      </trkpt>
      <trkpt lat="44.47154" lon="1.0094">
        <ele>125.59</ele>
        <time>2015-01-31T15:28:30Z</time>
      </trkpt>
      <trkpt lat="44.47156" lon="1.00937">
        <ele>125.59</ele>
        <time>2015-01-31T15:28:31Z</time>
      </trkpt>
      <trkpt lat="44.47157" lon="1.00934">
        <ele>125.11</ele>
        <time>2015-01-31T15:28:32Z</time>
      </trkpt>
      <trkpt lat="44.47162" lon="1.00926">
        <ele>125.59</ele>
        <time>2015-01-31T15:28:41Z</time>
      </trkpt>
      <trkpt lat="44.47162" lon="1.00925">
        <ele>127.03</ele>
        <time>2015-01-31T15:28:57Z</time>
      </trkpt>
      <trkpt lat="44.47163" lon="1.00925">
        <ele>127.51</ele>
        <time>2015-01-31T15:29:00Z</time>
      </trkpt>
      <trkpt lat="44.47163" lon="1.00923">
        <ele>127.03</ele>
        <time>2015-01-31T15:29:01Z</time>
      </trkpt>
      <trkpt lat="44.47163" lon="1.00921">
        <ele>127.03</ele>
        <time>2015-01-31T15:29:02Z</time>
      </trkpt>
      <trkpt lat="44.47166" lon="1.00912">
        <ele>126.55</ele>
        <time>2015-01-31T15:29:06Z</time>
      </trkpt>
      <trkpt lat="44.47167" lon="1.00909">
        <ele>126.55</ele>
        <time>2015-01-31T15:29:07Z</time>
      </trkpt>
      <trkpt lat="44.47168" lon="1.00905">
        <ele>126.55</ele>
        <time>2015-01-31T15:29:08Z</time>
      </trkpt>
      <trkpt lat="44.47183" lon="1.00852">
        <ele>125.59</ele>
        <time>2015-01-31T15:29:21Z</time>
      </trkpt>
      <trkpt lat="44.47196" lon="1.00795">
        <ele>124.63</ele>
        <time>2015-01-31T15:29:34Z</time>
      </trkpt>
      <trkpt lat="44.47201" lon="1.00783">
        <ele>123.67</ele>
        <time>2015-01-31T15:29:43Z</time>
      </trkpt>
      <trkpt lat="44.47204" lon="1.00781">
        <ele>123.67</ele>
        <time>2015-01-31T15:29:46Z</time>
      </trkpt>
      <trkpt lat="44.47206" lon="1.00781">
        <ele>124.15</ele>
        <time>2015-01-31T15:29:47Z</time>
      </trkpt>
      <trkpt lat="44.47208" lon="1.00781">
        <ele>124.15</ele>
        <time>2015-01-31T15:29:48Z</time>
      </trkpt>
      <trkpt lat="44.47211" lon="1.00781">
        <ele>124.15</ele>
        <time>2015-01-31T15:29:49Z</time>
      </trkpt>
      <trkpt lat="44.47214" lon="1.0078">
        <ele>124.15</ele>
        <time>2015-01-31T15:29:50Z</time>
      </trkpt>
      <trkpt lat="44.47216" lon="1.00781">
        <ele>124.63</ele>
        <time>2015-01-31T15:29:51Z</time>
      </trkpt>
      <trkpt lat="44.47219" lon="1.0078">
        <ele>124.63</ele>
        <time>2015-01-31T15:29:52Z</time>
      </trkpt>
      <trkpt lat="44.47223" lon="1.0078">
        <ele>124.63</ele>
        <time>2015-01-31T15:29:53Z</time>
      </trkpt>
      <trkpt lat="44.47226" lon="1.0078">
        <ele>125.11</ele>
        <time>2015-01-31T15:29:54Z</time>
      </trkpt>
      <trkpt lat="44.47229" lon="1.0078">
        <ele>125.11</ele>
        <time>2015-01-31T15:29:55Z</time>
      </trkpt>
      <trkpt lat="44.47283" lon="1.00774">
        <ele>126.07</ele>
        <time>2015-01-31T15:30:11Z</time>
      </trkpt>
      <trkpt lat="44.47336" lon="1.00752">
        <ele>126.55</ele>
        <time>2015-01-31T15:30:26Z</time>
      </trkpt>
      <trkpt lat="44.47339" lon="1.00749">
        <ele>126.07</ele>
        <time>2015-01-31T15:30:27Z</time>
      </trkpt>
      <trkpt lat="44.47365" lon="1.00718">
        <ele>125.59</ele>
        <time>2015-01-31T15:30:36Z</time>
      </trkpt>
      <trkpt lat="44.47368" lon="1.00713">
        <ele>125.59</ele>
        <time>2015-01-31T15:30:37Z</time>
      </trkpt>
      <trkpt lat="44.47389" lon="1.00675">
        <ele>124.63</ele>
        <time>2015-01-31T15:30:45Z</time>
      </trkpt>
      <trkpt lat="44.47391" lon="1.0067">
        <ele>124.15</ele>
        <time>2015-01-31T15:30:46Z</time>
      </trkpt>
      <trkpt lat="44.47401" lon="1.00649">
        <ele>123.67</ele>
        <time>2015-01-31T15:30:50Z</time>
      </trkpt>
      <trkpt lat="44.47404" lon="1.00644">
        <ele>123.67</ele>
        <time>2015-01-31T15:30:51Z</time>
      </trkpt>
      <trkpt lat="44.47413" lon="1.00624">
        <ele>123.67</ele>
        <time>2015-01-31T15:30:55Z</time>
      </trkpt>
      <trkpt lat="44.47434" lon="1.00583">
        <ele>123.19</ele>
        <time>2015-01-31T15:31:03Z</time>
      </trkpt>
      <trkpt lat="44.47437" lon="1.0058">
        <ele>123.19</ele>
        <time>2015-01-31T15:31:04Z</time>
      </trkpt>
      <trkpt lat="44.47441" lon="1.00578">
        <ele>123.19</ele>
        <time>2015-01-31T15:31:05Z</time>
      </trkpt>
      <trkpt lat="44.47445" lon="1.00577">
        <ele>123.19</ele>
        <time>2015-01-31T15:31:06Z</time>
      </trkpt>
      <trkpt lat="44.4745" lon="1.00577">
        <ele>123.19</ele>
        <time>2015-01-31T15:31:07Z</time>
      </trkpt>
      <trkpt lat="44.47454" lon="1.00577">
        <ele>123.67</ele>
        <time>2015-01-31T15:31:08Z</time>
      </trkpt>
      <trkpt lat="44.475" lon="1.00577">
        <ele>125.11</ele>
        <time>2015-01-31T15:31:19Z</time>
      </trkpt>
      <trkpt lat="44.47505" lon="1.00578">
        <ele>125.11</ele>
        <time>2015-01-31T15:31:20Z</time>
      </trkpt>
      <trkpt lat="44.47509" lon="1.0058">
        <ele>125.11</ele>
        <time>2015-01-31T15:31:21Z</time>
      </trkpt>
      <trkpt lat="44.47514" lon="1.00583">
        <ele>124.63</ele>
        <time>2015-01-31T15:31:22Z</time>
      </trkpt>
      <trkpt lat="44.47518" lon="1.00586">
        <ele>124.63</ele>
        <time>2015-01-31T15:31:23Z</time>
      </trkpt>
      <trkpt lat="44.47523" lon="1.00591">
        <ele>124.15</ele>
        <time>2015-01-31T15:31:24Z</time>
      </trkpt>
      <trkpt lat="44.47593" lon="1.0067">
        <ele>116.94</ele>
        <time>2015-01-31T15:31:37Z</time>
      </trkpt>
      <trkpt lat="44.47661" lon="1.00755">
        <ele>107.32</ele>
        <time>2015-01-31T15:31:48Z</time>
      </trkpt>
      <trkpt lat="44.47665" lon="1.00764">
        <ele>106.36</ele>
        <time>2015-01-31T15:31:49Z</time>
      </trkpt>
      <trkpt lat="44.47675" lon="1.00791">
        <ele>103</ele>
        <time>2015-01-31T15:31:52Z</time>
      </trkpt>
      <trkpt lat="44.4768" lon="1.00799">
        <ele>102.04</ele>
        <time>2015-01-31T15:31:53Z</time>
      </trkpt>
      <trkpt lat="44.47685" lon="1.00805">
        <ele>101.08</ele>
        <time>2015-01-31T15:31:54Z</time>
      </trkpt>
      <trkpt lat="44.47691" lon="1.00809">
        <ele>100.6</ele>
        <time>2015-01-31T15:31:55Z</time>
      </trkpt>
      <trkpt lat="44.47698" lon="1.00811">
        <ele>99.63</ele>
        <time>2015-01-31T15:31:56Z</time>
      </trkpt>
      <trkpt lat="44.47706" lon="1.00811">
        <ele>98.67</ele>
        <time>2015-01-31T15:31:57Z</time>
      </trkpt>
      <trkpt lat="44.47713" lon="1.00808">
        <ele>98.19</ele>
        <time>2015-01-31T15:31:58Z</time>
      </trkpt>
      <trkpt lat="44.4772" lon="1.00802">
        <ele>97.23</ele>
        <time>2015-01-31T15:31:59Z</time>
      </trkpt>
      <trkpt lat="44.47726" lon="1.00796">
        <ele>96.27</ele>
        <time>2015-01-31T15:32:00Z</time>
      </trkpt>
      <trkpt lat="44.47732" lon="1.00789">
        <ele>95.31</ele>
        <time>2015-01-31T15:32:01Z</time>
      </trkpt>
      <trkpt lat="44.4775" lon="1.00769">
        <ele>93.39</ele>
        <time>2015-01-31T15:32:04Z</time>
      </trkpt>
      <trkpt lat="44.47758" lon="1.00765">
        <ele>92.42</ele>
        <time>2015-01-31T15:32:05Z</time>
      </trkpt>
      <trkpt lat="44.47796" lon="1.00751">
        <ele>89.06</ele>
        <time>2015-01-31T15:32:10Z</time>
      </trkpt>
      <trkpt lat="44.47804" lon="1.00746">
        <ele>88.1</ele>
        <time>2015-01-31T15:32:11Z</time>
      </trkpt>
      <trkpt lat="44.47827" lon="1.0073">
        <ele>85.69</ele>
        <time>2015-01-31T15:32:14Z</time>
      </trkpt>
      <trkpt lat="44.47836" lon="1.00727">
        <ele>84.73</ele>
        <time>2015-01-31T15:32:15Z</time>
      </trkpt>
      <trkpt lat="44.47845" lon="1.00727">
        <ele>83.77</ele>
        <time>2015-01-31T15:32:16Z</time>
      </trkpt>
      <trkpt lat="44.47854" lon="1.00726">
        <ele>82.81</ele>
        <time>2015-01-31T15:32:17Z</time>
      </trkpt>
      <trkpt lat="44.47863" lon="1.00725">
        <ele>81.85</ele>
        <time>2015-01-31T15:32:18Z</time>
      </trkpt>
      <trkpt lat="44.47872" lon="1.00723">
        <ele>80.89</ele>
        <time>2015-01-31T15:32:19Z</time>
      </trkpt>
      <trkpt lat="44.47882" lon="1.00719">
        <ele>79.93</ele>
        <time>2015-01-31T15:32:20Z</time>
      </trkpt>
      <trkpt lat="44.47891" lon="1.00715">
        <ele>78.97</ele>
        <time>2015-01-31T15:32:21Z</time>
      </trkpt>
      <trkpt lat="44.47944" lon="1.00682">
        <ele>73.68</ele>
        <time>2015-01-31T15:32:27Z</time>
      </trkpt>
      <trkpt lat="44.47952" lon="1.0068">
        <ele>73.2</ele>
        <time>2015-01-31T15:32:28Z</time>
      </trkpt>
      <trkpt lat="44.47959" lon="1.00681">
        <ele>72.72</ele>
        <time>2015-01-31T15:32:29Z</time>
      </trkpt>
      <trkpt lat="44.47964" lon="1.00682">
        <ele>72.24</ele>
        <time>2015-01-31T15:32:30Z</time>
      </trkpt>
      <trkpt lat="44.47969" lon="1.00684">
        <ele>71.27</ele>
        <time>2015-01-31T15:32:31Z</time>
      </trkpt>
      <trkpt lat="44.47973" lon="1.00686">
        <ele>70.79</ele>
        <time>2015-01-31T15:32:32Z</time>
      </trkpt>
      <trkpt lat="44.47978" lon="1.00689">
        <ele>69.83</ele>
        <time>2015-01-31T15:32:34Z</time>
      </trkpt>
      <trkpt lat="44.4798" lon="1.0069">
        <ele>69.35</ele>
        <time>2015-01-31T15:32:35Z</time>
      </trkpt>
      <trkpt lat="44.47983" lon="1.00691">
        <ele>68.87</ele>
        <time>2015-01-31T15:32:45Z</time>
      </trkpt>
      <trkpt lat="44.47981" lon="1.00687">
        <ele>67.91</ele>
        <time>2015-01-31T15:32:56Z</time>
      </trkpt>
      <trkpt lat="44.4798" lon="1.00686">
        <ele>68.39</ele>
        <time>2015-01-31T15:32:57Z</time>
      </trkpt>
      <trkpt lat="44.47978" lon="1.00685">
        <ele>68.39</ele>
        <time>2015-01-31T15:32:58Z</time>
      </trkpt>
      <trkpt lat="44.47972" lon="1.0068">
        <ele>69.35</ele>
        <time>2015-01-31T15:33:08Z</time>
      </trkpt>
      <trkpt lat="44.47969" lon="1.0068">
        <ele>70.31</ele>
        <time>2015-01-31T15:33:21Z</time>
      </trkpt>
      <trkpt lat="44.47971" lon="1.00681">
        <ele>70.31</ele>
        <time>2015-01-31T15:33:22Z</time>
      </trkpt>
      <trkpt lat="44.47977" lon="1.00686">
        <ele>69.83</ele>
        <time>2015-01-31T15:33:34Z</time>
      </trkpt>
      <trkpt lat="44.47981" lon="1.0069">
        <ele>68.87</ele>
        <time>2015-01-31T15:33:47Z</time>
      </trkpt>
      <trkpt lat="44.47982" lon="1.0069">
        <ele>68.39</ele>
        <time>2015-01-31T15:34:10Z</time>
      </trkpt>
      <trkpt lat="44.47984" lon="1.00694">
        <ele>68.39</ele>
        <time>2015-01-31T15:34:21Z</time>
      </trkpt>
      <trkpt lat="44.47985" lon="1.00695">
        <ele>68.39</ele>
        <time>2015-01-31T15:34:22Z</time>
      </trkpt>
      <trkpt lat="44.47986" lon="1.00697">
        <ele>68.39</ele>
        <time>2015-01-31T15:34:36Z</time>
      </trkpt>
      <trkpt lat="44.47985" lon="1.00698">
        <ele>68.87</ele>
        <time>2015-01-31T15:35:03Z</time>
      </trkpt>
      <trkpt lat="44.47987" lon="1.00695">
        <ele>69.83</ele>
        <time>2015-01-31T15:35:16Z</time>
      </trkpt>
      <trkpt lat="44.47986" lon="1.00694">
        <ele>69.83</ele>
        <time>2015-01-31T15:35:34Z</time>
      </trkpt>
      <trkpt lat="44.47988" lon="1.00695">
        <ele>68.87</ele>
        <time>2015-01-31T15:35:52Z</time>
      </trkpt>
      <trkpt lat="44.47991" lon="1.00693">
        <ele>69.83</ele>
        <time>2015-01-31T15:36:12Z</time>
      </trkpt>
      <trkpt lat="44.47993" lon="1.00693">
        <ele>69.83</ele>
        <time>2015-01-31T15:36:14Z</time>
      </trkpt>
      <trkpt lat="44.47995" lon="1.00692">
        <ele>70.79</ele>
        <time>2015-01-31T15:36:18Z</time>
      </trkpt>
      <trkpt lat="44.48007" lon="1.00678">
        <ele>70.79</ele>
        <time>2015-01-31T15:36:30Z</time>
      </trkpt>
      <trkpt lat="44.48026" lon="1.00652">
        <ele>68.39</ele>
        <time>2015-01-31T15:36:44Z</time>
      </trkpt>
      <trkpt lat="44.48042" lon="1.00627">
        <ele>67.43</ele>
        <time>2015-01-31T15:36:55Z</time>
      </trkpt>
      <trkpt lat="44.48069" lon="1.00589">
        <ele>66.47</ele>
        <time>2015-01-31T15:37:10Z</time>
      </trkpt>
      <trkpt lat="44.48088" lon="1.00566">
        <ele>64.55</ele>
        <time>2015-01-31T15:37:18Z</time>
      </trkpt>
      <trkpt lat="44.4811" lon="1.00527">
        <ele>62.14</ele>
        <time>2015-01-31T15:37:28Z</time>
      </trkpt>
      <trkpt lat="44.48127" lon="1.00483">
        <ele>65.03</ele>
        <time>2015-01-31T15:37:41Z</time>
      </trkpt>
      <trkpt lat="44.4815" lon="1.00443">
        <ele>67.91</ele>
        <time>2015-01-31T15:37:54Z</time>
      </trkpt>
      <trkpt lat="44.48162" lon="1.00408">
        <ele>70.31</ele>
        <time>2015-01-31T15:38:05Z</time>
      </trkpt>
      <trkpt lat="44.48182" lon="1.00374">
        <ele>71.27</ele>
        <time>2015-01-31T15:38:15Z</time>
      </trkpt>
      <trkpt lat="44.48206" lon="1.00321">
        <ele>74.16</ele>
        <time>2015-01-31T15:38:29Z</time>
      </trkpt>
      <trkpt lat="44.48209" lon="1.00314">
        <ele>73.68</ele>
        <time>2015-01-31T15:38:31Z</time>
      </trkpt>
      <trkpt lat="44.4822" lon="1.0029">
        <ele>73.68</ele>
        <time>2015-01-31T15:38:35Z</time>
      </trkpt>
      <trkpt lat="44.48241" lon="1.00247">
        <ele>72.24</ele>
        <time>2015-01-31T15:38:46Z</time>
      </trkpt>
      <trkpt lat="44.48249" lon="1.00233">
        <ele>72.72</ele>
        <time>2015-01-31T15:38:50Z</time>
      </trkpt>
      <trkpt lat="44.48269" lon="1.00185">
        <ele>75.12</ele>
        <time>2015-01-31T15:39:02Z</time>
      </trkpt>
      <trkpt lat="44.48286" lon="1.00149">
        <ele>80.89</ele>
        <time>2015-01-31T15:39:11Z</time>
      </trkpt>
      <trkpt lat="44.48308" lon="1.00103">
        <ele>87.14</ele>
        <time>2015-01-31T15:39:22Z</time>
      </trkpt>
      <trkpt lat="44.48335" lon="1.00045">
        <ele>85.21</ele>
        <time>2015-01-31T15:39:35Z</time>
      </trkpt>
      <trkpt lat="44.48352" lon="1.00005">
        <ele>83.29</ele>
        <time>2015-01-31T15:39:46Z</time>
      </trkpt>
      <trkpt lat="44.48378" lon="0.99971">
        <ele>81.85</ele>
        <time>2015-01-31T15:39:58Z</time>
      </trkpt>
      <trkpt lat="44.48399" lon="0.99933">
        <ele>82.33</ele>
        <time>2015-01-31T15:40:11Z</time>
      </trkpt>
      <trkpt lat="44.48417" lon="0.999">
        <ele>81.37</ele>
        <time>2015-01-31T15:40:22Z</time>
      </trkpt>
      <trkpt lat="44.48438" lon="0.99854">
        <ele>75.6</ele>
        <time>2015-01-31T15:40:36Z</time>
      </trkpt>
      <trkpt lat="44.4846" lon="0.99812">
        <ele>70.79</ele>
        <time>2015-01-31T15:40:48Z</time>
      </trkpt>
      <trkpt lat="44.48483" lon="0.99761">
        <ele>66.95</ele>
        <time>2015-01-31T15:41:02Z</time>
      </trkpt>
      <trkpt lat="44.48473" lon="0.99736">
        <ele>66.47</ele>
        <time>2015-01-31T15:41:11Z</time>
      </trkpt>
      <trkpt lat="44.48465" lon="0.99727">
        <ele>67.91</ele>
        <time>2015-01-31T15:41:18Z</time>
      </trkpt>
      <trkpt lat="44.48463" lon="0.99722">
        <ele>68.39</ele>
        <time>2015-01-31T15:41:24Z</time>
      </trkpt>
      <trkpt lat="44.48464" lon="0.9972">
        <ele>68.39</ele>
        <time>2015-01-31T15:41:26Z</time>
      </trkpt>
      <trkpt lat="44.48474" lon="0.997">
        <ele>69.83</ele>
        <time>2015-01-31T15:41:39Z</time>
      </trkpt>
      <trkpt lat="44.48476" lon="0.99698">
        <ele>70.31</ele>
        <time>2015-01-31T15:41:48Z</time>
      </trkpt>
      <trkpt lat="44.48475" lon="0.99697">
        <ele>71.27</ele>
        <time>2015-01-31T15:42:16Z</time>
      </trkpt>
      <trkpt lat="44.48474" lon="0.99698">
        <ele>72.24</ele>
        <time>2015-01-31T15:42:41Z</time>
      </trkpt>
      <trkpt lat="44.48475" lon="0.99697">
        <ele>70.79</ele>
        <time>2015-01-31T15:42:55Z</time>
      </trkpt>
      <trkpt lat="44.48476" lon="0.99695">
        <ele>69.83</ele>
        <time>2015-01-31T15:43:13Z</time>
      </trkpt>
      <trkpt lat="44.48476" lon="0.99695">
        <ele>70.31</ele>
        <time>2015-01-31T15:43:35Z</time>
      </trkpt>
      <trkpt lat="44.48475" lon="0.99693">
        <ele>70.79</ele>
        <time>2015-01-31T15:43:55Z</time>
      </trkpt>
      <trkpt lat="44.48477" lon="0.99692">
        <ele>70.79</ele>
        <time>2015-01-31T15:44:13Z</time>
      </trkpt>
      <trkpt lat="44.48476" lon="0.99692">
        <ele>69.83</ele>
        <time>2015-01-31T15:44:36Z</time>
      </trkpt>
      <trkpt lat="44.48477" lon="0.99692">
        <ele>69.83</ele>
        <time>2015-01-31T15:44:59Z</time>
      </trkpt>
      <trkpt lat="44.48476" lon="0.99691">
        <ele>69.83</ele>
        <time>2015-01-31T15:45:21Z</time>
      </trkpt>
      <trkpt lat="44.48477" lon="0.99692">
        <ele>69.83</ele>
        <time>2015-01-31T15:45:40Z</time>
      </trkpt>
      <trkpt lat="44.48477" lon="0.99693">
        <ele>68.87</ele>
        <time>2015-01-31T15:46:01Z</time>
      </trkpt>
      <trkpt lat="44.48481" lon="0.99683">
        <ele>68.87</ele>
        <time>2015-01-31T15:46:20Z</time>
      </trkpt>
      <trkpt lat="44.48509" lon="0.99635">
        <ele>68.87</ele>
        <time>2015-01-31T15:46:32Z</time>
      </trkpt>
      <trkpt lat="44.48519" lon="0.99623">
        <ele>68.87</ele>
        <time>2015-01-31T15:46:35Z</time>
      </trkpt>
      <trkpt lat="44.48545" lon="0.99583">
        <ele>68.87</ele>
        <time>2015-01-31T15:46:46Z</time>
      </trkpt>
      <trkpt lat="44.48561" lon="0.99559">
        <ele>68.87</ele>
        <time>2015-01-31T15:46:52Z</time>
      </trkpt>
      <trkpt lat="44.48564" lon="0.99554">
        <ele>68.39</ele>
        <time>2015-01-31T15:46:53Z</time>
      </trkpt>
      <trkpt lat="44.48578" lon="0.99535">
        <ele>67.91</ele>
        <time>2015-01-31T15:46:58Z</time>
      </trkpt>
      <trkpt lat="44.48592" lon="0.99517">
        <ele>67.91</ele>
        <time>2015-01-31T15:47:02Z</time>
      </trkpt>
      <trkpt lat="44.48606" lon="0.99494">
        <ele>68.87</ele>
        <time>2015-01-31T15:47:07Z</time>
      </trkpt>
      <trkpt lat="44.48608" lon="0.99489">
        <ele>69.35</ele>
        <time>2015-01-31T15:47:08Z</time>
      </trkpt>
      <trkpt lat="44.48609" lon="0.99483">
        <ele>69.35</ele>
        <time>2015-01-31T15:47:09Z</time>
      </trkpt>
      <trkpt lat="44.48609" lon="0.99478">
        <ele>69.83</ele>
        <time>2015-01-31T15:47:10Z</time>
      </trkpt>
      <trkpt lat="44.48609" lon="0.99473">
        <ele>70.31</ele>
        <time>2015-01-31T15:47:11Z</time>
      </trkpt>
      <trkpt lat="44.48599" lon="0.99445">
        <ele>70.79</ele>
        <time>2015-01-31T15:47:17Z</time>
      </trkpt>
      <trkpt lat="44.486" lon="0.99441">
        <ele>70.79</ele>
        <time>2015-01-31T15:47:18Z</time>
      </trkpt>
      <trkpt lat="44.48601" lon="0.99437">
        <ele>70.79</ele>
        <time>2015-01-31T15:47:19Z</time>
      </trkpt>
      <trkpt lat="44.48602" lon="0.99434">
        <ele>70.79</ele>
        <time>2015-01-31T15:47:20Z</time>
      </trkpt>
      <trkpt lat="44.48605" lon="0.99431">
        <ele>70.79</ele>
        <time>2015-01-31T15:47:21Z</time>
      </trkpt>
      <trkpt lat="44.48628" lon="0.99407">
        <ele>70.79</ele>
        <time>2015-01-31T15:47:28Z</time>
      </trkpt>
      <trkpt lat="44.48631" lon="0.99403">
        <ele>70.79</ele>
        <time>2015-01-31T15:47:29Z</time>
      </trkpt>
      <trkpt lat="44.48635" lon="0.99399">
        <ele>70.79</ele>
        <time>2015-01-31T15:47:30Z</time>
      </trkpt>
      <trkpt lat="44.48692" lon="0.99335">
        <ele>69.83</ele>
        <time>2015-01-31T15:47:47Z</time>
      </trkpt>
      <trkpt lat="44.48764" lon="0.99261">
        <ele>69.83</ele>
        <time>2015-01-31T15:48:06Z</time>
      </trkpt>
      <trkpt lat="44.48822" lon="0.99204">
        <ele>69.83</ele>
        <time>2015-01-31T15:48:21Z</time>
      </trkpt>
      <trkpt lat="44.4888" lon="0.99127">
        <ele>70.31</ele>
        <time>2015-01-31T15:48:38Z</time>
      </trkpt>
      <trkpt lat="44.48923" lon="0.99045">
        <ele>69.35</ele>
        <time>2015-01-31T15:48:53Z</time>
      </trkpt>
      <trkpt lat="44.48927" lon="0.9904">
        <ele>69.35</ele>
        <time>2015-01-31T15:48:54Z</time>
      </trkpt>
      <trkpt lat="44.48981" lon="0.98964">
        <ele>68.39</ele>
        <time>2015-01-31T15:49:11Z</time>
      </trkpt>
      <trkpt lat="44.49005" lon="0.98918">
        <ele>68.39</ele>
        <time>2015-01-31T15:49:24Z</time>
      </trkpt>
      <trkpt lat="44.49004" lon="0.98916">
        <ele>68.87</ele>
        <time>2015-01-31T15:49:25Z</time>
      </trkpt>
      <trkpt lat="44.49003" lon="0.98913">
        <ele>68.87</ele>
        <time>2015-01-31T15:49:26Z</time>
      </trkpt>
      <trkpt lat="44.49001" lon="0.9891">
        <ele>68.87</ele>
        <time>2015-01-31T15:49:27Z</time>
      </trkpt>
      <trkpt lat="44.48998" lon="0.98907">
        <ele>69.35</ele>
        <time>2015-01-31T15:49:28Z</time>
      </trkpt>
      <trkpt lat="44.48995" lon="0.98904">
        <ele>69.35</ele>
        <time>2015-01-31T15:49:29Z</time>
      </trkpt>
      <trkpt lat="44.48991" lon="0.98901">
        <ele>69.35</ele>
        <time>2015-01-31T15:49:30Z</time>
      </trkpt>
      <trkpt lat="44.48961" lon="0.98874">
        <ele>70.31</ele>
        <time>2015-01-31T15:49:39Z</time>
      </trkpt>
      <trkpt lat="44.48955" lon="0.98867">
        <ele>70.79</ele>
        <time>2015-01-31T15:49:41Z</time>
      </trkpt>
      <trkpt lat="44.48951" lon="0.98864">
        <ele>70.79</ele>
        <time>2015-01-31T15:49:42Z</time>
      </trkpt>
      <trkpt lat="44.48911" lon="0.98825">
        <ele>70.79</ele>
        <time>2015-01-31T15:49:54Z</time>
      </trkpt>
      <trkpt lat="44.48908" lon="0.98822">
        <ele>70.79</ele>
        <time>2015-01-31T15:49:55Z</time>
      </trkpt>
      <trkpt lat="44.48838" lon="0.9876">
        <ele>70.79</ele>
        <time>2015-01-31T15:50:14Z</time>
      </trkpt>
      <trkpt lat="44.48777" lon="0.98713">
        <ele>72.24</ele>
        <time>2015-01-31T15:50:30Z</time>
      </trkpt>
      <trkpt lat="44.48722" lon="0.98672">
        <ele>73.68</ele>
        <time>2015-01-31T15:50:45Z</time>
      </trkpt>
      <trkpt lat="44.48721" lon="0.98667">
        <ele>73.68</ele>
        <time>2015-01-31T15:50:46Z</time>
      </trkpt>
      <trkpt lat="44.4872" lon="0.98661">
        <ele>73.2</ele>
        <time>2015-01-31T15:50:47Z</time>
      </trkpt>
      <trkpt lat="44.48725" lon="0.98595">
        <ele>73.68</ele>
        <time>2015-01-31T15:50:58Z</time>
      </trkpt>
      <trkpt lat="44.48729" lon="0.98548">
        <ele>74.16</ele>
        <time>2015-01-31T15:51:06Z</time>
      </trkpt>
      <trkpt lat="44.48735" lon="0.98489">
        <ele>74.16</ele>
        <time>2015-01-31T15:51:16Z</time>
      </trkpt>
      <trkpt lat="44.48741" lon="0.98467">
        <ele>74.16</ele>
        <time>2015-01-31T15:51:20Z</time>
      </trkpt>
      <trkpt lat="44.48752" lon="0.9844">
        <ele>74.16</ele>
        <time>2015-01-31T15:51:25Z</time>
      </trkpt>
      <trkpt lat="44.48776" lon="0.98403">
        <ele>74.64</ele>
        <time>2015-01-31T15:51:33Z</time>
      </trkpt>
      <trkpt lat="44.48793" lon="0.9838">
        <ele>74.64</ele>
        <time>2015-01-31T15:51:38Z</time>
      </trkpt>
      <trkpt lat="44.48805" lon="0.98359">
        <ele>74.16</ele>
        <time>2015-01-31T15:51:42Z</time>
      </trkpt>
      <trkpt lat="44.48808" lon="0.98354">
        <ele>73.68</ele>
        <time>2015-01-31T15:51:43Z</time>
      </trkpt>
      <trkpt lat="44.48816" lon="0.98338">
        <ele>72.72</ele>
        <time>2015-01-31T15:51:46Z</time>
      </trkpt>
      <trkpt lat="44.48822" lon="0.98321">
        <ele>71.76</ele>
        <time>2015-01-31T15:51:49Z</time>
      </trkpt>
      <trkpt lat="44.48849" lon="0.98239">
        <ele>70.31</ele>
        <time>2015-01-31T15:52:04Z</time>
      </trkpt>
      <trkpt lat="44.48857" lon="0.98231">
        <ele>70.79</ele>
        <time>2015-01-31T15:52:07Z</time>
      </trkpt>
      <trkpt lat="44.48861" lon="0.9823">
        <ele>70.79</ele>
        <time>2015-01-31T15:52:08Z</time>
      </trkpt>
      <trkpt lat="44.48864" lon="0.98228">
        <ele>71.27</ele>
        <time>2015-01-31T15:52:09Z</time>
      </trkpt>
      <trkpt lat="44.48867" lon="0.98226">
        <ele>71.27</ele>
        <time>2015-01-31T15:52:10Z</time>
      </trkpt>
      <trkpt lat="44.4887" lon="0.98223">
        <ele>71.27</ele>
        <time>2015-01-31T15:52:11Z</time>
      </trkpt>
      <trkpt lat="44.48872" lon="0.98219">
        <ele>71.27</ele>
        <time>2015-01-31T15:52:12Z</time>
      </trkpt>
      <trkpt lat="44.48874" lon="0.98214">
        <ele>71.27</ele>
        <time>2015-01-31T15:52:13Z</time>
      </trkpt>
      <trkpt lat="44.48875" lon="0.98209">
        <ele>70.79</ele>
        <time>2015-01-31T15:52:14Z</time>
      </trkpt>
      <trkpt lat="44.48875" lon="0.98204">
        <ele>71.27</ele>
        <time>2015-01-31T15:52:15Z</time>
      </trkpt>
      <trkpt lat="44.48875" lon="0.98199">
        <ele>71.27</ele>
        <time>2015-01-31T15:52:16Z</time>
      </trkpt>
      <trkpt lat="44.48874" lon="0.98194">
        <ele>71.27</ele>
        <time>2015-01-31T15:52:17Z</time>
      </trkpt>
      <trkpt lat="44.48873" lon="0.98189">
        <ele>71.27</ele>
        <time>2015-01-31T15:52:18Z</time>
      </trkpt>
      <trkpt lat="44.48873" lon="0.98185">
        <ele>71.27</ele>
        <time>2015-01-31T15:52:19Z</time>
      </trkpt>
      <trkpt lat="44.48873" lon="0.9818">
        <ele>71.27</ele>
        <time>2015-01-31T15:52:20Z</time>
      </trkpt>
      <trkpt lat="44.48883" lon="0.98112">
        <ele>71.27</ele>
        <time>2015-01-31T15:52:37Z</time>
      </trkpt>
      <trkpt lat="44.48896" lon="0.98048">
        <ele>72.72</ele>
        <time>2015-01-31T15:52:52Z</time>
      </trkpt>
      <trkpt lat="44.48896" lon="0.98046">
        <ele>72.72</ele>
        <time>2015-01-31T15:52:53Z</time>
      </trkpt>
      <trkpt lat="44.48897" lon="0.98043">
        <ele>72.72</ele>
        <time>2015-01-31T15:52:54Z</time>
      </trkpt>
      <trkpt lat="44.48898" lon="0.98041">
        <ele>72.72</ele>
        <time>2015-01-31T15:52:55Z</time>
      </trkpt>
      <trkpt lat="44.48898" lon="0.98038">
        <ele>72.72</ele>
        <time>2015-01-31T15:52:56Z</time>
      </trkpt>
      <trkpt lat="44.48899" lon="0.98036">
        <ele>73.2</ele>
        <time>2015-01-31T15:52:57Z</time>
      </trkpt>
      <trkpt lat="44.489" lon="0.98034">
        <ele>73.68</ele>
        <time>2015-01-31T15:52:58Z</time>
      </trkpt>
      <trkpt lat="44.489" lon="0.98031">
        <ele>73.68</ele>
        <time>2015-01-31T15:52:59Z</time>
      </trkpt>
      <trkpt lat="44.48901" lon="0.98028">
        <ele>73.68</ele>
        <time>2015-01-31T15:53:00Z</time>
      </trkpt>
      <trkpt lat="44.48903" lon="0.98012">
        <ele>73.68</ele>
        <time>2015-01-31T15:53:05Z</time>
      </trkpt>
      <trkpt lat="44.48903" lon="0.9801">
        <ele>73.68</ele>
        <time>2015-01-31T15:53:06Z</time>
      </trkpt>
      <trkpt lat="44.4891" lon="0.97976">
        <ele>75.6</ele>
        <time>2015-01-31T15:53:18Z</time>
      </trkpt>
      <trkpt lat="44.48921" lon="0.97918">
        <ele>74.64</ele>
        <time>2015-01-31T15:53:31Z</time>
      </trkpt>
      <trkpt lat="44.48931" lon="0.97856">
        <ele>71.27</ele>
        <time>2015-01-31T15:53:43Z</time>
      </trkpt>
      <trkpt lat="44.48936" lon="0.9783">
        <ele>70.31</ele>
        <time>2015-01-31T15:53:47Z</time>
      </trkpt>
      <trkpt lat="44.48941" lon="0.97809">
        <ele>69.35</ele>
        <time>2015-01-31T15:53:50Z</time>
      </trkpt>
      <trkpt lat="44.48944" lon="0.97802">
        <ele>69.35</ele>
        <time>2015-01-31T15:53:51Z</time>
      </trkpt>
      <trkpt lat="44.48957" lon="0.97778">
        <ele>68.39</ele>
        <time>2015-01-31T15:53:55Z</time>
      </trkpt>
      <trkpt lat="44.4897" lon="0.97757">
        <ele>68.39</ele>
        <time>2015-01-31T15:53:59Z</time>
      </trkpt>
      <trkpt lat="44.48973" lon="0.97752">
        <ele>68.39</ele>
        <time>2015-01-31T15:54:00Z</time>
      </trkpt>
      <trkpt lat="44.48981" lon="0.97734">
        <ele>68.87</ele>
        <time>2015-01-31T15:54:03Z</time>
      </trkpt>
      <trkpt lat="44.48984" lon="0.97728">
        <ele>69.35</ele>
        <time>2015-01-31T15:54:04Z</time>
      </trkpt>
      <trkpt lat="44.48989" lon="0.97703">
        <ele>70.79</ele>
        <time>2015-01-31T15:54:08Z</time>
      </trkpt>
      <trkpt lat="44.48989" lon="0.97696">
        <ele>70.79</ele>
        <time>2015-01-31T15:54:09Z</time>
      </trkpt>
      <trkpt lat="44.48989" lon="0.9769">
        <ele>70.79</ele>
        <time>2015-01-31T15:54:10Z</time>
      </trkpt>
      <trkpt lat="44.48989" lon="0.97683">
        <ele>70.79</ele>
        <time>2015-01-31T15:54:11Z</time>
      </trkpt>
      <trkpt lat="44.48988" lon="0.97677">
        <ele>71.27</ele>
        <time>2015-01-31T15:54:12Z</time>
      </trkpt>
      <trkpt lat="44.48987" lon="0.97672">
        <ele>71.27</ele>
        <time>2015-01-31T15:54:13Z</time>
      </trkpt>
      <trkpt lat="44.48986" lon="0.97666">
        <ele>71.27</ele>
        <time>2015-01-31T15:54:14Z</time>
      </trkpt>
      <trkpt lat="44.48985" lon="0.97661">
        <ele>71.27</ele>
        <time>2015-01-31T15:54:15Z</time>
      </trkpt>
      <trkpt lat="44.48985" lon="0.97656">
        <ele>71.76</ele>
        <time>2015-01-31T15:54:16Z</time>
      </trkpt>
      <trkpt lat="44.48984" lon="0.97651">
        <ele>71.76</ele>
        <time>2015-01-31T15:54:17Z</time>
      </trkpt>
      <trkpt lat="44.48984" lon="0.97641">
        <ele>71.27</ele>
        <time>2015-01-31T15:54:19Z</time>
      </trkpt>
      <trkpt lat="44.48972" lon="0.97551">
        <ele>69.35</ele>
        <time>2015-01-31T15:54:33Z</time>
      </trkpt>
      <trkpt lat="44.48967" lon="0.97465">
        <ele>69.35</ele>
        <time>2015-01-31T15:54:46Z</time>
      </trkpt>
      <trkpt lat="44.48965" lon="0.97416">
        <ele>69.83</ele>
        <time>2015-01-31T15:54:55Z</time>
      </trkpt>
      <trkpt lat="44.48962" lon="0.97332">
        <ele>69.35</ele>
        <time>2015-01-31T15:55:09Z</time>
      </trkpt>
      <trkpt lat="44.48955" lon="0.97292">
        <ele>69.83</ele>
        <time>2015-01-31T15:55:16Z</time>
      </trkpt>
      <trkpt lat="44.48953" lon="0.97286">
        <ele>69.83</ele>
        <time>2015-01-31T15:55:17Z</time>
      </trkpt>
      <trkpt lat="44.48949" lon="0.97264">
        <ele>70.31</ele>
        <time>2015-01-31T15:55:21Z</time>
      </trkpt>
      <trkpt lat="44.48931" lon="0.97178">
        <ele>71.27</ele>
        <time>2015-01-31T15:55:36Z</time>
      </trkpt>
      <trkpt lat="44.48927" lon="0.97161">
        <ele>71.27</ele>
        <time>2015-01-31T15:55:39Z</time>
      </trkpt>
      <trkpt lat="44.48925" lon="0.97155">
        <ele>70.79</ele>
        <time>2015-01-31T15:55:40Z</time>
      </trkpt>
      <trkpt lat="44.48918" lon="0.97126">
        <ele>70.79</ele>
        <time>2015-01-31T15:55:45Z</time>
      </trkpt>
      <trkpt lat="44.4891" lon="0.97105">
        <ele>70.31</ele>
        <time>2015-01-31T15:55:49Z</time>
      </trkpt>
      <trkpt lat="44.48893" lon="0.97064">
        <ele>69.83</ele>
        <time>2015-01-31T15:55:57Z</time>
      </trkpt>
      <trkpt lat="44.48891" lon="0.97059">
        <ele>69.83</ele>
        <time>2015-01-31T15:55:58Z</time>
      </trkpt>
      <trkpt lat="44.48861" lon="0.97">
        <ele>70.31</ele>
        <time>2015-01-31T15:56:13Z</time>
      </trkpt>
      <trkpt lat="44.48862" lon="0.96999">
        <ele>70.79</ele>
        <time>2015-01-31T15:56:24Z</time>
      </trkpt>
      <trkpt lat="44.48862" lon="0.96998">
        <ele>72.24</ele>
        <time>2015-01-31T15:56:45Z</time>
      </trkpt>
      <trkpt lat="44.48862" lon="0.96991">
        <ele>72.24</ele>
        <time>2015-01-31T15:56:58Z</time>
      </trkpt>
      <trkpt lat="44.48867" lon="0.96977">
        <ele>72.24</ele>
        <time>2015-01-31T15:57:01Z</time>
      </trkpt>
      <trkpt lat="44.48881" lon="0.96958">
        <ele>71.76</ele>
        <time>2015-01-31T15:57:05Z</time>
      </trkpt>
      <trkpt lat="44.48941" lon="0.96891">
        <ele>71.27</ele>
        <time>2015-01-31T15:57:20Z</time>
      </trkpt>
      <trkpt lat="44.48983" lon="0.96851">
        <ele>71.27</ele>
        <time>2015-01-31T15:57:30Z</time>
      </trkpt>
      <trkpt lat="44.49029" lon="0.96796">
        <ele>70.79</ele>
        <time>2015-01-31T15:57:42Z</time>
      </trkpt>
      <trkpt lat="44.49056" lon="0.96765">
        <ele>70.31</ele>
        <time>2015-01-31T15:57:51Z</time>
      </trkpt>
      <trkpt lat="44.49049" lon="0.96752">
        <ele>70.31</ele>
        <time>2015-01-31T15:57:54Z</time>
      </trkpt>
      <trkpt lat="44.49045" lon="0.9675">
        <ele>69.83</ele>
        <time>2015-01-31T15:57:55Z</time>
      </trkpt>
      <trkpt lat="44.4904" lon="0.96747">
        <ele>69.83</ele>
        <time>2015-01-31T15:57:56Z</time>
      </trkpt>
      <trkpt lat="44.49036" lon="0.96744">
        <ele>69.83</ele>
        <time>2015-01-31T15:57:57Z</time>
      </trkpt>
      <trkpt lat="44.49034" lon="0.96739">
        <ele>69.83</ele>
        <time>2015-01-31T15:57:58Z</time>
      </trkpt>
      <trkpt lat="44.49032" lon="0.96733">
        <ele>69.35</ele>
        <time>2015-01-31T15:57:59Z</time>
      </trkpt>
      <trkpt lat="44.49022" lon="0.96696">
        <ele>68.39</ele>
        <time>2015-01-31T15:58:05Z</time>
      </trkpt>
      <trkpt lat="44.4902" lon="0.9669">
        <ele>68.39</ele>
        <time>2015-01-31T15:58:06Z</time>
      </trkpt>
      <trkpt lat="44.49009" lon="0.96655">
        <ele>67.43</ele>
        <time>2015-01-31T15:58:12Z</time>
      </trkpt>
      <trkpt lat="44.48988" lon="0.96608">
        <ele>65.99</ele>
        <time>2015-01-31T15:58:21Z</time>
      </trkpt>
      <trkpt lat="44.48969" lon="0.96572">
        <ele>65.03</ele>
        <time>2015-01-31T15:58:29Z</time>
      </trkpt>
      <trkpt lat="44.4893" lon="0.96513">
        <ele>63.1</ele>
        <time>2015-01-31T15:58:42Z</time>
      </trkpt>
      <trkpt lat="44.4892" lon="0.96498">
        <ele>63.58</ele>
        <time>2015-01-31T15:58:45Z</time>
      </trkpt>
      <trkpt lat="44.48902" lon="0.96465">
        <ele>63.1</ele>
        <time>2015-01-31T15:58:51Z</time>
      </trkpt>
      <trkpt lat="44.48896" lon="0.96442">
        <ele>61.66</ele>
        <time>2015-01-31T15:58:57Z</time>
      </trkpt>
      <trkpt lat="44.48898" lon="0.96439">
        <ele>62.14</ele>
        <time>2015-01-31T15:59:07Z</time>
      </trkpt>
      <trkpt lat="44.48898" lon="0.9644">
        <ele>63.58</ele>
        <time>2015-01-31T15:59:30Z</time>
      </trkpt>
      <trkpt lat="44.48897" lon="0.9644">
        <ele>64.07</ele>
        <time>2015-01-31T15:59:55Z</time>
      </trkpt>
      <trkpt lat="44.48897" lon="0.9644">
        <ele>63.58</ele>
        <time>2015-01-31T16:00:20Z</time>
      </trkpt>
      <trkpt lat="44.48896" lon="0.96439">
        <ele>63.1</ele>
        <time>2015-01-31T16:00:48Z</time>
      </trkpt>
      <trkpt lat="44.48897" lon="0.96439">
        <ele>63.58</ele>
        <time>2015-01-31T16:01:16Z</time>
      </trkpt>
      <trkpt lat="44.48897" lon="0.96439">
        <ele>63.1</ele>
        <time>2015-01-31T16:01:45Z</time>
      </trkpt>
      <trkpt lat="44.48896" lon="0.96439">
        <ele>62.62</ele>
        <time>2015-01-31T16:02:09Z</time>
      </trkpt>
      <trkpt lat="44.48896" lon="0.96439">
        <ele>62.62</ele>
        <time>2015-01-31T16:02:12Z</time>
      </trkpt>
      <trkpt lat="44.48894" lon="0.96438">
        <ele>62.62</ele>
        <time>2015-01-31T16:02:13Z</time>
      </trkpt>
      <trkpt lat="44.48893" lon="0.96438">
        <ele>62.62</ele>
        <time>2015-01-31T16:02:14Z</time>
      </trkpt>
      <trkpt lat="44.48891" lon="0.9644">
        <ele>62.62</ele>
        <time>2015-01-31T16:02:15Z</time>
      </trkpt>
      <trkpt lat="44.48891" lon="0.96443">
        <ele>62.62</ele>
        <time>2015-01-31T16:02:16Z</time>
      </trkpt>
      <trkpt lat="44.48891" lon="0.96445">
        <ele>63.1</ele>
        <time>2015-01-31T16:02:17Z</time>
      </trkpt>
      <trkpt lat="44.48891" lon="0.96448">
        <ele>63.1</ele>
        <time>2015-01-31T16:02:18Z</time>
      </trkpt>
      <trkpt lat="44.48893" lon="0.96451">
        <ele>63.1</ele>
        <time>2015-01-31T16:02:19Z</time>
      </trkpt>
      <trkpt lat="44.48894" lon="0.96454">
        <ele>63.1</ele>
        <time>2015-01-31T16:02:20Z</time>
      </trkpt>
      <trkpt lat="44.48895" lon="0.96457">
        <ele>63.1</ele>
        <time>2015-01-31T16:02:21Z</time>
      </trkpt>
      <trkpt lat="44.48896" lon="0.96459">
        <ele>63.58</ele>
        <time>2015-01-31T16:02:22Z</time>
      </trkpt>
      <trkpt lat="44.48897" lon="0.96461">
        <ele>63.58</ele>
        <time>2015-01-31T16:02:23Z</time>
      </trkpt>
      <trkpt lat="44.48897" lon="0.96464">
        <ele>63.58</ele>
        <time>2015-01-31T16:02:24Z</time>
      </trkpt>
      <trkpt lat="44.48898" lon="0.96466">
        <ele>63.58</ele>
        <time>2015-01-31T16:02:25Z</time>
      </trkpt>
      <trkpt lat="44.48899" lon="0.96467">
        <ele>63.58</ele>
        <time>2015-01-31T16:02:26Z</time>
      </trkpt>
      <trkpt lat="44.489" lon="0.9647">
        <ele>63.58</ele>
        <time>2015-01-31T16:02:39Z</time>
      </trkpt>
      <trkpt lat="44.48901" lon="0.96469">
        <ele>64.55</ele>
        <time>2015-01-31T16:03:01Z</time>
      </trkpt>
      <trkpt lat="44.48902" lon="0.96467">
        <ele>65.03</ele>
        <time>2015-01-31T16:03:03Z</time>
      </trkpt>
      <trkpt lat="44.48901" lon="0.96466">
        <ele>64.55</ele>
        <time>2015-01-31T16:03:04Z</time>
      </trkpt>
      <trkpt lat="44.48901" lon="0.96464">
        <ele>64.55</ele>
        <time>2015-01-31T16:03:05Z</time>
      </trkpt>
      <trkpt lat="44.489" lon="0.96463">
        <ele>64.55</ele>
        <time>2015-01-31T16:03:06Z</time>
      </trkpt>
      <trkpt lat="44.48899" lon="0.96462">
        <ele>64.07</ele>
        <time>2015-01-31T16:03:07Z</time>
      </trkpt>
      <trkpt lat="44.48895" lon="0.96449">
        <ele>62.62</ele>
        <time>2015-01-31T16:03:14Z</time>
      </trkpt>
      <trkpt lat="44.48895" lon="0.96447">
        <ele>62.62</ele>
        <time>2015-01-31T16:03:15Z</time>
      </trkpt>
      <trkpt lat="44.48895" lon="0.96445">
        <ele>62.14</ele>
        <time>2015-01-31T16:03:16Z</time>
      </trkpt>
      <trkpt lat="44.48895" lon="0.9644">
        <ele>62.62</ele>
        <time>2015-01-31T16:03:19Z</time>
      </trkpt>
      <trkpt lat="44.48896" lon="0.96438">
        <ele>62.14</ele>
        <time>2015-01-31T16:03:20Z</time>
      </trkpt>
      <trkpt lat="44.48897" lon="0.96436">
        <ele>62.14</ele>
        <time>2015-01-31T16:03:21Z</time>
      </trkpt>
      <trkpt lat="44.48899" lon="0.96433">
        <ele>62.14</ele>
        <time>2015-01-31T16:03:22Z</time>
      </trkpt>
      <trkpt lat="44.48901" lon="0.96431">
        <ele>62.14</ele>
        <time>2015-01-31T16:03:23Z</time>
      </trkpt>
      <trkpt lat="44.48902" lon="0.96429">
        <ele>62.14</ele>
        <time>2015-01-31T16:03:24Z</time>
      </trkpt>
      <trkpt lat="44.48925" lon="0.96399">
        <ele>62.14</ele>
        <time>2015-01-31T16:03:38Z</time>
      </trkpt>
      <trkpt lat="44.48934" lon="0.96387">
        <ele>62.14</ele>
        <time>2015-01-31T16:03:41Z</time>
      </trkpt>
      <trkpt lat="44.48944" lon="0.96373">
        <ele>61.66</ele>
        <time>2015-01-31T16:03:44Z</time>
      </trkpt>
      <trkpt lat="44.48948" lon="0.96369">
        <ele>61.66</ele>
        <time>2015-01-31T16:03:45Z</time>
      </trkpt>
      <trkpt lat="44.48952" lon="0.96366">
        <ele>61.66</ele>
        <time>2015-01-31T16:03:46Z</time>
      </trkpt>
      <trkpt lat="44.48963" lon="0.96356">
        <ele>61.18</ele>
        <time>2015-01-31T16:03:49Z</time>
      </trkpt>
      <trkpt lat="44.48969" lon="0.96347">
        <ele>61.18</ele>
        <time>2015-01-31T16:03:51Z</time>
      </trkpt>
      <trkpt lat="44.48972" lon="0.96308">
        <ele>59.26</ele>
        <time>2015-01-31T16:03:59Z</time>
      </trkpt>
      <trkpt lat="44.4895" lon="0.96292">
        <ele>57.34</ele>
        <time>2015-01-31T16:04:08Z</time>
      </trkpt>
      <trkpt lat="44.48938" lon="0.9629">
        <ele>56.86</ele>
        <time>2015-01-31T16:04:12Z</time>
      </trkpt>
      <trkpt lat="44.48931" lon="0.96274">
        <ele>57.34</ele>
        <time>2015-01-31T16:04:18Z</time>
      </trkpt>
      <trkpt lat="44.48929" lon="0.96267">
        <ele>56.86</ele>
        <time>2015-01-31T16:04:32Z</time>
      </trkpt>
      <trkpt lat="44.48921" lon="0.9626">
        <ele>56.86</ele>
        <time>2015-01-31T16:04:37Z</time>
      </trkpt>
      <trkpt lat="44.48894" lon="0.96229">
        <ele>55.41</ele>
        <time>2015-01-31T16:04:49Z</time>
      </trkpt>
      <trkpt lat="44.48862" lon="0.96218">
        <ele>57.34</ele>
        <time>2015-01-31T16:04:58Z</time>
      </trkpt>
      <trkpt lat="44.4885" lon="0.96215">
        <ele>59.26</ele>
        <time>2015-01-31T16:05:02Z</time>
      </trkpt>
      <trkpt lat="44.48842" lon="0.96202">
        <ele>59.26</ele>
        <time>2015-01-31T16:05:06Z</time>
      </trkpt>
      <trkpt lat="44.48815" lon="0.96166">
        <ele>58.78</ele>
        <time>2015-01-31T16:05:19Z</time>
      </trkpt>
      <trkpt lat="44.48795" lon="0.96141">
        <ele>57.34</ele>
        <time>2015-01-31T16:05:28Z</time>
      </trkpt>
      <trkpt lat="44.48784" lon="0.96131">
        <ele>57.34</ele>
        <time>2015-01-31T16:05:32Z</time>
      </trkpt>
      <trkpt lat="44.48774" lon="0.96117">
        <ele>55.41</ele>
        <time>2015-01-31T16:05:38Z</time>
      </trkpt>
      <trkpt lat="44.48765" lon="0.96112">
        <ele>54.93</ele>
        <time>2015-01-31T16:05:41Z</time>
      </trkpt>
      <trkpt lat="44.48752" lon="0.96115">
        <ele>54.93</ele>
        <time>2015-01-31T16:05:45Z</time>
      </trkpt>
      <trkpt lat="44.48742" lon="0.96107">
        <ele>55.89</ele>
        <time>2015-01-31T16:05:50Z</time>
      </trkpt>
      <trkpt lat="44.48728" lon="0.96082">
        <ele>53.97</ele>
        <time>2015-01-31T16:06:02Z</time>
      </trkpt>
      <trkpt lat="44.48726" lon="0.96057">
        <ele>53.49</ele>
        <time>2015-01-31T16:06:11Z</time>
      </trkpt>
      <trkpt lat="44.48705" lon="0.96022">
        <ele>52.05</ele>
        <time>2015-01-31T16:06:22Z</time>
      </trkpt>
      <trkpt lat="44.48681" lon="0.95993">
        <ele>50.13</ele>
        <time>2015-01-31T16:06:33Z</time>
      </trkpt>
      <trkpt lat="44.48656" lon="0.95965">
        <ele>49.65</ele>
        <time>2015-01-31T16:06:44Z</time>
      </trkpt>
      <trkpt lat="44.48631" lon="0.95939">
        <ele>49.16</ele>
        <time>2015-01-31T16:06:55Z</time>
      </trkpt>
      <trkpt lat="44.48603" lon="0.95902">
        <ele>51.09</ele>
        <time>2015-01-31T16:07:07Z</time>
      </trkpt>
      <trkpt lat="44.48576" lon="0.95865">
        <ele>50.13</ele>
        <time>2015-01-31T16:07:19Z</time>
      </trkpt>
      <trkpt lat="44.48546" lon="0.95835">
        <ele>49.16</ele>
        <time>2015-01-31T16:07:30Z</time>
      </trkpt>
      <trkpt lat="44.48524" lon="0.95797">
        <ele>50.61</ele>
        <time>2015-01-31T16:07:41Z</time>
      </trkpt>
      <trkpt lat="44.48508" lon="0.95781">
        <ele>52.05</ele>
        <time>2015-01-31T16:07:49Z</time>
      </trkpt>
      <trkpt lat="44.48489" lon="0.95747">
        <ele>51.57</ele>
        <time>2015-01-31T16:08:03Z</time>
      </trkpt>
      <trkpt lat="44.48471" lon="0.95723">
        <ele>50.61</ele>
        <time>2015-01-31T16:08:10Z</time>
      </trkpt>
      <trkpt lat="44.48446" lon="0.95665">
        <ele>49.65</ele>
        <time>2015-01-31T16:08:18Z</time>
      </trkpt>
      <trkpt lat="44.48436" lon="0.95643">
        <ele>49.65</ele>
        <time>2015-01-31T16:08:21Z</time>
      </trkpt>
      <trkpt lat="44.48414" lon="0.95592">
        <ele>49.65</ele>
        <time>2015-01-31T16:08:30Z</time>
      </trkpt>
      <trkpt lat="44.48407" lon="0.95558">
        <ele>49.65</ele>
        <time>2015-01-31T16:08:36Z</time>
      </trkpt>
      <trkpt lat="44.48391" lon="0.95515">
        <ele>49.65</ele>
        <time>2015-01-31T16:08:46Z</time>
      </trkpt>
      <trkpt lat="44.48389" lon="0.955">
        <ele>49.65</ele>
        <time>2015-01-31T16:08:50Z</time>
      </trkpt>
      <trkpt lat="44.48382" lon="0.95485">
        <ele>49.16</ele>
        <time>2015-01-31T16:08:54Z</time>
      </trkpt>
      <trkpt lat="44.48371" lon="0.95448">
        <ele>51.09</ele>
        <time>2015-01-31T16:09:05Z</time>
      </trkpt>
      <trkpt lat="44.4837" lon="0.95445">
        <ele>51.57</ele>
        <time>2015-01-31T16:09:06Z</time>
      </trkpt>
      <trkpt lat="44.48366" lon="0.95423">
        <ele>51.57</ele>
        <time>2015-01-31T16:09:13Z</time>
      </trkpt>
      <trkpt lat="44.48361" lon="0.95409">
        <ele>51.57</ele>
        <time>2015-01-31T16:09:17Z</time>
      </trkpt>
      <trkpt lat="44.48338" lon="0.95379">
        <ele>48.2</ele>
        <time>2015-01-31T16:09:29Z</time>
      </trkpt>
      <trkpt lat="44.48336" lon="0.95377">
        <ele>48.68</ele>
        <time>2015-01-31T16:09:42Z</time>
      </trkpt>
      <trkpt lat="44.4833" lon="0.9537">
        <ele>51.57</ele>
        <time>2015-01-31T16:09:56Z</time>
      </trkpt>
      <trkpt lat="44.48324" lon="0.95363">
        <ele>53.49</ele>
        <time>2015-01-31T16:10:11Z</time>
      </trkpt>
      <trkpt lat="44.48324" lon="0.9536">
        <ele>54.93</ele>
        <time>2015-01-31T16:10:27Z</time>
      </trkpt>
      <trkpt lat="44.48324" lon="0.95358">
        <ele>56.37</ele>
        <time>2015-01-31T16:10:53Z</time>
      </trkpt>
      <trkpt lat="44.48315" lon="0.95351">
        <ele>56.37</ele>
        <time>2015-01-31T16:11:07Z</time>
      </trkpt>
      <trkpt lat="44.48313" lon="0.95349">
        <ele>56.86</ele>
        <time>2015-01-31T16:11:19Z</time>
      </trkpt>
      <trkpt lat="44.48312" lon="0.95345">
        <ele>57.82</ele>
        <time>2015-01-31T16:11:41Z</time>
      </trkpt>
      <trkpt lat="44.48304" lon="0.95335">
        <ele>58.78</ele>
        <time>2015-01-31T16:11:54Z</time>
      </trkpt>
      <trkpt lat="44.48293" lon="0.95329">
        <ele>61.66</ele>
        <time>2015-01-31T16:12:05Z</time>
      </trkpt>
      <trkpt lat="44.48287" lon="0.95319">
        <ele>62.62</ele>
        <time>2015-01-31T16:12:19Z</time>
      </trkpt>
      <trkpt lat="44.48284" lon="0.95309">
        <ele>62.62</ele>
        <time>2015-01-31T16:12:24Z</time>
      </trkpt>
      <trkpt lat="44.48277" lon="0.95299">
        <ele>63.1</ele>
        <time>2015-01-31T16:12:29Z</time>
      </trkpt>
      <trkpt lat="44.48256" lon="0.95265">
        <ele>60.22</ele>
        <time>2015-01-31T16:12:41Z</time>
      </trkpt>
      <trkpt lat="44.4823" lon="0.95224">
        <ele>55.89</ele>
        <time>2015-01-31T16:12:52Z</time>
      </trkpt>
      <trkpt lat="44.48201" lon="0.95191">
        <ele>54.45</ele>
        <time>2015-01-31T16:13:04Z</time>
      </trkpt>
      <trkpt lat="44.48182" lon="0.9515">
        <ele>55.41</ele>
        <time>2015-01-31T16:13:15Z</time>
      </trkpt>
      <trkpt lat="44.48168" lon="0.9512">
        <ele>53.97</ele>
        <time>2015-01-31T16:13:25Z</time>
      </trkpt>
      <trkpt lat="44.48161" lon="0.95115">
        <ele>53.97</ele>
        <time>2015-01-31T16:13:38Z</time>
      </trkpt>
      <trkpt lat="44.48155" lon="0.95107">
        <ele>53.49</ele>
        <time>2015-01-31T16:13:45Z</time>
      </trkpt>
      <trkpt lat="44.4815" lon="0.951">
        <ele>54.45</ele>
        <time>2015-01-31T16:13:58Z</time>
      </trkpt>
      <trkpt lat="44.48141" lon="0.95082">
        <ele>55.89</ele>
        <time>2015-01-31T16:14:09Z</time>
      </trkpt>
      <trkpt lat="44.48138" lon="0.95075">
        <ele>57.34</ele>
        <time>2015-01-31T16:14:23Z</time>
      </trkpt>
      <trkpt lat="44.48126" lon="0.95054">
        <ele>57.34</ele>
        <time>2015-01-31T16:14:35Z</time>
      </trkpt>
      <trkpt lat="44.48106" lon="0.95006">
        <ele>58.3</ele>
        <time>2015-01-31T16:14:47Z</time>
      </trkpt>
      <trkpt lat="44.48092" lon="0.94963">
        <ele>57.82</ele>
        <time>2015-01-31T16:14:56Z</time>
      </trkpt>
      <trkpt lat="44.48075" lon="0.94925">
        <ele>58.3</ele>
        <time>2015-01-31T16:15:06Z</time>
      </trkpt>
      <trkpt lat="44.4807" lon="0.94914">
        <ele>58.3</ele>
        <time>2015-01-31T16:15:10Z</time>
      </trkpt>
      <trkpt lat="44.48065" lon="0.94906">
        <ele>58.78</ele>
        <time>2015-01-31T16:15:14Z</time>
      </trkpt>
      <trkpt lat="44.4805" lon="0.94861">
        <ele>58.3</ele>
        <time>2015-01-31T16:15:26Z</time>
      </trkpt>
      <trkpt lat="44.48031" lon="0.94811">
        <ele>55.89</ele>
        <time>2015-01-31T16:15:38Z</time>
      </trkpt>
      <trkpt lat="44.48021" lon="0.9477">
        <ele>56.86</ele>
        <time>2015-01-31T16:15:49Z</time>
      </trkpt>
      <trkpt lat="44.48019" lon="0.94767">
        <ele>56.86</ele>
        <time>2015-01-31T16:15:50Z</time>
      </trkpt>
      <trkpt lat="44.48001" lon="0.94738">
        <ele>58.3</ele>
        <time>2015-01-31T16:16:01Z</time>
      </trkpt>
      <trkpt lat="44.47979" lon="0.94688">
        <ele>60.22</ele>
        <time>2015-01-31T16:16:12Z</time>
      </trkpt>
      <trkpt lat="44.47963" lon="0.9464">
        <ele>60.7</ele>
        <time>2015-01-31T16:16:23Z</time>
      </trkpt>
      <trkpt lat="44.47958" lon="0.94617">
        <ele>61.66</ele>
        <time>2015-01-31T16:16:28Z</time>
      </trkpt>
      <trkpt lat="44.47939" lon="0.9456">
        <ele>63.1</ele>
        <time>2015-01-31T16:16:41Z</time>
      </trkpt>
      <trkpt lat="44.47924" lon="0.94511">
        <ele>62.14</ele>
        <time>2015-01-31T16:16:51Z</time>
      </trkpt>
      <trkpt lat="44.47901" lon="0.94436">
        <ele>60.22</ele>
        <time>2015-01-31T16:17:06Z</time>
      </trkpt>
      <trkpt lat="44.4788" lon="0.94375">
        <ele>59.74</ele>
        <time>2015-01-31T16:17:21Z</time>
      </trkpt>
      <trkpt lat="44.47856" lon="0.94313">
        <ele>59.74</ele>
        <time>2015-01-31T16:17:36Z</time>
      </trkpt>
      <trkpt lat="44.47846" lon="0.94289">
        <ele>58.78</ele>
        <time>2015-01-31T16:17:42Z</time>
      </trkpt>
      <trkpt lat="44.47821" lon="0.9423">
        <ele>58.78</ele>
        <time>2015-01-31T16:17:55Z</time>
      </trkpt>
      <trkpt lat="44.478" lon="0.94194">
        <ele>56.37</ele>
        <time>2015-01-31T16:18:06Z</time>
      </trkpt>
      <trkpt lat="44.4777" lon="0.94146">
        <ele>55.41</ele>
        <time>2015-01-31T16:18:18Z</time>
      </trkpt>
      <trkpt lat="44.47758" lon="0.94133">
        <ele>55.41</ele>
        <time>2015-01-31T16:18:22Z</time>
      </trkpt>
      <trkpt lat="44.47713" lon="0.94094">
        <ele>53.49</ele>
        <time>2015-01-31T16:18:37Z</time>
      </trkpt>
      <trkpt lat="44.47688" lon="0.9407">
        <ele>53.01</ele>
        <time>2015-01-31T16:18:47Z</time>
      </trkpt>
      <trkpt lat="44.47658" lon="0.94049">
        <ele>53.97</ele>
        <time>2015-01-31T16:19:01Z</time>
      </trkpt>
      <trkpt lat="44.47624" lon="0.94028">
        <ele>53.49</ele>
        <time>2015-01-31T16:19:16Z</time>
      </trkpt>
      <trkpt lat="44.47587" lon="0.93998">
        <ele>52.53</ele>
        <time>2015-01-31T16:19:29Z</time>
      </trkpt>
      <trkpt lat="44.4758" lon="0.93992">
        <ele>52.53</ele>
        <time>2015-01-31T16:19:31Z</time>
      </trkpt>
      <trkpt lat="44.47576" lon="0.93988">
        <ele>52.53</ele>
        <time>2015-01-31T16:19:32Z</time>
      </trkpt>
      <trkpt lat="44.47572" lon="0.93985">
        <ele>52.53</ele>
        <time>2015-01-31T16:19:33Z</time>
      </trkpt>
      <trkpt lat="44.47546" lon="0.93964">
        <ele>53.49</ele>
        <time>2015-01-31T16:19:41Z</time>
      </trkpt>
      <trkpt lat="44.47544" lon="0.93965">
        <ele>53.49</ele>
        <time>2015-01-31T16:19:42Z</time>
      </trkpt>
      <trkpt lat="44.47541" lon="0.93965">
        <ele>53.49</ele>
        <time>2015-01-31T16:19:43Z</time>
      </trkpt>
      <trkpt lat="44.47538" lon="0.93963">
        <ele>53.97</ele>
        <time>2015-01-31T16:19:44Z</time>
      </trkpt>
      <trkpt lat="44.47536" lon="0.93962">
        <ele>53.97</ele>
        <time>2015-01-31T16:19:45Z</time>
      </trkpt>
      <trkpt lat="44.47533" lon="0.93961">
        <ele>53.97</ele>
        <time>2015-01-31T16:19:46Z</time>
      </trkpt>
      <trkpt lat="44.47531" lon="0.93961">
        <ele>54.45</ele>
        <time>2015-01-31T16:19:47Z</time>
      </trkpt>
      <trkpt lat="44.47528" lon="0.93961">
        <ele>54.45</ele>
        <time>2015-01-31T16:19:48Z</time>
      </trkpt>
      <trkpt lat="44.47526" lon="0.93961">
        <ele>54.45</ele>
        <time>2015-01-31T16:19:49Z</time>
      </trkpt>
      <trkpt lat="44.47524" lon="0.9396">
        <ele>54.93</ele>
        <time>2015-01-31T16:19:50Z</time>
      </trkpt>
      <trkpt lat="44.47522" lon="0.9396">
        <ele>54.93</ele>
        <time>2015-01-31T16:19:51Z</time>
      </trkpt>
      <trkpt lat="44.47521" lon="0.93958">
        <ele>54.93</ele>
        <time>2015-01-31T16:20:03Z</time>
      </trkpt>
      <trkpt lat="44.47523" lon="0.93958">
        <ele>55.89</ele>
        <time>2015-01-31T16:20:14Z</time>
      </trkpt>
      <trkpt lat="44.47524" lon="0.93958">
        <ele>55.89</ele>
        <time>2015-01-31T16:20:15Z</time>
      </trkpt>
      <trkpt lat="44.47526" lon="0.93959">
        <ele>55.89</ele>
        <time>2015-01-31T16:20:16Z</time>
      </trkpt>
      <trkpt lat="44.47528" lon="0.9396">
        <ele>55.89</ele>
        <time>2015-01-31T16:20:17Z</time>
      </trkpt>
      <trkpt lat="44.4753" lon="0.93961">
        <ele>55.41</ele>
        <time>2015-01-31T16:20:18Z</time>
      </trkpt>
      <trkpt lat="44.47533" lon="0.93961">
        <ele>55.41</ele>
        <time>2015-01-31T16:20:19Z</time>
      </trkpt>
      <trkpt lat="44.47538" lon="0.9396">
        <ele>55.41</ele>
        <time>2015-01-31T16:20:22Z</time>
      </trkpt>
      <trkpt lat="44.47539" lon="0.93961">
        <ele>55.41</ele>
        <time>2015-01-31T16:20:23Z</time>
      </trkpt>
      <trkpt lat="44.4754" lon="0.93963">
        <ele>54.93</ele>
        <time>2015-01-31T16:20:24Z</time>
      </trkpt>
      <trkpt lat="44.47539" lon="0.93964">
        <ele>54.93</ele>
        <time>2015-01-31T16:20:25Z</time>
      </trkpt>
      <trkpt lat="44.47537" lon="0.93964">
        <ele>54.93</ele>
        <time>2015-01-31T16:20:26Z</time>
      </trkpt>
      <trkpt lat="44.47535" lon="0.93963">
        <ele>54.93</ele>
        <time>2015-01-31T16:20:27Z</time>
      </trkpt>
      <trkpt lat="44.47533" lon="0.93962">
        <ele>54.93</ele>
        <time>2015-01-31T16:20:28Z</time>
      </trkpt>
      <trkpt lat="44.4753" lon="0.93961">
        <ele>55.41</ele>
        <time>2015-01-31T16:20:29Z</time>
      </trkpt>
      <trkpt lat="44.47528" lon="0.9396">
        <ele>55.41</ele>
        <time>2015-01-31T16:20:30Z</time>
      </trkpt>
      <trkpt lat="44.47526" lon="0.9396">
        <ele>55.41</ele>
        <time>2015-01-31T16:20:31Z</time>
      </trkpt>
      <trkpt lat="44.47511" lon="0.93936">
        <ele>55.89</ele>
        <time>2015-01-31T16:20:40Z</time>
      </trkpt>
      <trkpt lat="44.47494" lon="0.93899">
        <ele>55.41</ele>
        <time>2015-01-31T16:20:51Z</time>
      </trkpt>
      <trkpt lat="44.47491" lon="0.93896">
        <ele>56.37</ele>
        <time>2015-01-31T16:21:02Z</time>
      </trkpt>
      <trkpt lat="44.47489" lon="0.93895">
        <ele>58.3</ele>
        <time>2015-01-31T16:21:27Z</time>
      </trkpt>
      <trkpt lat="44.47462" lon="0.93911">
        <ele>58.3</ele>
        <time>2015-01-31T16:21:39Z</time>
      </trkpt>
      <trkpt lat="44.47421" lon="0.93941">
        <ele>61.18</ele>
        <time>2015-01-31T16:21:54Z</time>
      </trkpt>
      <trkpt lat="44.47401" lon="0.93951">
        <ele>63.1</ele>
        <time>2015-01-31T16:22:00Z</time>
      </trkpt>
      <trkpt lat="44.47398" lon="0.93952">
        <ele>63.1</ele>
        <time>2015-01-31T16:22:01Z</time>
      </trkpt>
      <trkpt lat="44.47395" lon="0.93953">
        <ele>63.58</ele>
        <time>2015-01-31T16:22:02Z</time>
      </trkpt>
      <trkpt lat="44.47393" lon="0.93955">
        <ele>63.58</ele>
        <time>2015-01-31T16:22:03Z</time>
      </trkpt>
      <trkpt lat="44.47392" lon="0.93956">
        <ele>63.58</ele>
        <time>2015-01-31T16:22:04Z</time>
      </trkpt>
      <trkpt lat="44.47391" lon="0.93956">
        <ele>63.58</ele>
        <time>2015-01-31T16:22:05Z</time>
      </trkpt>
      <trkpt lat="44.4739" lon="0.93954">
        <ele>64.07</ele>
        <time>2015-01-31T16:22:06Z</time>
      </trkpt>
      <trkpt lat="44.47379" lon="0.93913">
        <ele>65.03</ele>
        <time>2015-01-31T16:22:17Z</time>
      </trkpt>
      <trkpt lat="44.47374" lon="0.93855">
        <ele>64.07</ele>
        <time>2015-01-31T16:22:29Z</time>
      </trkpt>
      <trkpt lat="44.47359" lon="0.93822">
        <ele>62.62</ele>
        <time>2015-01-31T16:22:38Z</time>
      </trkpt>
      <trkpt lat="44.47357" lon="0.93821">
        <ele>63.1</ele>
        <time>2015-01-31T16:22:39Z</time>
      </trkpt>
      <trkpt lat="44.47354" lon="0.93819">
        <ele>63.1</ele>
        <time>2015-01-31T16:22:40Z</time>
      </trkpt>
      <trkpt lat="44.47351" lon="0.93818">
        <ele>63.58</ele>
        <time>2015-01-31T16:22:41Z</time>
      </trkpt>
      <trkpt lat="44.47349" lon="0.93816">
        <ele>63.58</ele>
        <time>2015-01-31T16:22:42Z</time>
      </trkpt>
      <trkpt lat="44.47347" lon="0.93814">
        <ele>64.07</ele>
        <time>2015-01-31T16:22:43Z</time>
      </trkpt>
      <trkpt lat="44.47345" lon="0.93811">
        <ele>64.07</ele>
        <time>2015-01-31T16:22:44Z</time>
      </trkpt>
      <trkpt lat="44.47344" lon="0.93807">
        <ele>64.55</ele>
        <time>2015-01-31T16:22:45Z</time>
      </trkpt>
      <trkpt lat="44.47344" lon="0.93802">
        <ele>65.03</ele>
        <time>2015-01-31T16:22:46Z</time>
      </trkpt>
      <trkpt lat="44.47344" lon="0.93798">
        <ele>65.51</ele>
        <time>2015-01-31T16:22:47Z</time>
      </trkpt>
      <trkpt lat="44.47344" lon="0.93794">
        <ele>65.99</ele>
        <time>2015-01-31T16:22:48Z</time>
      </trkpt>
      <trkpt lat="44.47343" lon="0.9379">
        <ele>65.99</ele>
        <time>2015-01-31T16:22:49Z</time>
      </trkpt>
      <trkpt lat="44.47341" lon="0.93785">
        <ele>66.47</ele>
        <time>2015-01-31T16:22:50Z</time>
      </trkpt>
      <trkpt lat="44.47341" lon="0.9378">
        <ele>65.99</ele>
        <time>2015-01-31T16:22:51Z</time>
      </trkpt>
      <trkpt lat="44.4734" lon="0.93775">
        <ele>65.99</ele>
        <time>2015-01-31T16:22:52Z</time>
      </trkpt>
      <trkpt lat="44.47338" lon="0.9377">
        <ele>65.99</ele>
        <time>2015-01-31T16:22:53Z</time>
      </trkpt>
      <trkpt lat="44.47337" lon="0.93765">
        <ele>65.99</ele>
        <time>2015-01-31T16:22:54Z</time>
      </trkpt>
      <trkpt lat="44.47314" lon="0.93726">
        <ele>63.58</ele>
        <time>2015-01-31T16:23:05Z</time>
      </trkpt>
      <trkpt lat="44.47312" lon="0.93721">
        <ele>63.58</ele>
        <time>2015-01-31T16:23:06Z</time>
      </trkpt>
      <trkpt lat="44.47292" lon="0.93673">
        <ele>61.66</ele>
        <time>2015-01-31T16:23:17Z</time>
      </trkpt>
      <trkpt lat="44.47278" lon="0.93647">
        <ele>62.62</ele>
        <time>2015-01-31T16:23:22Z</time>
      </trkpt>
      <trkpt lat="44.47253" lon="0.93623">
        <ele>63.1</ele>
        <time>2015-01-31T16:23:29Z</time>
      </trkpt>
      <trkpt lat="44.4725" lon="0.93618">
        <ele>63.1</ele>
        <time>2015-01-31T16:23:30Z</time>
      </trkpt>
      <trkpt lat="44.47248" lon="0.93613">
        <ele>63.58</ele>
        <time>2015-01-31T16:23:31Z</time>
      </trkpt>
      <trkpt lat="44.47246" lon="0.93608">
        <ele>63.58</ele>
        <time>2015-01-31T16:23:32Z</time>
      </trkpt>
      <trkpt lat="44.47244" lon="0.93602">
        <ele>64.07</ele>
        <time>2015-01-31T16:23:33Z</time>
      </trkpt>
      <trkpt lat="44.47229" lon="0.93541">
        <ele>64.55</ele>
        <time>2015-01-31T16:23:45Z</time>
      </trkpt>
      <trkpt lat="44.47228" lon="0.93535">
        <ele>64.55</ele>
        <time>2015-01-31T16:23:46Z</time>
      </trkpt>
      <trkpt lat="44.47227" lon="0.93523">
        <ele>64.55</ele>
        <time>2015-01-31T16:23:48Z</time>
      </trkpt>
      <trkpt lat="44.47225" lon="0.93518">
        <ele>64.55</ele>
        <time>2015-01-31T16:23:49Z</time>
      </trkpt>
      <trkpt lat="44.47217" lon="0.93459">
        <ele>64.55</ele>
        <time>2015-01-31T16:24:01Z</time>
      </trkpt>
      <trkpt lat="44.47209" lon="0.93424">
        <ele>65.03</ele>
        <time>2015-01-31T16:24:10Z</time>
      </trkpt>
      <trkpt lat="44.47209" lon="0.93421">
        <ele>65.03</ele>
        <time>2015-01-31T16:24:11Z</time>
      </trkpt>
      <trkpt lat="44.47207" lon="0.93419">
        <ele>65.03</ele>
        <time>2015-01-31T16:24:21Z</time>
      </trkpt>
      <trkpt lat="44.47207" lon="0.93418">
        <ele>65.03</ele>
        <time>2015-01-31T16:25:04Z</time>
      </trkpt>
      <trkpt lat="44.47207" lon="0.93418">
        <ele>64.55</ele>
        <time>2015-01-31T16:25:49Z</time>
      </trkpt>
      <trkpt lat="44.47206" lon="0.93419">
        <ele>64.55</ele>
        <time>2015-01-31T16:26:35Z</time>
      </trkpt>
      <trkpt lat="44.47205" lon="0.93419">
        <ele>64.55</ele>
        <time>2015-01-31T16:27:21Z</time>
      </trkpt>
      <trkpt lat="44.47205" lon="0.93419">
        <ele>64.55</ele>
        <time>2015-01-31T16:28:00Z</time>
      </trkpt>
      <trkpt lat="44.47205" lon="0.9342">
        <ele>64.07</ele>
        <time>2015-01-31T16:28:15Z</time>
      </trkpt>
    </trkseg>
  </trk>
</gpx>